Time,TemperatureF,DewpointF,PressureIn,WindDirection,WindDirectionDegrees,WindSpeedMPH,WindSpeedGustMPH,Humidity,HourlyPrecipIn,Conditions,Clouds,dailyrainin,SoftwareType,DateUTC
2013-12-30 00:00:00,35.4,35.1,29.56,SE,137,1.6,3.5,99,0.00,CLR,OVC,0.32,WeatherDisplay:10.37,2013-12-30 05:00:00,
2013-12-30 00:01:00,35.4,35.4,29.56,SE,137,1.6,3.5,100,0.00,RA,OVC,0.00,WeatherDisplay:10.37,2013-12-30 05:01:00,
2013-12-30 00:06:00,35.5,35.5,29.55,SE,137,1.5,2.3,100,0.00,RA,OVC,0.00,WeatherDisplay:10.37,2013-12-30 05:06:00,
2013-12-30 00:07:00,35.5,35.5,29.56,SE,137,1.8,2.3,100,0.00,RA,OVC,0.00,WeatherDisplay:10.37,2013-12-30 05:07:00,
2013-12-30 00:11:00,35.6,35.3,29.55,SE,137,1.7,4.0,99,0.00,,OVC,0.00,WeatherDisplay:10.37,2013-12-30 05:11:00,
2013-12-30 00:12:00,35.6,35.3,29.55,SE,137,2.2,3.5,99,0.00,,OVC,0.00,WeatherDisplay:10.37,2013-12-30 05:12:00,
2013-12-30 00:16:00,35.7,35.4,29.55,SE,137,2.0,3.0,99,0.00,,OVC,0.00,WeatherDisplay:10.37,2013-12-30 05:16:00,
2013-12-30 00:17:00,35.7,35.7,29.55,SE,137,2.1,2.3,100,0.00,,OVC,0.00,WeatherDisplay:10.37,2013-12-30 05:17:00,
2013-12-30 00:18:00,35.7,35.7,29.55,SE,137,2.3,3.5,100,0.00,,OVC,0.00,WeatherDisplay:10.37,2013-12-30 05:18:00,
2013-12-30 00:22:00,35.9,35.9,29.55,SE,137,1.6,2.3,100,0.00,,OVC,0.00,WeatherDisplay:10.37,2013-12-30 05:22:00,
2013-12-30 00:23:00,35.9,35.9,29.55,SE,137,1.1,3.5,100,0.00,,OVC,0.00,WeatherDisplay:10.37,2013-12-30 05:23:00,
2013-12-30 00:27:00,36.0,36.0,29.55,SSE,155,3.2,6.9,100,0.00,,OVC,0.00,WeatherDisplay:10.37,2013-12-30 05:27:00,
2013-12-30 00:28:00,36.0,36.0,29.55,SSE,155,3.4,6.0,100,0.00,,OVC,0.00,WeatherDisplay:10.37,2013-12-30 05:28:00,
2013-12-30 00:29:00,36.1,36.1,29.55,SSE,155,4.1,5.0,100,0.00,,OVC,0.00,WeatherDisplay:10.37,2013-12-30 05:29:00,
2013-12-30 00:32:00,36.4,36.4,29.55,SE,143,5.9,8.1,100,0.00,,OVC,0.00,WeatherDisplay:10.37,2013-12-30 05:32:00,
2013-12-30 00:33:00,36.4,36.4,29.55,South,171,5.5,8.1,100,0.00,,OVC,0.00,WeatherDisplay:10.37,2013-12-30 05:33:00,
2013-12-30 00:34:00,36.5,36.5,29.55,SSE,147,6.2,9.2,100,0.00,,OVC,0.00,WeatherDisplay:10.37,2013-12-30 05:34:00,
2013-12-30 00:37:00,36.5,36.5,29.55,SE,139,6.8,8.1,100,0.00,CLR,OVC,0.00,WeatherDisplay:10.37,2013-12-30 05:37:00,
2013-12-30 00:38:00,36.6,36.6,29.55,SSE,161,6.1,8.1,100,0.00,CLR,OVC,0.00,WeatherDisplay:10.37,2013-12-30 05:38:00,
2013-12-30 00:39:00,36.5,36.5,29.55,SE,146,5.3,8.1,100,0.00,CLR,OVC,0.00,WeatherDisplay:10.37,2013-12-30 05:39:00,
2013-12-30 00:40:00,36.5,36.5,29.55,SSE,161,5.7,11.5,100,0.00,CLR,OVC,0.00,WeatherDisplay:10.37,2013-12-30 05:40:00,
2013-12-30 00:42:00,36.5,36.5,29.55,South,184,5.0,9.2,100,0.00,CLR,OVC,0.00,WeatherDisplay:10.37,2013-12-30 05:42:00,
2013-12-30 00:43:00,36.5,36.5,29.54,SSE,164,5.0,9.2,100,0.00,CLR,OVC,0.00,WeatherDisplay:10.37,2013-12-30 05:43:00,
2013-12-30 00:44:00,36.5,36.5,29.55,SSE,148,6.9,10.4,100,0.00,CLR,OVC,0.00,WeatherDisplay:10.37,2013-12-30 05:44:00,
2013-12-30 00:45:00,36.5,36.5,29.55,SSE,149,5.5,10.4,100,0.00,CLR,OVC,0.00,WeatherDisplay:10.37,2013-12-30 05:45:00,
2013-12-30 00:48:00,36.4,36.4,29.54,SSE,168,7.9,9.2,100,0.00,CLR,OVC,0.00,WeatherDisplay:10.37,2013-12-30 05:48:00,
2013-12-30 00:49:00,36.5,36.5,29.54,SE,142,6.7,11.5,100,0.00,CLR,OVC,0.00,WeatherDisplay:10.37,2013-12-30 05:49:00,
2013-12-30 00:50:00,36.5,36.5,29.54,SSE,155,4.9,6.9,100,0.00,CLR,OVC,0.00,WeatherDisplay:10.37,2013-12-30 05:50:00,
2013-12-30 00:51:00,36.5,36.5,29.54,SSE,156,4.8,6.9,100,0.00,CLR,OVC,0.00,WeatherDisplay:10.37,2013-12-30 05:51:00,
2013-12-30 00:53:00,36.5,36.5,29.54,SSE,154,3.7,5.8,100,0.00,CLR,OVC,0.00,WeatherDisplay:10.37,2013-12-30 05:53:00,
2013-12-30 00:54:00,36.5,36.5,29.54,SSE,149,5.9,9.0,100,0.00,CLR,OVC,0.00,WeatherDisplay:10.37,2013-12-30 05:54:00,
2013-12-30 00:55:00,36.5,36.5,29.54,SE,135,6.9,10.4,100,0.00,CLR,OVC,0.00,WeatherDisplay:10.37,2013-12-30 05:55:00,
2013-12-30 00:56:00,36.6,36.6,29.54,SE,135,4.7,8.1,100,0.00,CLR,OVC,0.00,WeatherDisplay:10.37,2013-12-30 05:56:00,
2013-12-30 00:58:00,36.6,36.6,29.55,SE,133,4.6,11.5,100,0.00,,OVC,0.00,WeatherDisplay:10.37,2013-12-30 05:58:00,
2013-12-30 00:59:00,36.6,36.6,29.54,South,183,3.2,8.1,100,0.00,,OVC,0.00,WeatherDisplay:10.37,2013-12-30 05:59:00,
2013-12-30 01:01:00,36.6,36.6,29.54,South,183,2.6,8.1,100,0.00,,OVC,0.00,WeatherDisplay:10.37,2013-12-30 06:01:00,
2013-12-30 01:03:00,36.8,36.8,29.54,South,182,2.3,5.0,100,0.00,,OVC,0.00,WeatherDisplay:10.37,2013-12-30 06:03:00,
2013-12-30 01:04:00,36.8,36.8,29.54,South,171,4.7,6.9,100,0.00,,OVC,0.00,WeatherDisplay:10.37,2013-12-30 06:04:00,
2013-12-30 01:07:00,36.9,36.9,29.54,SSW,210,5.3,6.9,100,0.00,,OVC,0.00,WeatherDisplay:10.37,2013-12-30 06:07:00,
2013-12-30 01:08:00,36.9,36.9,29.54,SSE,167,6.7,9.2,100,0.00,,OVC,0.00,WeatherDisplay:10.37,2013-12-30 06:08:00,
2013-12-30 01:09:00,36.9,36.9,29.54,SSE,163,4.4,9.2,100,0.00,,OVC,0.00,WeatherDisplay:10.37,2013-12-30 06:09:00,
2013-12-30 01:12:00,37.0,37.0,29.55,South,186,2.2,8.1,100,0.00,,OVC,0.00,WeatherDisplay:10.37,2013-12-30 06:12:00,
2013-12-30 01:13:00,37.0,37.0,29.55,South,183,6.5,12.7,100,0.00,,OVC,0.00,WeatherDisplay:10.37,2013-12-30 06:13:00,
2013-12-30 01:14:00,37.1,37.1,29.55,SSW,206,6.6,12.7,100,0.00,,OVC,0.00,WeatherDisplay:10.37,2013-12-30 06:14:00,
2013-12-30 01:17:00,37.4,37.4,29.55,SSE,166,6.8,10.4,100,0.00,,OVC,0.00,WeatherDisplay:10.37,2013-12-30 06:17:00,
2013-12-30 01:18:00,37.5,37.5,29.55,SSE,149,3.9,8.1,100,0.00,,OVC,0.00,WeatherDisplay:10.37,2013-12-30 06:18:00,
2013-12-30 01:19:00,37.6,37.6,29.55,SW,224,3.7,5.0,100,0.00,,OVC,0.00,WeatherDisplay:10.37,2013-12-30 06:19:00,
2013-12-30 01:20:00,37.7,37.7,29.55,SW,220,3.6,4.6,100,0.00,,OVC,0.00,WeatherDisplay:10.37,2013-12-30 06:20:00,
2013-12-30 01:23:00,37.8,37.8,29.55,SSW,210,1.2,2.0,100,0.00,,OVC,0.00,WeatherDisplay:10.37,2013-12-30 06:23:00,
2013-12-30 01:24:00,37.8,37.8,29.55,SSW,196,2.0,4.6,100,0.00,,OVC,0.00,WeatherDisplay:10.37,2013-12-30 06:24:00,
2013-12-30 01:25:00,37.8,37.8,29.55,SSW,196,0.5,3.5,100,0.00,,OVC,0.00,WeatherDisplay:10.37,2013-12-30 06:25:00,
2013-12-30 01:28:00,37.9,37.9,29.55,SSW,198,1.0,3.5,100,0.00,,OVC,0.00,WeatherDisplay:10.37,2013-12-30 06:28:00,
2013-12-30 01:29:00,37.8,37.8,29.55,SSW,198,0.8,2.3,100,0.00,,OVC,0.00,WeatherDisplay:10.37,2013-12-30 06:29:00,
2013-12-30 01:30:00,37.9,37.9,29.56,South,173,1.3,3.5,100,0.00,,OVC,0.00,WeatherDisplay:10.37,2013-12-30 06:30:00,
2013-12-30 01:33:00,37.8,37.8,29.56,South,173,3.2,4.6,100,0.00,,OVC,0.00,WeatherDisplay:10.37,2013-12-30 06:33:00,
2013-12-30 01:34:00,37.9,37.9,29.56,South,171,3.4,5.0,100,0.00,,OVC,0.00,WeatherDisplay:10.37,2013-12-30 06:34:00,
2013-12-30 01:35:00,37.8,37.8,29.56,South,171,4.3,6.9,100,0.00,,OVC,0.00,WeatherDisplay:10.37,2013-12-30 06:35:00,
2013-12-30 01:38:00,37.9,37.9,29.56,SSE,152,6.6,9.2,100,0.00,,OVC,0.00,WeatherDisplay:10.37,2013-12-30 06:38:00,
2013-12-30 01:39:00,37.9,37.9,29.56,SSW,192,6.0,11.5,100,0.00,,OVC,0.00,WeatherDisplay:10.37,2013-12-30 06:39:00,
2013-12-30 01:40:00,37.9,37.9,29.56,SSW,193,4.4,11.5,100,0.00,,OVC,0.00,WeatherDisplay:10.37,2013-12-30 06:40:00,
2013-12-30 01:43:00,37.9,37.9,29.56,South,176,7.0,9.2,100,0.00,,OVC,0.00,WeatherDisplay:10.37,2013-12-30 06:43:00,
2013-12-30 01:45:00,37.9,37.9,29.56,South,177,5.7,9.2,100,0.00,,OVC,0.00,WeatherDisplay:10.37,2013-12-30 06:45:00,
2013-12-30 01:48:00,38.0,38.0,29.56,South,182,6.9,10.4,100,0.00,,OVC,0.00,WeatherDisplay:10.37,2013-12-30 06:48:00,
2013-12-30 01:49:00,38.0,38.0,29.56,SSW,193,5.7,9.2,100,0.00,,OVC,0.00,WeatherDisplay:10.37,2013-12-30 06:49:00,
2013-12-30 01:50:00,38.0,38.0,29.56,South,173,6.1,12.0,100,0.00,,OVC,0.00,WeatherDisplay:10.37,2013-12-30 06:50:00,
2013-12-30 01:51:00,38.0,38.0,29.56,SSE,167,8.1,12.7,100,0.00,,OVC,0.00,WeatherDisplay:10.37,2013-12-30 06:51:00,
2013-12-30 01:54:00,38.0,38.0,29.56,SSE,164,7.9,11.5,100,0.00,CLR,OVC,0.00,WeatherDisplay:10.37,2013-12-30 06:54:00,
2013-12-30 01:55:00,38.1,37.8,29.56,South,189,7.3,11.0,99,0.00,CLR,OVC,0.00,WeatherDisplay:10.37,2013-12-30 06:55:00,
2013-12-30 01:56:00,38.1,38.1,29.56,South,189,9.2,11.5,100,0.00,CLR,OVC,0.00,WeatherDisplay:10.37,2013-12-30 06:56:00,
2013-12-30 01:59:00,38.2,38.2,29.56,SSW,199,6.4,8.1,100,0.00,CLR,OVC,0.00,WeatherDisplay:10.37,2013-12-30 06:59:00,
2013-12-30 02:00:00,38.1,37.9,29.57,South,179,6.0,13.0,99,0.00,CLR,OVC,0.00,WeatherDisplay:10.37,2013-12-30 07:00:00,
2013-12-30 02:01:00,38.1,38.1,29.56,SSW,201,5.2,6.9,100,0.00,CLR,OVC,0.00,WeatherDisplay:10.37,2013-12-30 07:01:00,
2013-12-30 02:05:00,38.1,37.8,29.56,SSE,154,7.5,9.2,99,0.00,CLR,OVC,0.00,WeatherDisplay:10.37,2013-12-30 07:05:00,
2013-12-30 02:06:00,38.1,37.8,29.56,SE,135,6.8,9.2,99,0.00,CLR,OVC,0.00,WeatherDisplay:10.37,2013-12-30 07:06:00,
2013-12-30 02:10:00,38.0,37.7,29.56,SSE,151,5.8,8.0,99,0.00,CLR,OVC,0.00,WeatherDisplay:10.37,2013-12-30 07:10:00,
2013-12-30 02:11:00,38.0,37.7,29.56,SSE,148,4.7,8.1,99,0.00,CLR,OVC,0.00,WeatherDisplay:10.37,2013-12-30 07:11:00,
2013-12-30 02:12:00,38.0,37.7,29.56,SE,141,3.9,6.9,99,0.00,CLR,OVC,0.00,WeatherDisplay:10.37,2013-12-30 07:12:00,
2013-12-30 02:15:00,38.0,37.7,29.56,SE,132,4.4,5.8,99,0.00,CLR,OVC,0.00,WeatherDisplay:10.37,2013-12-30 07:15:00,
2013-12-30 02:16:00,37.9,37.6,29.57,SE,133,3.1,4.6,99,0.00,CLR,OVC,0.00,WeatherDisplay:10.37,2013-12-30 07:16:00,
2013-12-30 02:17:00,37.9,37.6,29.57,SE,132,2.5,3.5,99,0.00,CLR,OVC,0.00,WeatherDisplay:10.37,2013-12-30 07:17:00,
2013-12-30 02:20:00,37.9,37.6,29.57,SE,132,1.9,3.5,99,0.00,CLR,OVC,0.00,WeatherDisplay:10.37,2013-12-30 07:20:00,
2013-12-30 02:21:00,37.9,37.6,29.57,SE,133,1.0,3.5,99,0.00,CLR,OVC,0.00,WeatherDisplay:10.37,2013-12-30 07:21:00,
2013-12-30 02:22:00,37.8,37.5,29.57,SE,132,1.1,3.5,99,0.00,CLR,OVC,0.00,WeatherDisplay:10.37,2013-12-30 07:22:00,
2013-12-30 02:25:00,37.8,37.5,29.57,SE,132,1.6,3.5,99,0.00,CLR,OVC,0.00,WeatherDisplay:10.37,2013-12-30 07:25:00,
2013-12-30 02:26:00,37.7,37.4,29.57,SE,132,2.6,3.5,99,0.00,CLR,OVC,0.00,WeatherDisplay:10.37,2013-12-30 07:26:00,
2013-12-30 02:27:00,37.7,37.4,29.57,SE,132,3.1,3.5,99,0.00,CLR,OVC,0.00,WeatherDisplay:10.37,2013-12-30 07:27:00,
2013-12-30 02:28:00,37.7,37.4,29.57,SE,132,2.3,3.5,99,0.00,CLR,OVC,0.00,WeatherDisplay:10.37,2013-12-30 07:28:00,
2013-12-30 02:30:00,37.7,37.4,29.57,SE,132,4.5,5.8,99,0.00,CLR,OVC,0.00,WeatherDisplay:10.37,2013-12-30 07:30:00,
2013-12-30 02:31:00,37.7,37.4,29.57,SE,132,4.5,5.8,99,0.00,CLR,OVC,0.00,WeatherDisplay:10.37,2013-12-30 07:31:00,
2013-12-30 02:32:00,37.6,37.3,29.57,SE,132,3.9,5.8,99,0.00,CLR,OVC,0.00,WeatherDisplay:10.37,2013-12-30 07:32:00,
2013-12-30 02:33:00,37.6,37.3,29.57,SE,132,3.0,4.0,99,0.00,CLR,OVC,0.00,WeatherDisplay:10.37,2013-12-30 07:33:00,
2013-12-30 02:34:00,37.6,37.3,29.57,SE,132,3.6,6.0,99,0.00,CLR,OVC,0.00,WeatherDisplay:10.37,2013-12-30 07:34:00,
2013-12-30 02:36:00,37.6,37.3,29.57,SE,136,6.0,7.0,99,0.00,CLR,OVC,0.00,WeatherDisplay:10.37,2013-12-30 07:36:00,
2013-12-30 02:37:00,37.6,37.3,29.58,SE,134,5.3,8.1,99,0.00,CLR,OVC,0.00,WeatherDisplay:10.37,2013-12-30 07:37:00,
2013-12-30 02:39:00,37.6,37.3,29.58,SE,131,5.9,8.1,99,0.00,CLR,OVC,0.00,WeatherDisplay:10.37,2013-12-30 07:39:00,
2013-12-30 02:41:00,37.6,37.3,29.58,SE,130,6.0,8.1,99,0.00,CLR,OVC,0.00,WeatherDisplay:10.37,2013-12-30 07:41:00,
2013-12-30 02:42:00,37.6,37.3,29.58,SE,130,5.4,8.1,99,0.00,CLR,OVC,0.00,WeatherDisplay:10.37,2013-12-30 07:42:00,
2013-12-30 02:43:00,37.6,37.3,29.58,SE,140,5.5,6.9,99,0.00,CLR,OVC,0.00,WeatherDisplay:10.37,2013-12-30 07:43:00,
2013-12-30 02:44:00,37.6,37.3,29.58,SE,141,3.3,5.8,99,0.00,CLR,OVC,0.00,WeatherDisplay:10.37,2013-12-30 07:44:00,
2013-12-30 02:45:00,37.6,37.3,29.58,SE,141,3.9,5.8,99,0.00,CLR,OVC,0.00,WeatherDisplay:10.37,2013-12-30 07:45:00,
2013-12-30 02:46:00,37.6,37.3,29.58,SE,135,4.2,5.0,99,0.00,CLR,OVC,0.00,WeatherDisplay:10.37,2013-12-30 07:46:00,
2013-12-30 02:47:00,37.6,37.3,29.58,SE,135,4.5,5.8,99,0.00,CLR,OVC,0.00,WeatherDisplay:10.37,2013-12-30 07:47:00,
2013-12-30 02:48:00,37.7,37.4,29.58,SE,135,3.6,4.6,99,0.00,CLR,OVC,0.00,WeatherDisplay:10.37,2013-12-30 07:48:00,
2013-12-30 02:50:00,37.7,37.4,29.59,SE,135,3.3,4.6,99,0.00,CLR,OVC,0.00,WeatherDisplay:10.37,2013-12-30 07:50:00,
2013-12-30 02:51:00,37.7,37.4,29.59,SE,135,3.1,4.6,99,0.00,CLR,OVC,0.00,WeatherDisplay:10.37,2013-12-30 07:51:00,
2013-12-30 02:52:00,37.7,37.4,29.59,SE,135,2.1,3.5,99,0.00,CLR,OVC,0.00,WeatherDisplay:10.37,2013-12-30 07:52:00,
2013-12-30 02:53:00,37.7,37.4,29.59,SE,135,2.0,3.5,99,0.00,CLR,OVC,0.00,WeatherDisplay:10.37,2013-12-30 07:53:00,
2013-12-30 02:55:00,37.7,37.4,29.59,SE,135,3.6,4.6,99,0.00,CLR,OVC,0.00,WeatherDisplay:10.37,2013-12-30 07:55:00,
2013-12-30 02:56:00,37.7,37.4,29.59,SE,135,3.6,4.6,99,0.00,CLR,OVC,0.00,WeatherDisplay:10.37,2013-12-30 07:56:00,
2013-12-30 02:58:00,37.7,37.4,29.59,SE,135,4.0,4.6,99,0.00,CLR,OVC,0.00,WeatherDisplay:10.37,2013-12-30 07:58:00,
2013-12-30 03:01:00,37.7,37.4,29.59,SE,135,4.8,5.8,99,0.00,CLR,OVC,0.00,WeatherDisplay:10.37,2013-12-30 08:01:00,
2013-12-30 03:02:00,37.7,37.4,29.59,SE,135,3.6,6.0,99,0.00,CLR,OVC,0.00,WeatherDisplay:10.37,2013-12-30 08:02:00,
2013-12-30 03:03:00,37.7,37.4,29.59,SE,135,5.1,5.8,99,0.00,CLR,OVC,0.00,WeatherDisplay:10.37,2013-12-30 08:03:00,
2013-12-30 03:06:00,37.7,37.4,29.59,SE,135,2.4,3.5,99,0.00,CLR,OVC,0.00,WeatherDisplay:10.37,2013-12-30 08:06:00,
2013-12-30 03:07:00,37.7,37.4,29.59,SE,135,2.7,3.5,99,0.00,CLR,OVC,0.00,WeatherDisplay:10.37,2013-12-30 08:07:00,
2013-12-30 03:08:00,37.7,37.4,29.59,SE,135,3.3,6.0,99,0.00,CLR,OVC,0.00,WeatherDisplay:10.37,2013-12-30 08:08:00,
2013-12-30 03:09:00,37.7,37.4,29.59,SE,135,4.7,5.0,99,0.00,CLR,OVC,0.00,WeatherDisplay:10.37,2013-12-30 08:09:00,
2013-12-30 03:11:00,37.7,37.4,29.59,SSE,162,5.3,5.3,99,0.00,CLR,OVC,0.00,WeatherDisplay:10.37,2013-12-30 08:11:00,
2013-12-30 03:12:00,37.8,37.5,29.58,SSE,163,3.4,4.6,99,0.00,CLR,OVC,0.00,WeatherDisplay:10.37,2013-12-30 08:12:00,
2013-12-30 03:14:00,37.8,37.5,29.59,SSE,165,6.3,9.2,99,0.00,CLR,OVC,0.00,WeatherDisplay:10.37,2013-12-30 08:14:00,
2013-12-30 03:16:00,37.9,37.6,29.59,South,189,5.7,9.2,99,0.00,CLR,OVC,0.00,WeatherDisplay:10.37,2013-12-30 08:16:00,
2013-12-30 03:17:00,37.9,37.6,29.59,South,189,5.3,7.0,99,0.00,CLR,OVC,0.00,WeatherDisplay:10.37,2013-12-30 08:17:00,
2013-12-30 03:19:00,38.0,37.7,29.59,South,189,4.3,6.9,99,0.00,CLR,OVC,0.00,WeatherDisplay:10.37,2013-12-30 08:19:00,
2013-12-30 03:20:00,38.1,37.8,29.59,SSW,195,5.2,7.0,99,0.00,CLR,OVC,0.00,WeatherDisplay:10.37,2013-12-30 08:20:00,
2013-12-30 03:21:00,38.1,37.8,29.59,SSW,194,5.5,9.2,99,0.00,CLR,OVC,0.00,WeatherDisplay:10.37,2013-12-30 08:21:00,
2013-12-30 03:22:00,38.1,37.8,29.59,South,189,4.5,7.0,99,0.00,CLR,OVC,0.00,WeatherDisplay:10.37,2013-12-30 08:22:00,
2013-12-30 03:23:00,38.1,37.8,29.59,SSW,198,4.7,5.8,99,0.00,CLR,OVC,0.00,WeatherDisplay:10.37,2013-12-30 08:23:00,
2013-12-30 03:24:00,38.1,37.8,29.59,South,190,4.9,6.9,99,0.00,CLR,OVC,0.00,WeatherDisplay:10.37,2013-12-30 08:24:00,
2013-12-30 03:25:00,38.2,37.9,29.59,South,186,3.5,6.9,99,0.00,CLR,OVC,0.00,WeatherDisplay:10.37,2013-12-30 08:25:00,
2013-12-30 03:26:00,38.2,37.9,29.59,SSW,209,4.5,8.0,99,0.00,CLR,OVC,0.00,WeatherDisplay:10.37,2013-12-30 08:26:00,
2013-12-30 03:27:00,38.2,37.9,29.59,SSW,197,6.2,9.2,99,0.00,CLR,OVC,0.00,WeatherDisplay:10.37,2013-12-30 08:27:00,
2013-12-30 03:28:00,38.2,37.9,29.59,South,187,4.5,6.9,99,0.00,CLR,OVC,0.00,WeatherDisplay:10.37,2013-12-30 08:28:00,
2013-12-30 03:29:00,38.2,37.9,29.59,SSW,195,4.6,6.9,99,0.00,CLR,OVC,0.00,WeatherDisplay:10.37,2013-12-30 08:29:00,
2013-12-30 03:30:00,38.2,37.7,29.59,SSW,193,4.2,7.0,98,0.00,CLR,OVC,0.00,WeatherDisplay:10.37,2013-12-30 08:30:00,
2013-12-30 03:32:00,38.2,37.7,29.59,South,170,5.6,6.9,98,0.00,CLR,OVC,0.00,WeatherDisplay:10.37,2013-12-30 08:32:00,
2013-12-30 03:33:00,38.2,37.7,29.59,SSW,192,5.9,9.2,98,0.00,CLR,OVC,0.00,WeatherDisplay:10.37,2013-12-30 08:33:00,
2013-12-30 03:34:00,38.2,37.7,29.59,South,191,6.1,9.2,98,0.00,CLR,OVC,0.00,WeatherDisplay:10.37,2013-12-30 08:34:00,
2013-12-30 03:35:00,38.2,37.7,29.59,South,179,7.2,9.2,98,0.00,CLR,OVC,0.00,WeatherDisplay:10.37,2013-12-30 08:35:00,
2013-12-30 03:37:00,38.2,37.9,29.59,South,171,6.6,9.2,99,0.00,CLR,OVC,0.00,WeatherDisplay:10.37,2013-12-30 08:37:00,
2013-12-30 03:39:00,38.3,38.0,29.59,South,171,6.6,10.4,99,0.00,CLR,OVC,0.00,WeatherDisplay:10.37,2013-12-30 08:39:00,
2013-12-30 03:40:00,38.3,37.8,29.59,South,172,6.4,10.4,98,0.00,CLR,OVC,0.00,WeatherDisplay:10.37,2013-12-30 08:40:00,
2013-12-30 03:43:00,38.3,38.0,29.59,South,182,7.4,10.4,99,0.00,CLR,OVC,0.00,WeatherDisplay:10.37,2013-12-30 08:43:00,
2013-12-30 03:44:00,38.3,38.0,29.59,South,181,6.1,9.2,99,0.00,CLR,OVC,0.00,WeatherDisplay:10.37,2013-12-30 08:44:00,
2013-12-30 03:45:00,38.4,37.9,29.59,South,181,6.0,9.2,98,0.00,CLR,OVC,0.00,WeatherDisplay:10.37,2013-12-30 08:45:00,
2013-12-30 03:46:00,38.4,37.9,29.59,South,181,5.3,8.1,98,0.00,CLR,OVC,0.00,WeatherDisplay:10.37,2013-12-30 08:46:00,
2013-12-30 03:48:00,38.4,37.9,29.59,SE,130,8.4,10.4,98,0.00,CLR,OVC,0.00,WeatherDisplay:10.37,2013-12-30 08:48:00,
2013-12-30 03:49:00,38.4,37.9,29.59,SSE,159,5.8,10.4,98,0.00,CLR,OVC,0.00,WeatherDisplay:10.37,2013-12-30 08:49:00,
2013-12-30 03:50:00,38.5,38.0,29.59,SSE,160,5.4,10.4,98,0.00,CLR,OVC,0.00,WeatherDisplay:10.37,2013-12-30 08:50:00,
2013-12-30 03:51:00,38.5,38.0,29.60,SSE,153,5.4,8.1,98,0.00,CLR,OVC,0.00,WeatherDisplay:10.37,2013-12-30 08:51:00,
2013-12-30 03:53:00,38.5,38.0,29.59,South,170,4.8,8.1,98,0.00,CLR,OVC,0.00,WeatherDisplay:10.37,2013-12-30 08:53:00,
2013-12-30 03:54:00,38.5,38.0,29.60,SSE,165,7.0,9.2,98,0.00,CLR,OVC,0.00,WeatherDisplay:10.37,2013-12-30 08:54:00,
2013-12-30 03:55:00,38.5,38.0,29.59,SSE,167,6.5,9.2,98,0.00,CLR,OVC,0.00,WeatherDisplay:10.37,2013-12-30 08:55:00,
2013-12-30 03:56:00,38.6,38.1,29.60,SSE,165,5.9,7.0,98,0.00,CLR,OVC,0.00,WeatherDisplay:10.37,2013-12-30 08:56:00,
2013-12-30 03:58:00,38.6,38.1,29.59,SSE,162,4.4,5.8,98,0.00,CLR,OVC,0.00,WeatherDisplay:10.37,2013-12-30 08:58:00,
2013-12-30 03:59:00,38.6,38.1,29.59,SSE,168,5.5,8.1,98,0.00,CLR,OVC,0.00,WeatherDisplay:10.37,2013-12-30 08:59:00,
2013-12-30 04:00:00,38.6,38.1,29.59,SSE,168,4.8,8.1,98,0.00,CLR,OVC,0.00,WeatherDisplay:10.37,2013-12-30 09:00:00,
2013-12-30 04:01:00,38.6,38.1,29.59,SSE,155,4.8,5.8,98,0.00,CLR,OVC,0.00,WeatherDisplay:10.37,2013-12-30 09:01:00,
2013-12-30 04:04:00,38.6,37.8,29.60,SSE,167,5.4,8.1,97,0.00,CLR,OVC,0.00,WeatherDisplay:10.37,2013-12-30 09:04:00,
2013-12-30 04:05:00,38.6,38.1,29.60,South,174,4.4,8.1,98,0.00,CLR,OVC,0.00,WeatherDisplay:10.37,2013-12-30 09:05:00,
2013-12-30 04:06:00,38.6,38.1,29.60,South,184,5.4,8.1,98,0.00,CLR,OVC,0.00,WeatherDisplay:10.37,2013-12-30 09:06:00,
2013-12-30 04:07:00,38.7,38.2,29.60,South,180,4.4,8.1,98,0.00,CLR,OVC,0.00,WeatherDisplay:10.37,2013-12-30 09:07:00,
2013-12-30 04:09:00,38.6,38.1,29.60,South,180,3.0,4.6,98,0.00,CLR,OVC,0.00,WeatherDisplay:10.37,2013-12-30 09:09:00,
2013-12-30 04:10:00,38.6,37.8,29.60,South,180,3.1,4.6,97,0.00,CLR,OVC,0.00,WeatherDisplay:10.37,2013-12-30 09:10:00,
2013-12-30 04:11:00,38.6,37.8,29.60,South,180,3.8,4.6,97,0.00,CLR,OVC,0.00,WeatherDisplay:10.37,2013-12-30 09:11:00,
2013-12-30 04:12:00,38.5,37.7,29.60,South,180,2.4,3.5,97,0.00,CLR,OVC,0.00,WeatherDisplay:10.37,2013-12-30 09:12:00,
2013-12-30 04:15:00,38.4,37.6,29.60,South,180,1.2,2.3,97,0.00,CLR,OVC,0.00,WeatherDisplay:10.37,2013-12-30 09:15:00,
2013-12-30 04:16:00,38.4,37.6,29.60,South,180,0.6,2.3,97,0.00,CLR,OVC,0.00,WeatherDisplay:10.37,2013-12-30 09:16:00,
2013-12-30 04:17:00,38.4,37.6,29.60,South,180,0.4,1.2,97,0.00,CLR,OVC,0.00,WeatherDisplay:10.37,2013-12-30 09:17:00,
2013-12-30 04:20:00,38.3,37.5,29.60,South,180,1.1,3.5,97,0.00,CLR,OVC,0.00,WeatherDisplay:10.37,2013-12-30 09:20:00,
2013-12-30 04:21:00,38.3,37.5,29.60,South,180,0.0,1.2,97,0.00,CLR,OVC,0.00,WeatherDisplay:10.37,2013-12-30 09:21:00,
2013-12-30 04:22:00,38.3,37.5,29.60,South,180,0.0,0.0,97,0.00,CLR,OVC,0.00,WeatherDisplay:10.37,2013-12-30 09:22:00,
2013-12-30 04:25:00,38.2,37.4,29.60,South,180,0.0,0.0,97,0.00,CLR,OVC,0.00,WeatherDisplay:10.37,2013-12-30 09:25:00,
2013-12-30 04:26:00,38.2,37.4,29.60,South,180,0.8,2.3,97,0.00,CLR,OVC,0.00,WeatherDisplay:10.37,2013-12-30 09:26:00,
2013-12-30 04:27:00,38.2,37.4,29.60,South,180,2.0,3.0,97,0.00,CLR,OVC,0.00,WeatherDisplay:10.37,2013-12-30 09:27:00,
2013-12-30 04:28:00,38.1,37.3,29.60,SSE,159,3.1,3.5,97,0.00,CLR,OVC,0.00,WeatherDisplay:10.37,2013-12-30 09:28:00,
2013-12-30 04:30:00,38.1,37.3,29.60,SSE,159,2.2,3.5,97,0.00,CLR,OVC,0.00,WeatherDisplay:10.37,2013-12-30 09:30:00,
2013-12-30 04:31:00,38.1,37.3,29.60,SSE,159,0.7,3.5,97,0.00,CLR,OVC,0.00,WeatherDisplay:10.37,2013-12-30 09:31:00,
2013-12-30 04:32:00,38.1,37.3,29.60,SSE,159,0.0,3.5,97,0.00,CLR,OVC,0.00,WeatherDisplay:10.37,2013-12-30 09:32:00,
2013-12-30 04:33:00,38.0,37.2,29.60,SSE,159,0.1,0.0,97,0.00,CLR,OVC,0.00,WeatherDisplay:10.37,2013-12-30 09:33:00,
2013-12-30 04:35:00,38.0,37.2,29.60,SSE,159,2.0,3.5,97,0.00,CLR,OVC,0.00,WeatherDisplay:10.37,2013-12-30 09:35:00,
2013-12-30 04:36:00,38.0,37.2,29.61,SSE,159,3.2,3.5,97,0.00,CLR,OVC,0.00,WeatherDisplay:10.37,2013-12-30 09:36:00,
2013-12-30 04:37:00,38.0,37.2,29.60,SE,137,3.0,4.0,97,0.00,CLR,OVC,0.00,WeatherDisplay:10.37,2013-12-30 09:37:00,
2013-12-30 04:39:00,37.9,37.1,29.61,East,84,4.8,5.0,97,0.00,CLR,OVC,0.00,WeatherDisplay:10.37,2013-12-30 09:39:00,
2013-12-30 04:40:00,37.9,37.1,29.61,ENE,74,4.4,5.8,97,0.00,CLR,OVC,0.00,WeatherDisplay:10.37,2013-12-30 09:40:00,
2013-12-30 04:41:00,37.9,37.1,29.61,ENE,74,3.0,4.6,97,0.00,CLR,OVC,0.00,WeatherDisplay:10.37,2013-12-30 09:41:00,
2013-12-30 04:42:00,37.9,37.1,29.61,ENE,73,3.1,4.6,97,0.00,CLR,OVC,0.00,WeatherDisplay:10.37,2013-12-30 09:42:00,
2013-12-30 04:43:00,37.8,37.0,29.61,NE,55,4.3,4.6,97,0.00,CLR,OVC,0.00,WeatherDisplay:10.37,2013-12-30 09:43:00,
2013-12-30 04:44:00,37.8,37.0,29.61,NE,55,3.9,5.0,97,0.00,CLR,OVC,0.00,WeatherDisplay:10.37,2013-12-30 09:44:00,
2013-12-30 04:45:00,37.8,37.0,29.61,NE,50,5.0,5.8,97,0.00,CLR,OVC,0.00,WeatherDisplay:10.37,2013-12-30 09:45:00,
2013-12-30 04:46:00,37.7,36.9,29.61,NE,50,4.3,5.8,97,0.00,CLR,OVC,0.00,WeatherDisplay:10.37,2013-12-30 09:46:00,
2013-12-30 04:47:00,37.7,36.9,29.61,NE,50,3.6,5.8,97,0.00,CLR,OVC,0.00,WeatherDisplay:10.37,2013-12-30 09:47:00,
2013-12-30 04:48:00,37.7,36.9,29.61,NE,50,2.9,5.0,97,0.00,CLR,OVC,0.00,WeatherDisplay:10.37,2013-12-30 09:48:00,
2013-12-30 04:49:00,37.7,36.9,29.61,NE,50,3.9,4.6,97,0.00,CLR,OVC,0.00,WeatherDisplay:10.37,2013-12-30 09:49:00,
2013-12-30 04:51:00,37.6,36.8,29.62,NE,50,1.6,3.5,97,0.00,CLR,OVC,0.00,WeatherDisplay:10.37,2013-12-30 09:51:00,
2013-12-30 04:52:00,37.6,36.8,29.61,NE,50,1.2,3.5,97,0.00,CLR,OVC,0.00,WeatherDisplay:10.37,2013-12-30 09:52:00,
2013-12-30 04:53:00,37.6,36.8,29.62,NE,50,0.3,1.2,97,0.00,CLR,OVC,0.00,WeatherDisplay:10.37,2013-12-30 09:53:00,
2013-12-30 04:54:00,37.6,36.8,29.62,NE,50,0.1,1.2,97,0.00,CLR,OVC,0.00,WeatherDisplay:10.37,2013-12-30 09:54:00,
2013-12-30 04:55:00,37.6,36.8,29.62,NE,50,0.3,1.2,97,0.00,CLR,OVC,0.00,WeatherDisplay:10.37,2013-12-30 09:55:00,
2013-12-30 04:56:00,37.5,36.7,29.62,NE,50,1.8,3.5,97,0.00,CLR,OVC,0.00,WeatherDisplay:10.37,2013-12-30 09:56:00,
2013-12-30 04:57:00,37.5,36.7,29.62,NE,50,2.1,3.5,97,0.00,CLR,OVC,0.00,WeatherDisplay:10.37,2013-12-30 09:57:00,
2013-12-30 04:58:00,37.5,36.7,29.62,NE,50,2.4,3.5,97,0.00,CLR,OVC,0.00,WeatherDisplay:10.37,2013-12-30 09:58:00,
2013-12-30 05:00:00,37.6,36.8,29.62,NE,50,2.6,6.0,97,0.00,CLR,OVC,0.00,WeatherDisplay:10.37,2013-12-30 10:00:00,
2013-12-30 05:01:00,37.6,36.8,29.62,NE,50,4.7,5.8,97,0.00,CLR,OVC,0.00,WeatherDisplay:10.37,2013-12-30 10:01:00,
2013-12-30 05:02:00,37.5,36.7,29.62,NE,50,3.2,4.6,97,0.00,CLR,OVC,0.00,WeatherDisplay:10.37,2013-12-30 10:02:00,
2013-12-30 05:03:00,37.5,36.7,29.62,NE,50,3.4,5.0,97,0.00,CLR,OVC,0.00,WeatherDisplay:10.37,2013-12-30 10:03:00,
2013-12-30 05:05:00,37.5,36.7,29.61,NE,51,4.3,5.8,97,0.00,CLR,OVC,0.00,WeatherDisplay:10.37,2013-12-30 10:05:00,
2013-12-30 05:06:00,37.5,37.0,29.61,NE,51,3.7,4.6,98,0.00,CLR,OVC,0.00,WeatherDisplay:10.37,2013-12-30 10:06:00,
2013-12-30 05:07:00,37.5,36.7,29.61,NE,51,2.3,4.6,97,0.00,CLR,OVC,0.00,WeatherDisplay:10.37,2013-12-30 10:07:00,
2013-12-30 05:09:00,37.4,36.9,29.61,NE,51,1.7,3.0,98,0.00,CLR,OVC,0.00,WeatherDisplay:10.37,2013-12-30 10:09:00,
2013-12-30 05:10:00,37.4,36.6,29.61,NE,51,1.8,3.5,97,0.00,CLR,OVC,0.00,WeatherDisplay:10.37,2013-12-30 10:10:00,
2013-12-30 05:11:00,37.4,36.6,29.61,NE,51,2.4,3.5,97,0.00,CLR,OVC,0.00,WeatherDisplay:10.37,2013-12-30 10:11:00,
2013-12-30 05:12:00,37.4,36.9,29.61,NE,51,2.0,3.5,98,0.00,CLR,OVC,0.00,WeatherDisplay:10.37,2013-12-30 10:12:00,
2013-12-30 05:13:00,37.4,36.9,29.61,NE,51,1.3,3.5,98,0.00,CLR,OVC,0.00,WeatherDisplay:10.37,2013-12-30 10:13:00,
2013-12-30 05:14:00,37.4,36.6,29.61,NE,51,2.2,4.0,97,0.00,CLR,OVC,0.00,WeatherDisplay:10.37,2013-12-30 10:14:00,
2013-12-30 05:15:00,37.4,36.6,29.61,NE,51,2.0,3.5,97,0.00,CLR,OVC,0.00,WeatherDisplay:10.37,2013-12-30 10:15:00,
2013-12-30 05:16:00,37.4,36.9,29.61,NE,51,2.6,3.5,98,0.00,CLR,OVC,0.00,WeatherDisplay:10.37,2013-12-30 10:16:00,
2013-12-30 05:18:00,37.3,36.5,29.62,NE,51,0.7,3.5,97,0.00,CLR,OVC,0.00,WeatherDisplay:10.37,2013-12-30 10:18:00,
2013-12-30 05:19:00,37.4,36.6,29.62,NE,51,0.0,0.0,97,0.00,CLR,OVC,0.00,WeatherDisplay:10.37,2013-12-30 10:19:00,
2013-12-30 05:20:00,37.4,36.6,29.62,NE,51,0.4,1.0,97,0.00,CLR,OVC,0.00,WeatherDisplay:10.37,2013-12-30 10:20:00,
2013-12-30 05:22:00,37.4,36.6,29.62,NE,51,1.0,3.0,97,0.00,CLR,OVC,0.00,WeatherDisplay:10.37,2013-12-30 10:22:00,
2013-12-30 05:23:00,37.3,36.5,29.63,NE,47,4.2,5.0,97,0.00,CLR,OVC,0.00,WeatherDisplay:10.37,2013-12-30 10:23:00,
2013-12-30 05:24:00,37.3,36.8,29.63,NE,38,4.9,6.0,98,0.00,CLR,OVC,0.00,WeatherDisplay:10.37,2013-12-30 10:24:00,
2013-12-30 05:25:00,37.3,36.8,29.63,NNE,16,5.7,6.0,98,0.00,CLR,OVC,0.00,WeatherDisplay:10.37,2013-12-30 10:25:00,
2013-12-30 05:26:00,37.3,36.5,29.63,North,0,6.5,8.1,97,0.00,CLR,OVC,0.00,WeatherDisplay:10.37,2013-12-30 10:26:00,
2013-12-30 05:27:00,37.3,36.5,29.64,North,354,8.0,10.0,97,0.00,CLR,OVC,0.00,WeatherDisplay:10.37,2013-12-30 10:27:00,
2013-12-30 05:28:00,37.2,36.4,29.64,North,359,9.6,10.4,97,0.00,CLR,OVC,0.00,WeatherDisplay:10.37,2013-12-30 10:28:00,
2013-12-30 05:29:00,37.2,36.7,29.65,North,354,9.2,12.7,98,0.00,CLR,OVC,0.00,WeatherDisplay:10.37,2013-12-30 10:29:00,
2013-12-30 05:30:00,37.2,36.4,29.64,North,358,8.7,11.5,97,0.00,CLR,OVC,0.00,WeatherDisplay:10.37,2013-12-30 10:30:00,
2013-12-30 05:31:00,37.2,36.7,29.64,North,356,10.3,13.0,98,0.00,CLR,OVC,0.00,WeatherDisplay:10.37,2013-12-30 10:31:00,
2013-12-30 05:32:00,37.2,36.7,29.64,North,350,11.5,12.7,98,0.00,CLR,OVC,0.00,WeatherDisplay:10.37,2013-12-30 10:32:00,
2013-12-30 05:33:00,37.1,36.3,29.64,North,351,11.7,15.0,97,0.00,CLR,OVC,0.00,WeatherDisplay:10.37,2013-12-30 10:33:00,
2013-12-30 05:34:00,36.9,36.1,29.64,North,4,8.3,12.7,97,0.00,CLR,OVC,0.00,WeatherDisplay:10.37,2013-12-30 10:34:00,
2013-12-30 05:35:00,36.9,36.1,29.65,North,0,8.7,11.5,97,0.00,CLR,OVC,0.00,WeatherDisplay:10.37,2013-12-30 10:35:00,
2013-12-30 05:36:00,36.8,36.0,29.65,North,0,8.6,11.5,97,0.00,CLR,OVC,0.00,WeatherDisplay:10.37,2013-12-30 10:36:00,
2013-12-30 05:37:00,36.7,35.9,29.65,North,0,7.9,11.5,97,0.00,CLR,OVC,0.00,WeatherDisplay:10.37,2013-12-30 10:37:00,
2013-12-30 05:38:00,36.6,35.8,29.65,North,0,7.8,10.4,97,0.00,CLR,OVC,0.00,WeatherDisplay:10.37,2013-12-30 10:38:00,
2013-12-30 05:39:00,36.4,35.6,29.65,North,0,4.2,9.2,97,0.00,CLR,OVC,0.00,WeatherDisplay:10.37,2013-12-30 10:39:00,
2013-12-30 05:40:00,36.3,35.5,29.65,North,0,4.0,8.1,97,0.00,CLR,OVC,0.00,WeatherDisplay:10.37,2013-12-30 10:40:00,
2013-12-30 05:41:00,36.3,35.5,29.65,North,0,5.6,8.1,97,0.00,CLR,OVC,0.00,WeatherDisplay:10.37,2013-12-30 10:41:00,
2013-12-30 05:42:00,36.2,35.4,29.65,North,6,6.0,8.1,97,0.00,CLR,OVC,0.00,WeatherDisplay:10.37,2013-12-30 10:42:00,
2013-12-30 05:43:00,36.1,35.1,29.65,North,6,5.3,6.9,96,0.00,CLR,OVC,0.00,WeatherDisplay:10.37,2013-12-30 10:43:00,
2013-12-30 05:45:00,35.9,35.1,29.66,North,6,5.6,6.9,97,0.00,CLR,OVC,0.00,WeatherDisplay:10.37,2013-12-30 10:45:00,
2013-12-30 05:46:00,35.9,35.1,29.66,North,0,6.0,9.2,97,0.00,CLR,OVC,0.00,WeatherDisplay:10.37,2013-12-30 10:46:00,
2013-12-30 05:47:00,35.8,35.0,29.66,North,0,6.3,8.1,97,0.00,CLR,OVC,0.00,WeatherDisplay:10.37,2013-12-30 10:47:00,
2013-12-30 05:48:00,35.7,34.9,29.66,North,351,8.3,11.5,97,0.00,CLR,OVC,0.00,WeatherDisplay:10.37,2013-12-30 10:48:00,
2013-12-30 05:49:00,35.7,34.9,29.66,North,356,8.7,11.5,97,0.00,CLR,OVC,0.00,WeatherDisplay:10.37,2013-12-30 10:49:00,
2013-12-30 05:50:00,35.6,34.8,29.66,NNW,347,8.7,11.5,97,0.00,CLR,OVC,0.00,WeatherDisplay:10.37,2013-12-30 10:50:00,
2013-12-30 05:51:00,35.5,34.7,29.66,North,11,9.6,12.7,97,0.00,CLR,OVC,0.00,WeatherDisplay:10.37,2013-12-30 10:51:00,
2013-12-30 05:52:00,35.4,34.6,29.66,North,1,9.5,13.8,97,0.00,CLR,OVC,0.00,WeatherDisplay:10.37,2013-12-30 10:52:00,
2013-12-30 05:54:00,35.2,34.4,29.66,North,0,9.1,12.7,97,0.00,CLR,OVC,0.00,WeatherDisplay:10.37,2013-12-30 10:54:00,
2013-12-30 05:55:00,35.1,34.3,29.67,NNE,14,8.1,11.5,97,0.00,CLR,OVC,0.00,WeatherDisplay:10.37,2013-12-30 10:55:00,
2013-12-30 05:56:00,35.0,34.2,29.67,North,0,8.6,11.5,97,0.00,CLR,OVC,0.00,WeatherDisplay:10.37,2013-12-30 10:56:00,
2013-12-30 05:57:00,34.9,34.1,29.67,North,353,9.5,13.8,97,0.00,CLR,OVC,0.00,WeatherDisplay:10.37,2013-12-30 10:57:00,
2013-12-30 05:59:00,34.8,34.0,29.67,North,11,7.3,12.7,97,0.00,CLR,OVC,0.00,WeatherDisplay:10.37,2013-12-30 10:59:00,
2013-12-30 06:00:00,34.7,33.9,29.67,North,9,10.6,16.1,97,0.00,CLR,OVC,0.00,WeatherDisplay:10.37,2013-12-30 11:00:00,
2013-12-30 06:02:00,34.6,33.8,29.67,North,2,9.0,13.0,97,0.00,CLR,OVC,0.00,WeatherDisplay:10.37,2013-12-30 11:02:00,
2013-12-30 06:03:00,34.6,33.8,29.67,NNE,17,11.5,13.8,97,0.00,CLR,OVC,0.00,WeatherDisplay:10.37,2013-12-30 11:03:00,
2013-12-30 06:04:00,34.5,33.7,29.67,NNE,12,9.2,16.1,97,0.00,CLR,OVC,0.00,WeatherDisplay:10.37,2013-12-30 11:04:00,
2013-12-30 06:05:00,34.4,33.6,29.68,North,7,8.3,11.5,97,0.00,CLR,OVC,0.00,WeatherDisplay:10.37,2013-12-30 11:05:00,
2013-12-30 06:07:00,34.4,33.6,29.68,North,2,9.6,12.7,97,0.00,CLR,OVC,0.00,WeatherDisplay:10.37,2013-12-30 11:07:00,
2013-12-30 06:08:00,34.3,33.5,29.68,North,3,9.8,11.5,97,0.00,CLR,OVC,0.00,WeatherDisplay:10.37,2013-12-30 11:08:00,
2013-12-30 06:09:00,34.3,33.5,29.68,NNE,17,9.0,11.5,97,0.00,CLR,OVC,0.00,WeatherDisplay:10.37,2013-12-30 11:09:00,
2013-12-30 06:10:00,34.2,33.4,29.69,NNE,20,8.8,13.8,97,0.00,CLR,OVC,0.00,WeatherDisplay:10.37,2013-12-30 11:10:00,
2013-12-30 06:12:00,34.1,33.3,29.69,North,4,8.7,11.5,97,0.00,CLR,OVC,0.00,WeatherDisplay:10.37,2013-12-30 11:12:00,
2013-12-30 06:13:00,34.0,33.2,29.69,North,4,9.4,12.7,97,0.00,CLR,OVC,0.00,WeatherDisplay:10.37,2013-12-30 11:13:00,
2013-12-30 06:14:00,33.9,33.1,29.69,NE,36,8.6,12.7,97,0.00,CLR,OVC,0.00,WeatherDisplay:10.37,2013-12-30 11:14:00,
2013-12-30 06:16:00,33.7,32.7,29.69,NE,49,10.0,18.4,96,0.00,CLR,OVC,0.00,WeatherDisplay:10.37,2013-12-30 11:16:00,
2013-12-30 06:17:00,33.5,32.5,29.69,NE,34,11.9,18.4,96,0.00,CLR,OVC,0.00,WeatherDisplay:10.37,2013-12-30 11:17:00,
2013-12-30 06:18:00,33.3,32.3,29.70,NNE,24,11.5,17.3,96,0.00,CLR,OVC,0.00,WeatherDisplay:10.37,2013-12-30 11:18:00,
2013-12-30 06:19:00,33.2,32.2,29.70,NNE,21,10.4,17.3,96,0.00,CLR,OVC,0.00,WeatherDisplay:10.37,2013-12-30 11:19:00,
2013-12-30 06:20:00,33.1,32.1,29.70,NNE,33,11.6,17.3,96,0.00,CLR,OVC,0.00,WeatherDisplay:10.37,2013-12-30 11:20:00,
2013-12-30 06:21:00,32.7,31.7,29.70,NNE,25,13.0,16.1,96,0.00,CLR,OVC,0.00,WeatherDisplay:10.37,2013-12-30 11:21:00,
2013-12-30 06:22:00,32.6,31.6,29.70,NE,37,12.7,16.1,96,0.00,CLR,OVC,0.00,WeatherDisplay:10.37,2013-12-30 11:22:00,
2013-12-30 06:23:00,32.5,31.5,29.70,NE,44,12.5,16.1,96,0.00,CLR,OVC,0.00,WeatherDisplay:10.37,2013-12-30 11:23:00,
2013-12-30 06:24:00,32.4,31.4,29.70,NE,35,7.9,11.5,96,0.00,CLR,OVC,0.00,WeatherDisplay:10.37,2013-12-30 11:24:00,
2013-12-30 06:25:00,32.3,31.3,29.71,North,5,8.1,13.8,96,0.00,CLR,OVC,0.00,WeatherDisplay:10.37,2013-12-30 11:25:00,
2013-12-30 06:26:00,32.2,31.2,29.70,NNE,22,11.3,22.0,96,0.00,CLR,OVC,0.00,WeatherDisplay:10.37,2013-12-30 11:26:00,
2013-12-30 06:27:00,32.1,31.1,29.71,NNE,25,14.7,23.0,96,0.00,CLR,OVC,0.00,WeatherDisplay:10.37,2013-12-30 11:27:00,
2013-12-30 06:28:00,32.1,30.8,29.71,NNE,33,13.9,20.0,95,0.00,CLR,OVC,0.00,WeatherDisplay:10.37,2013-12-30 11:28:00,
2013-12-30 06:29:00,32.0,30.7,29.71,NNE,20,15.0,19.6,95,0.00,CLR,OVC,0.00,WeatherDisplay:10.37,2013-12-30 11:29:00,
2013-12-30 06:30:00,31.9,30.6,29.71,NNE,15,13.5,17.3,95,0.00,CLR,OVC,0.00,WeatherDisplay:10.37,2013-12-30 11:30:00,
2013-12-30 06:32:00,31.8,30.5,29.71,NNE,31,8.8,18.4,95,0.00,CLR,OVC,0.00,WeatherDisplay:10.37,2013-12-30 11:32:00,
2013-12-30 06:33:00,31.8,30.5,29.71,North,9,9.9,12.7,95,0.00,CLR,OVC,0.00,WeatherDisplay:10.37,2013-12-30 11:33:00,
2013-12-30 06:34:00,31.6,30.3,29.72,NNE,18,12.5,19.6,95,0.00,CLR,OVC,0.00,WeatherDisplay:10.37,2013-12-30 11:34:00,
2013-12-30 06:35:00,31.6,30.3,29.72,NE,39,14.2,21.0,95,0.00,CLR,OVC,0.00,WeatherDisplay:10.37,2013-12-30 11:35:00,
2013-12-30 06:36:00,31.6,30.3,29.72,NNE,19,14.4,19.6,95,0.00,CLR,OVC,0.00,WeatherDisplay:10.37,2013-12-30 11:36:00,
2013-12-30 06:37:00,31.5,30.0,29.72,NE,48,13.4,20.7,94,0.00,CLR,OVC,0.00,WeatherDisplay:10.37,2013-12-30 11:37:00,
2013-12-30 06:38:00,31.5,30.2,29.72,NE,34,13.2,20.7,95,0.00,CLR,OVC,0.00,WeatherDisplay:10.37,2013-12-30 11:38:00,
2013-12-30 06:39:00,31.4,29.9,29.72,NE,36,9.7,16.1,94,0.00,CLR,OVC,0.00,WeatherDisplay:10.37,2013-12-30 11:39:00,
2013-12-30 06:41:00,31.4,29.9,29.72,NNE,22,7.8,11.5,94,0.00,CLR,OVC,0.00,WeatherDisplay:10.37,2013-12-30 11:41:00,
2013-12-30 06:42:00,31.4,29.9,29.73,NE,36,9.8,13.8,94,0.00,CLR,OVC,0.00,WeatherDisplay:10.37,2013-12-30 11:42:00,
2013-12-30 06:43:00,31.3,29.8,29.72,ENE,69,8.8,11.5,94,0.00,CLR,OVC,0.00,WeatherDisplay:10.37,2013-12-30 11:43:00,
2013-12-30 06:44:00,31.3,29.8,29.73,NNE,28,7.8,11.5,94,0.00,CLR,OVC,0.00,WeatherDisplay:10.37,2013-12-30 11:44:00,
2013-12-30 06:45:00,31.3,29.8,29.73,NNE,20,7.8,11.5,94,0.00,CLR,OVC,0.00,WeatherDisplay:10.37,2013-12-30 11:45:00,
2013-12-30 06:46:00,31.2,29.7,29.73,NE,45,9.1,15.0,94,0.00,CLR,OVC,0.00,WeatherDisplay:10.37,2013-12-30 11:46:00,
2013-12-30 06:47:00,31.2,29.7,29.73,NE,34,9.0,15.0,94,0.00,CLR,OVC,0.00,WeatherDisplay:10.37,2013-12-30 11:47:00,
2013-12-30 06:49:00,31.1,29.6,29.73,NE,48,10.0,16.1,94,0.00,CLR,OVC,0.00,WeatherDisplay:10.37,2013-12-30 11:49:00,
2013-12-30 06:50:00,31.1,29.6,29.74,NNE,25,10.3,16.1,94,0.00,CLR,OVC,0.00,WeatherDisplay:10.37,2013-12-30 11:50:00,
2013-12-30 06:51:00,31.1,29.6,29.74,NNE,24,9.8,12.7,94,0.00,CLR,OVC,0.00,WeatherDisplay:10.37,2013-12-30 11:51:00,
2013-12-30 06:52:00,31.0,29.5,29.74,NE,36,8.3,11.5,94,0.00,CLR,OVC,0.00,WeatherDisplay:10.37,2013-12-30 11:52:00,
2013-12-30 06:53:00,31.0,29.5,29.74,NNE,26,8.5,11.5,94,0.00,CLR,OVC,0.00,WeatherDisplay:10.37,2013-12-30 11:53:00,
2013-12-30 06:54:00,31.0,29.5,29.74,NE,51,11.5,16.0,94,0.00,CLR,OVC,0.00,WeatherDisplay:10.37,2013-12-30 11:54:00,
2013-12-30 06:55:00,30.9,29.4,29.74,NNE,20,8.8,16.1,94,0.00,CLR,OVC,0.00,WeatherDisplay:10.37,2013-12-30 11:55:00,
2013-12-30 06:56:00,30.9,29.4,29.75,NE,50,12.2,19.6,94,0.00,CLR,OVC,0.00,WeatherDisplay:10.37,2013-12-30 11:56:00,
2013-12-30 06:57:00,30.9,29.4,29.75,NE,49,8.6,17.3,94,0.00,CLR,OVC,0.00,WeatherDisplay:10.37,2013-12-30 11:57:00,
2013-12-30 06:58:00,30.9,29.4,29.75,NNE,32,9.1,11.5,94,0.00,CLR,OVC,0.00,WeatherDisplay:10.37,2013-12-30 11:58:00,
2013-12-30 06:59:00,30.8,29.0,29.75,NE,51,8.0,11.5,93,0.00,CLR,OVC,0.00,WeatherDisplay:10.37,2013-12-30 11:59:00,
2013-12-30 07:01:00,30.8,29.3,29.75,NE,40,5.5,8.1,94,0.00,CLR,OVC,0.00,WeatherDisplay:10.37,2013-12-30 12:01:00,
2013-12-30 07:02:00,30.8,29.3,29.75,NE,37,10.2,14.0,94,0.00,CLR,OVC,0.00,WeatherDisplay:10.37,2013-12-30 12:02:00,
2013-12-30 07:03:00,30.8,29.3,29.76,ENE,65,12.0,16.1,94,0.00,CLR,OVC,0.00,WeatherDisplay:10.37,2013-12-30 12:03:00,
2013-12-30 07:04:00,30.8,29.0,29.75,East,83,9.4,15.0,93,0.00,CLR,OVC,0.00,WeatherDisplay:10.37,2013-12-30 12:04:00,
2013-12-30 07:06:00,30.8,29.0,29.76,NNE,25,7.2,10.4,93,0.00,CLR,OVC,0.00,WeatherDisplay:10.37,2013-12-30 12:06:00,
2013-12-30 07:07:00,30.8,29.0,29.76,NNE,33,7.6,13.0,93,0.00,CLR,OVC,0.00,WeatherDisplay:10.37,2013-12-30 12:07:00,
2013-12-30 07:08:00,30.8,29.3,29.76,NE,45,7.7,12.7,94,0.00,CLR,OVC,0.00,WeatherDisplay:10.37,2013-12-30 12:08:00,
2013-12-30 07:09:00,30.8,29.0,29.76,NE,40,9.8,13.8,93,0.00,CLR,OVC,0.00,WeatherDisplay:10.37,2013-12-30 12:09:00,
2013-12-30 07:10:00,30.8,29.0,29.76,NNE,31,10.2,12.7,93,0.00,CLR,OVC,0.00,WeatherDisplay:10.37,2013-12-30 12:10:00,
2013-12-30 07:11:00,30.8,29.0,29.76,NNE,19,10.0,13.8,93,0.00,CLR,OVC,0.00,WeatherDisplay:10.37,2013-12-30 12:11:00,
2013-12-30 07:12:00,30.8,29.0,29.77,NE,35,9.1,12.7,93,0.00,CLR,OVC,0.00,WeatherDisplay:10.37,2013-12-30 12:12:00,
2013-12-30 07:13:00,30.8,29.0,29.77,NE,45,8.2,12.7,93,0.00,CLR,OVC,0.00,WeatherDisplay:10.37,2013-12-30 12:13:00,
2013-12-30 07:14:00,30.9,29.1,29.77,NE,36,6.2,10.4,93,0.00,CLR,OVC,0.00,WeatherDisplay:10.37,2013-12-30 12:14:00,
2013-12-30 07:16:00,30.9,29.1,29.77,NE,46,7.8,12.7,93,0.00,CLR,OVC,0.00,WeatherDisplay:10.37,2013-12-30 12:16:00,
2013-12-30 07:17:00,30.9,29.1,29.77,NNE,28,7.3,12.7,93,0.00,CLR,OVC,0.00,WeatherDisplay:10.37,2013-12-30 12:17:00,
2013-12-30 07:18:00,30.9,29.1,29.77,NNE,22,7.2,11.5,93,0.00,CLR,OVC,0.00,WeatherDisplay:10.37,2013-12-30 12:18:00,
2013-12-30 07:19:00,30.9,29.1,29.77,North,10,6.2,11.5,93,0.00,CLR,OVC,0.00,WeatherDisplay:10.37,2013-12-30 12:19:00,
2013-12-30 07:21:00,30.9,29.1,29.77,NE,46,7.3,11.5,93,0.00,CLR,OVC,0.00,WeatherDisplay:10.37,2013-12-30 12:21:00,
2013-12-30 07:22:00,30.9,29.1,29.78,NE,48,6.9,9.2,93,0.00,CLR,OVC,0.00,WeatherDisplay:10.37,2013-12-30 12:22:00,
2013-12-30 07:23:00,30.9,29.1,29.78,NE,37,4.7,6.9,93,0.00,CLR,OVC,0.00,WeatherDisplay:10.37,2013-12-30 12:23:00,
2013-12-30 07:24:00,31.0,29.2,29.78,NE,46,5.9,6.9,93,0.00,CLR,OVC,0.00,WeatherDisplay:10.37,2013-12-30 12:24:00,
2013-12-30 07:25:00,31.0,29.2,29.78,NE,45,6.3,10.4,93,0.00,CLR,OVC,0.00,WeatherDisplay:10.37,2013-12-30 12:25:00,
2013-12-30 07:27:00,31.0,29.2,29.78,ENE,61,8.0,12.7,93,0.00,CLR,OVC,0.00,WeatherDisplay:10.37,2013-12-30 12:27:00,
2013-12-30 07:28:00,31.0,29.2,29.78,ENE,78,6.4,9.2,93,0.00,CLR,OVC,0.00,WeatherDisplay:10.37,2013-12-30 12:28:00,
2013-12-30 07:30:00,31.0,29.2,29.78,NE,38,3.8,9.2,93,0.00,CLR,OVC,0.00,WeatherDisplay:10.37,2013-12-30 12:30:00,
2013-12-30 07:32:00,31.1,29.6,29.78,ENE,58,3.0,5.8,94,0.00,CLR,OVC,0.00,WeatherDisplay:10.37,2013-12-30 12:32:00,
2013-12-30 07:33:00,31.1,29.3,29.79,ENE,58,0.7,5.8,93,0.00,CLR,OVC,0.00,WeatherDisplay:10.37,2013-12-30 12:33:00,
2013-12-30 07:35:00,31.1,29.3,29.79,NE,39,4.2,6.9,93,0.00,CLR,OVC,0.00,WeatherDisplay:10.37,2013-12-30 12:35:00,
2013-12-30 07:36:00,31.1,29.3,29.79,NE,39,3.2,6.9,93,0.00,CLR,OVC,0.00,WeatherDisplay:10.37,2013-12-30 12:36:00,
2013-12-30 07:37:00,31.2,29.4,29.79,NE,49,5.6,9.2,93,0.00,CLR,OVC,0.00,WeatherDisplay:10.37,2013-12-30 12:37:00,
2013-12-30 07:38:00,31.2,29.4,29.79,NE,50,4.9,9.2,93,0.00,CLR,OVC,0.00,WeatherDisplay:10.37,2013-12-30 12:38:00,
2013-12-30 07:41:00,31.2,29.4,29.80,NE,40,4.5,6.9,93,0.00,CLR,OVC,0.00,WeatherDisplay:10.37,2013-12-30 12:41:00,
2013-12-30 07:42:00,31.3,29.5,29.80,NE,39,1.7,5.0,93,0.00,CLR,OVC,0.00,WeatherDisplay:10.37,2013-12-30 12:42:00,
2013-12-30 07:43:00,31.3,29.5,29.80,NE,39,1.9,5.0,93,0.00,CLR,OVC,0.00,WeatherDisplay:10.37,2013-12-30 12:43:00,
2013-12-30 07:46:00,31.3,29.5,29.80,NNE,32,3.6,6.0,93,0.00,CLR,OVC,0.00,WeatherDisplay:10.37,2013-12-30 12:46:00,
2013-12-30 07:48:00,31.4,29.6,29.80,NNE,23,3.6,5.8,93,0.00,CLR,OVC,0.00,WeatherDisplay:10.37,2013-12-30 12:48:00,
2013-12-30 07:49:00,31.4,29.6,29.80,NNE,23,2.2,3.5,93,0.00,CLR,OVC,0.00,WeatherDisplay:10.37,2013-12-30 12:49:00,
2013-12-30 07:51:00,31.4,29.6,29.81,NNE,23,3.5,3.5,93,0.00,CLR,OVC,0.00,WeatherDisplay:10.37,2013-12-30 12:51:00,
2013-12-30 07:52:00,31.5,29.7,29.81,NNE,23,3.0,3.5,93,0.00,CLR,OVC,0.00,WeatherDisplay:10.37,2013-12-30 12:52:00,
2013-12-30 07:53:00,31.5,29.7,29.81,NNE,23,2.9,3.5,93,0.00,CLR,OVC,0.00,WeatherDisplay:10.37,2013-12-30 12:53:00,
2013-12-30 07:54:00,31.5,29.7,29.81,NNE,23,2.9,3.5,93,0.00,CLR,OVC,0.00,WeatherDisplay:10.37,2013-12-30 12:54:00,
2013-12-30 07:56:00,31.5,29.7,29.81,NNE,23,1.7,3.5,93,0.00,CLR,OVC,0.00,WeatherDisplay:10.37,2013-12-30 12:56:00,
2013-12-30 07:57:00,31.5,29.7,29.81,NNE,22,0.6,2.3,93,0.00,CLR,OVC,0.00,WeatherDisplay:10.37,2013-12-30 12:57:00,
2013-12-30 07:58:00,31.6,29.8,29.81,NNE,23,0.1,1.2,93,0.00,CLR,OVC,0.00,WeatherDisplay:10.37,2013-12-30 12:58:00,
2013-12-30 07:59:00,31.6,29.8,29.81,NNE,23,1.0,2.3,93,0.00,CLR,OVC,0.00,WeatherDisplay:10.37,2013-12-30 12:59:00,
2013-12-30 08:00:00,31.6,29.8,29.82,NNE,22,1.6,2.3,93,0.00,CLR,OVC,0.00,WeatherDisplay:10.37,2013-12-30 13:00:00,
2013-12-30 08:01:00,31.6,29.8,29.82,NNE,20,2.7,5.0,93,0.00,CLR,OVC,0.00,WeatherDisplay:10.37,2013-12-30 13:01:00,
2013-12-30 08:03:00,31.6,29.8,29.82,NNW,334,6.7,9.2,93,0.00,CLR,OVC,0.00,WeatherDisplay:10.37,2013-12-30 13:03:00,
2013-12-30 08:04:00,31.7,29.9,29.82,NNW,334,5.8,8.1,93,0.00,CLR,OVC,0.00,WeatherDisplay:10.37,2013-12-30 13:04:00,
2013-12-30 08:05:00,31.7,30.2,29.82,NNW,331,5.2,8.1,94,0.00,CLR,OVC,0.00,WeatherDisplay:10.37,2013-12-30 13:05:00,
2013-12-30 08:06:00,31.8,30.0,29.82,NNW,330,5.6,8.1,93,0.00,CLR,OVC,0.00,WeatherDisplay:10.37,2013-12-30 13:06:00,
2013-12-30 08:08:00,31.9,30.1,29.83,NNW,330,4.4,7.0,93,0.00,CLR,OVC,0.00,WeatherDisplay:10.37,2013-12-30 13:08:00,
2013-12-30 08:09:00,32.0,30.2,29.83,NNW,329,5.6,6.9,93,0.00,CLR,OVC,0.00,WeatherDisplay:10.37,2013-12-30 13:09:00,
2013-12-30 08:10:00,32.1,30.3,29.83,NNW,328,5.9,7.0,93,0.00,CLR,OVC,0.00,WeatherDisplay:10.37,2013-12-30 13:10:00,
2013-12-30 08:11:00,32.2,30.1,29.83,NNW,328,5.5,7.0,92,0.00,CLR,OVC,0.00,WeatherDisplay:10.37,2013-12-30 13:11:00,
2013-12-30 08:13:00,32.3,30.2,29.84,NNW,337,7.0,8.1,92,0.00,CLR,OVC,0.00,WeatherDisplay:10.37,2013-12-30 13:13:00,
2013-12-30 08:14:00,32.3,30.2,29.83,NNW,335,6.2,8.1,92,0.00,CLR,OVC,0.00,WeatherDisplay:10.37,2013-12-30 13:14:00,
2013-12-30 08:15:00,32.4,30.3,29.83,NNW,334,6.4,9.2,92,0.00,CLR,OVC,0.00,WeatherDisplay:10.37,2013-12-30 13:15:00,
2013-12-30 08:16:00,32.4,30.1,29.84,NNW,328,7.0,9.2,91,0.00,CLR,OVC,0.00,WeatherDisplay:10.37,2013-12-30 13:16:00,
2013-12-30 08:19:00,32.5,29.9,29.84,NNW,335,6.9,7.0,90,0.00,CLR,OVC,0.00,WeatherDisplay:10.37,2013-12-30 13:19:00,
2013-12-30 08:20:00,32.6,30.0,29.84,NNW,336,6.4,9.2,90,0.00,CLR,OVC,0.00,WeatherDisplay:10.37,2013-12-30 13:20:00,
2013-12-30 08:21:00,32.6,29.7,29.84,NNW,335,7.9,10.4,89,0.00,CLR,OVC,0.00,WeatherDisplay:10.37,2013-12-30 13:21:00,
2013-12-30 08:24:00,32.7,29.5,29.84,NNW,340,5.7,9.2,88,0.00,CLR,OVC,0.00,WeatherDisplay:10.37,2013-12-30 13:24:00,
2013-12-30 08:25:00,32.7,29.5,29.84,North,359,6.5,14.0,88,0.00,CLR,OVC,0.00,WeatherDisplay:10.37,2013-12-30 13:25:00,
2013-12-30 08:26:00,32.7,29.5,29.84,North,2,7.4,16.0,88,0.00,CLR,OVC,0.00,WeatherDisplay:10.37,2013-12-30 13:26:00,
2013-12-30 08:29:00,32.7,29.0,29.85,North,356,11.0,17.3,86,0.00,CLR,OVC,0.00,WeatherDisplay:10.37,2013-12-30 13:29:00,
2013-12-30 08:31:00,32.7,28.4,29.85,NNW,341,13.0,17.3,84,0.00,CLR,OVC,0.00,WeatherDisplay:10.37,2013-12-30 13:31:00,
2013-12-30 08:34:00,32.6,27.4,29.85,NNW,334,10.3,12.7,81,0.00,CLR,OVC,0.00,WeatherDisplay:10.37,2013-12-30 13:34:00,
2013-12-30 08:36:00,32.6,27.1,29.85,North,355,7.8,11.5,80,0.00,CLR,OVC,0.00,WeatherDisplay:10.37,2013-12-30 13:36:00,
2013-12-30 08:37:00,32.6,27.1,29.85,North,0,7.2,11.5,80,0.00,CLR,OVC,0.00,WeatherDisplay:10.37,2013-12-30 13:37:00,
2013-12-30 08:39:00,32.5,27.0,29.86,NNE,13,10.0,12.7,80,0.00,CLR,OVC,0.00,WeatherDisplay:10.37,2013-12-30 13:39:00,
2013-12-30 08:41:00,32.3,26.8,29.86,NNE,16,12.7,18.4,80,0.00,CLR,OVC,0.00,WeatherDisplay:10.37,2013-12-30 13:41:00,
2013-12-30 08:42:00,32.2,26.4,29.86,North,3,13.0,18.4,79,0.00,CLR,OVC,0.00,WeatherDisplay:10.37,2013-12-30 13:42:00,
2013-12-30 08:44:00,31.8,26.3,29.87,NNE,22,9.1,11.5,80,0.00,CLR,OVC,0.00,WeatherDisplay:10.37,2013-12-30 13:44:00,
2013-12-30 08:46:00,31.5,25.7,29.87,NNE,18,13.2,17.3,79,0.00,CLR,OVC,0.00,WeatherDisplay:10.37,2013-12-30 13:46:00,
2013-12-30 08:47:00,31.4,25.9,29.87,NNE,21,12.1,17.3,80,0.00,CLR,OVC,0.00,WeatherDisplay:10.37,2013-12-30 13:47:00,
2013-12-30 08:48:00,31.3,25.8,29.87,North,358,9.8,15.0,80,0.00,CLR,OVC,0.00,WeatherDisplay:10.37,2013-12-30 13:48:00,
2013-12-30 08:49:00,31.1,25.7,29.87,North,10,9.5,13.0,80,0.00,CLR,OVC,0.00,WeatherDisplay:10.37,2013-12-30 13:49:00,
2013-12-30 08:52:00,30.9,25.5,29.87,North,7,8.4,11.5,80,0.00,CLR,OVC,0.00,WeatherDisplay:10.37,2013-12-30 13:52:00,
2013-12-30 08:53:00,30.8,25.7,29.87,North,5,6.9,11.5,81,0.00,CLR,OVC,0.00,WeatherDisplay:10.37,2013-12-30 13:53:00,
2013-12-30 08:55:00,30.7,25.2,29.87,North,11,8.0,12.0,80,0.00,CLR,OVC,0.00,WeatherDisplay:10.37,2013-12-30 13:55:00,
2013-12-30 08:57:00,30.5,25.1,29.88,North,0,6.9,10.4,80,0.00,CLR,OVC,0.00,WeatherDisplay:10.37,2013-12-30 13:57:00,
2013-12-30 08:58:00,30.4,25.3,29.88,North,0,5.5,10.4,81,0.00,CLR,OVC,0.00,WeatherDisplay:10.37,2013-12-30 13:58:00,
2013-12-30 09:01:00,30.4,25.3,29.88,North,6,5.9,8.0,81,0.00,CLR,OVC,0.00,WeatherDisplay:10.37,2013-12-30 14:01:00,
2013-12-30 09:02:00,30.3,25.2,29.89,North,356,11.8,19.6,81,0.00,CLR,OVC,0.00,WeatherDisplay:10.37,2013-12-30 14:02:00,
2013-12-30 09:03:00,30.3,25.2,29.89,North,5,10.1,18.4,81,0.00,CLR,OVC,0.00,WeatherDisplay:10.37,2013-12-30 14:03:00,
2013-12-30 09:06:00,30.1,24.7,29.89,North,9,12.0,16.1,80,0.00,CLR,OVC,0.00,WeatherDisplay:10.37,2013-12-30 14:06:00,
2013-12-30 09:07:00,30.0,24.6,29.89,NNE,17,12.2,16.1,80,0.00,CLR,OVC,0.00,WeatherDisplay:10.37,2013-12-30 14:07:00,
2013-12-30 09:08:00,29.9,24.5,29.89,North,5,9.9,15.0,80,0.00,CLR,OVC,0.00,WeatherDisplay:10.37,2013-12-30 14:08:00,
2013-12-30 09:09:00,29.8,24.4,29.89,North,0,8.2,15.0,80,0.00,CLR,OVC,0.00,WeatherDisplay:10.37,2013-12-30 14:09:00,
2013-12-30 09:11:00,29.6,24.2,29.90,NNE,15,12.0,18.4,80,0.00,CLR,OVC,0.00,WeatherDisplay:10.37,2013-12-30 14:11:00,
2013-12-30 09:12:00,29.5,24.1,29.90,NNE,16,12.4,18.4,80,0.00,CLR,OVC,0.00,WeatherDisplay:10.37,2013-12-30 14:12:00,
2013-12-30 09:13:00,29.5,24.1,29.90,North,3,11.4,18.4,80,0.00,CLR,OVC,0.00,WeatherDisplay:10.37,2013-12-30 14:13:00,
2013-12-30 09:14:00,29.5,24.1,29.90,NNE,13,11.8,18.4,80,0.00,CLR,OVC,0.00,WeatherDisplay:10.37,2013-12-30 14:14:00,
2013-12-30 09:16:00,29.3,23.9,29.90,North,3,8.6,12.7,80,0.00,CLR,OVC,0.00,WeatherDisplay:10.37,2013-12-30 14:16:00,
2013-12-30 09:17:00,29.3,23.9,29.90,North,9,9.1,11.5,80,0.00,CLR,OVC,0.00,WeatherDisplay:10.37,2013-12-30 14:17:00,
2013-12-30 09:18:00,29.3,23.9,29.90,North,1,10.6,13.8,80,0.00,CLR,OVC,0.00,WeatherDisplay:10.37,2013-12-30 14:18:00,
2013-12-30 09:19:00,29.3,23.9,29.91,North,0,9.9,12.7,80,0.00,CLR,OVC,0.00,WeatherDisplay:10.37,2013-12-30 14:19:00,
2013-12-30 09:22:00,29.2,23.8,29.91,North,7,8.5,11.5,80,0.00,CLR,OVC,0.00,WeatherDisplay:10.37,2013-12-30 14:22:00,
2013-12-30 09:23:00,29.2,23.8,29.91,NNE,16,8.1,11.5,80,0.00,CLR,OVC,0.00,WeatherDisplay:10.37,2013-12-30 14:23:00,
2013-12-30 09:24:00,29.2,23.8,29.91,North,9,10.7,11.5,80,0.00,CLR,OVC,0.00,WeatherDisplay:10.37,2013-12-30 14:24:00,
2013-12-30 09:25:00,29.2,23.5,29.91,North,6,8.8,13.8,79,0.00,CLR,OVC,0.00,WeatherDisplay:10.37,2013-12-30 14:25:00,
2013-12-30 09:28:00,29.1,23.4,29.91,North,2,11.3,12.7,79,0.00,CLR,OVC,0.00,WeatherDisplay:10.37,2013-12-30 14:28:00,
2013-12-30 09:29:00,29.1,23.1,29.91,North,2,8.8,12.7,78,0.00,CLR,OVC,0.00,WeatherDisplay:10.37,2013-12-30 14:29:00,
2013-12-30 09:30:00,29.1,23.1,29.92,North,0,9.6,12.7,78,0.00,CLR,OVC,0.00,WeatherDisplay:10.37,2013-12-30 14:30:00,
2013-12-30 09:33:00,29.0,23.0,29.91,North,4,10.1,12.7,78,0.00,CLR,OVC,0.00,WeatherDisplay:10.37,2013-12-30 14:33:00,
2013-12-30 09:34:00,29.1,23.1,29.92,North,7,9.9,15.0,78,0.00,CLR,OVC,0.00,WeatherDisplay:10.37,2013-12-30 14:34:00,
2013-12-30 09:35:00,29.0,23.0,29.92,North,0,8.9,15.0,78,0.00,CLR,OVC,0.00,WeatherDisplay:10.37,2013-12-30 14:35:00,
2013-12-30 09:38:00,29.3,23.3,29.92,North,0,8.5,12.7,78,0.00,CLR,OVC,0.00,WeatherDisplay:10.37,2013-12-30 14:38:00,
2013-12-30 09:39:00,29.3,23.0,29.92,North,7,9.0,11.5,77,0.00,CLR,OVC,0.00,WeatherDisplay:10.37,2013-12-30 14:39:00,
2013-12-30 09:40:00,29.3,23.0,29.92,North,3,9.3,11.5,77,0.00,CLR,OVC,0.00,WeatherDisplay:10.37,2013-12-30 14:40:00,
2013-12-30 09:41:00,29.3,23.0,29.92,North,3,9.3,11.5,77,0.00,CLR,OVC,0.00,WeatherDisplay:10.37,2013-12-30 14:41:00,
2013-12-30 09:43:00,29.3,22.7,29.92,North,4,13.1,20.7,76,0.00,CLR,OVC,0.00,WeatherDisplay:10.37,2013-12-30 14:43:00,
2013-12-30 09:44:00,29.2,22.3,29.92,North,7,13.6,20.7,75,0.00,CLR,OVC,0.00,WeatherDisplay:10.37,2013-12-30 14:44:00,
2013-12-30 09:46:00,29.1,22.2,29.92,North,9,10.8,16.1,75,0.00,CLR,OVC,0.00,WeatherDisplay:10.37,2013-12-30 14:46:00,
2013-12-30 09:48:00,29.1,22.2,29.93,North,8,12.7,19.6,75,0.00,CLR,OVC,0.00,WeatherDisplay:10.37,2013-12-30 14:48:00,
2013-12-30 09:49:00,29.1,22.2,29.93,North,11,12.1,19.6,75,0.00,CLR,OVC,0.00,WeatherDisplay:10.37,2013-12-30 14:49:00,
2013-12-30 09:51:00,29.0,21.7,29.93,North,8,11.1,16.1,74,0.00,CLR,OVC,0.00,WeatherDisplay:10.37,2013-12-30 14:51:00,
2013-12-30 09:52:00,28.9,21.7,29.93,North,9,11.2,17.3,74,0.00,CLR,OVC,0.00,WeatherDisplay:10.37,2013-12-30 14:52:00,
2013-12-30 09:54:00,28.9,21.7,29.93,North,355,10.0,16.1,74,0.00,CLR,OVC,0.00,WeatherDisplay:10.37,2013-12-30 14:54:00,
2013-12-30 09:55:00,28.8,21.6,29.93,NNE,16,9.4,16.1,74,0.00,CLR,OVC,0.00,WeatherDisplay:10.37,2013-12-30 14:55:00,
2013-12-30 09:56:00,28.8,21.2,29.94,North,355,9.9,17.0,73,0.00,CLR,OVC,0.00,WeatherDisplay:10.37,2013-12-30 14:56:00,
2013-12-30 09:57:00,28.7,21.1,29.94,North,8,14.0,19.6,73,0.00,CLR,OVC,0.00,WeatherDisplay:10.37,2013-12-30 14:57:00,
2013-12-30 09:58:00,28.6,21.0,29.94,North,357,15.8,19.6,73,0.00,CLR,OVC,0.00,WeatherDisplay:10.37,2013-12-30 14:58:00,
2013-12-30 09:59:00,28.5,20.9,29.94,North,5,13.1,19.6,73,0.00,CLR,OVC,0.00,WeatherDisplay:10.37,2013-12-30 14:59:00,
2013-12-30 10:00:00,28.4,20.8,29.94,NNE,21,13.6,19.6,73,0.00,CLR,OVC,0.00,WeatherDisplay:10.37,2013-12-30 15:00:00,
2013-12-30 10:01:00,28.4,20.8,29.94,North,6,13.9,19.6,73,0.00,CLR,OVC,0.00,WeatherDisplay:10.37,2013-12-30 15:01:00,
2013-12-30 10:02:00,28.3,20.4,29.94,North,359,12.7,20.7,72,0.00,CLR,OVC,0.00,WeatherDisplay:10.37,2013-12-30 15:02:00,
2013-12-30 10:03:00,28.2,20.3,29.94,North,9,11.3,20.7,72,0.00,CLR,OVC,0.00,WeatherDisplay:10.37,2013-12-30 15:03:00,
2013-12-30 10:04:00,28.1,20.2,29.94,North,359,10.9,17.3,72,0.00,CLR,OVC,0.00,WeatherDisplay:10.37,2013-12-30 15:04:00,
2013-12-30 10:05:00,28.0,20.1,29.95,North,358,13.0,17.3,72,0.00,CLR,OVC,0.00,WeatherDisplay:10.37,2013-12-30 15:05:00,
2013-12-30 10:06:00,28.0,20.1,29.94,North,350,13.3,18.0,72,0.00,CLR,OVC,0.00,WeatherDisplay:10.37,2013-12-30 15:06:00,
2013-12-30 10:07:00,27.9,20.0,29.95,North,3,13.7,18.4,72,0.00,CLR,OVC,0.00,WeatherDisplay:10.37,2013-12-30 15:07:00,
2013-12-30 10:08:00,27.8,20.3,29.95,North,3,12.9,18.4,73,0.00,CLR,OVC,0.00,WeatherDisplay:10.37,2013-12-30 15:08:00,
2013-12-30 10:09:00,27.8,20.3,29.95,North,1,10.8,17.0,73,0.00,CLR,OVC,0.00,WeatherDisplay:10.37,2013-12-30 15:09:00,
2013-12-30 10:12:00,27.7,20.2,29.95,NNE,12,11.1,15.0,73,0.00,CLR,OVC,0.00,WeatherDisplay:10.37,2013-12-30 15:12:00,
2013-12-30 10:13:00,27.7,20.2,29.95,North,7,10.8,13.8,73,0.00,CLR,OVC,0.00,WeatherDisplay:10.37,2013-12-30 15:13:00,
2013-12-30 10:14:00,27.7,19.8,29.95,North,11,12.4,15.0,72,0.00,CLR,OVC,0.00,WeatherDisplay:10.37,2013-12-30 15:14:00,
2013-12-30 10:15:00,27.7,19.8,29.95,North,3,12.7,17.0,72,0.00,CLR,OVC,0.00,WeatherDisplay:10.37,2013-12-30 15:15:00,
2013-12-30 10:17:00,27.8,19.6,29.95,North,5,13.0,18.4,71,0.00,CLR,OVC,0.00,WeatherDisplay:10.37,2013-12-30 15:17:00,
2013-12-30 10:18:00,27.8,19.6,29.95,North,359,12.9,19.0,71,0.00,CLR,OVC,0.00,WeatherDisplay:10.37,2013-12-30 15:18:00,
2013-12-30 10:20:00,27.8,19.6,29.96,North,352,11.9,19.6,71,0.00,CLR,OVC,0.00,WeatherDisplay:10.37,2013-12-30 15:20:00,
2013-12-30 10:22:00,27.8,18.9,29.96,North,357,15.3,19.6,69,0.00,CLR,OVC,0.00,WeatherDisplay:10.37,2013-12-30 15:22:00,
2013-12-30 10:23:00,27.8,18.9,29.96,North,1,13.5,19.6,69,0.00,CLR,OVC,0.00,WeatherDisplay:10.37,2013-12-30 15:23:00,
2013-12-30 10:24:00,27.8,18.9,29.96,North,356,12.5,16.1,69,0.00,CLR,OVC,0.00,WeatherDisplay:10.37,2013-12-30 15:24:00,
2013-12-30 10:25:00,27.7,18.5,29.96,North,359,12.9,16.1,68,0.00,CLR,OVC,0.00,WeatherDisplay:10.37,2013-12-30 15:25:00,
2013-12-30 10:27:00,27.7,18.8,29.96,NNE,24,10.6,15.0,69,0.00,CLR,OVC,0.00,WeatherDisplay:10.37,2013-12-30 15:27:00,
2013-12-30 10:28:00,27.6,18.8,29.96,NNE,15,10.7,17.0,69,0.00,CLR,OVC,0.00,WeatherDisplay:10.37,2013-12-30 15:28:00,
2013-12-30 10:30:00,27.6,18.4,29.96,NNW,346,12.1,17.3,68,0.00,CLR,OVC,0.00,WeatherDisplay:10.37,2013-12-30 15:30:00,
2013-12-30 10:33:00,27.5,18.7,29.96,North,3,13.4,19.6,69,0.00,CLR,OVC,0.00,WeatherDisplay:10.37,2013-12-30 15:33:00,
2013-12-30 10:35:00,27.5,18.3,29.96,North,0,13.6,17.3,68,0.00,CLR,OVC,0.00,WeatherDisplay:10.37,2013-12-30 15:35:00,
2013-12-30 10:36:00,27.4,18.6,29.96,NNE,18,13.1,18.4,69,0.00,CLR,OVC,0.00,WeatherDisplay:10.37,2013-12-30 15:36:00,
2013-12-30 10:38:00,27.4,18.6,29.96,NNE,18,11.7,15.0,69,0.00,CLR,OVC,0.00,WeatherDisplay:10.37,2013-12-30 15:38:00,
2013-12-30 10:40:00,27.1,18.3,29.97,NNE,33,13.4,18.0,69,0.00,CLR,OVC,0.00,WeatherDisplay:10.37,2013-12-30 15:40:00,
2013-12-30 10:41:00,27.0,18.5,29.97,NNE,24,13.5,19.6,70,0.00,CLR,OVC,0.00,WeatherDisplay:10.37,2013-12-30 15:41:00,
2013-12-30 10:43:00,26.6,18.5,29.97,NNE,29,12.7,17.3,71,0.00,CLR,OVC,0.00,WeatherDisplay:10.37,2013-12-30 15:43:00,
2013-12-30 10:44:00,26.6,18.8,29.97,NNE,27,11.6,17.3,72,0.00,CLR,OVC,0.00,WeatherDisplay:10.37,2013-12-30 15:44:00,
2013-12-30 10:45:00,26.4,18.6,29.97,NE,42,11.4,16.1,72,0.00,CLR,OVC,0.00,WeatherDisplay:10.37,2013-12-30 15:45:00,
2013-12-30 10:46:00,26.3,18.5,29.97,NNE,12,11.3,15.0,72,0.00,CLR,OVC,0.00,WeatherDisplay:10.37,2013-12-30 15:46:00,
2013-12-30 10:48:00,26.1,18.6,29.97,NNE,22,10.1,17.3,73,0.00,CLR,OVC,0.00,WeatherDisplay:10.37,2013-12-30 15:48:00,
2013-12-30 10:49:00,26.1,18.3,29.97,NNE,13,9.6,17.3,72,0.00,CLR,OVC,0.00,WeatherDisplay:10.37,2013-12-30 15:49:00,
2013-12-30 10:50:00,26.0,18.5,29.97,NNE,18,9.3,17.3,73,0.00,CLR,OVC,0.00,WeatherDisplay:10.37,2013-12-30 15:50:00,
2013-12-30 10:51:00,25.8,18.0,29.97,NNE,26,9.1,14.0,72,0.00,CLR,OVC,0.00,WeatherDisplay:10.37,2013-12-30 15:51:00,
2013-12-30 10:53:00,25.6,17.8,29.97,NNE,24,17.4,21.9,72,0.00,CLR,OVC,0.00,WeatherDisplay:10.37,2013-12-30 15:53:00,
2013-12-30 10:54:00,25.5,17.4,29.97,NE,49,19.0,24.2,71,0.00,CLR,OVC,0.00,WeatherDisplay:10.37,2013-12-30 15:54:00,
2013-12-30 10:55:00,25.3,17.5,29.97,NNE,28,18.2,24.2,72,0.00,CLR,OVC,0.00,WeatherDisplay:10.37,2013-12-30 15:55:00,
2013-12-30 10:57:00,25.2,17.4,29.97,NNE,31,17.8,24.2,72,0.00,CLR,OVC,0.00,WeatherDisplay:10.37,2013-12-30 15:57:00,
2013-12-30 10:58:00,25.0,17.2,29.98,NNE,25,16.3,24.2,72,0.00,CLR,OVC,0.00,WeatherDisplay:10.37,2013-12-30 15:58:00,
2013-12-30 10:59:00,24.9,17.1,29.98,NNE,16,15.0,24.2,72,0.00,CLR,OVC,0.00,WeatherDisplay:10.37,2013-12-30 15:59:00,
2013-12-30 11:01:00,24.8,17.1,29.98,NNE,24,14.7,24.2,72,0.00,CLR,OVC,0.00,WeatherDisplay:10.37,2013-12-30 16:01:00,
2013-12-30 11:02:00,24.7,17.0,29.98,NE,35,15.9,26.0,72,0.00,CLR,OVC,0.00,WeatherDisplay:10.37,2013-12-30 16:02:00,
2013-12-30 11:03:00,24.6,16.9,29.98,North,11,15.9,26.5,72,0.00,CLR,OVC,0.00,WeatherDisplay:10.37,2013-12-30 16:03:00,
2013-12-30 11:04:00,24.6,16.9,29.98,NNE,20,15.7,26.5,72,0.00,CLR,OVC,0.00,WeatherDisplay:10.37,2013-12-30 16:04:00,
2013-12-30 11:05:00,24.6,16.9,29.98,NNE,17,11.2,26.5,72,0.00,CLR,OVC,0.00,WeatherDisplay:10.37,2013-12-30 16:05:00,
2013-12-30 11:06:00,24.6,16.9,29.98,North,11,11.3,21.0,72,0.00,CLR,OVC,0.00,WeatherDisplay:10.37,2013-12-30 16:06:00,
2013-12-30 11:07:00,24.7,17.0,29.98,NNE,15,13.9,18.4,72,0.00,CLR,OVC,0.00,WeatherDisplay:10.37,2013-12-30 16:07:00,
2013-12-30 11:09:00,24.7,17.0,29.98,NNE,18,17.8,25.3,72,0.00,CLR,OVC,0.00,WeatherDisplay:10.37,2013-12-30 16:09:00,
2013-12-30 11:10:00,24.7,16.6,29.98,NNE,16,17.1,25.3,71,0.00,CLR,OVC,0.00,WeatherDisplay:10.37,2013-12-30 16:10:00,
2013-12-30 11:11:00,24.7,17.0,29.98,North,4,16.2,25.3,72,0.00,CLR,OVC,0.00,WeatherDisplay:10.37,2013-12-30 16:11:00,
2013-12-30 11:12:00,24.7,17.0,29.98,North,359,13.3,21.9,72,0.00,CLR,OVC,0.00,WeatherDisplay:10.37,2013-12-30 16:12:00,
2013-12-30 11:13:00,24.8,17.1,29.98,North,6,13.1,21.9,72,0.00,CLR,OVC,0.00,WeatherDisplay:10.37,2013-12-30 16:13:00,
2013-12-30 11:14:00,24.8,17.1,29.98,NNE,20,16.1,20.7,72,0.00,CLR,OVC,0.00,WeatherDisplay:10.37,2013-12-30 16:14:00,
2013-12-30 11:16:00,24.8,16.7,29.98,North,5,16.1,21.9,71,0.00,CLR,OVC,0.00,WeatherDisplay:10.37,2013-12-30 16:16:00,
2013-12-30 11:17:00,24.9,16.8,29.98,NE,36,13.6,19.6,71,0.00,CLR,OVC,0.00,WeatherDisplay:10.37,2013-12-30 16:17:00,
2013-12-30 11:18:00,25.0,17.2,29.98,North,4,12.4,16.1,72,0.00,CLR,OVC,0.00,WeatherDisplay:10.37,2013-12-30 16:18:00,
2013-12-30 11:19:00,25.0,17.2,29.98,North,356,13.2,19.0,72,0.00,CLR,OVC,0.00,WeatherDisplay:10.37,2013-12-30 16:19:00,
2013-12-30 11:20:00,25.0,16.9,29.98,North,4,14.5,19.6,71,0.00,CLR,OVC,0.00,WeatherDisplay:10.37,2013-12-30 16:20:00,
2013-12-30 11:21:00,25.0,16.9,29.98,North,359,15.0,20.7,71,0.00,CLR,OVC,0.00,WeatherDisplay:10.37,2013-12-30 16:21:00,
2013-12-30 11:22:00,25.0,16.9,29.98,NNW,345,15.5,20.7,71,0.00,CLR,OVC,0.00,WeatherDisplay:10.37,2013-12-30 16:22:00,
2013-12-30 11:23:00,25.0,16.9,29.98,North,2,13.2,19.6,71,0.00,CLR,OVC,0.00,WeatherDisplay:10.37,2013-12-30 16:23:00,
2013-12-30 11:24:00,25.0,16.9,29.98,North,352,13.4,19.6,71,0.00,CLR,OVC,0.00,WeatherDisplay:10.37,2013-12-30 16:24:00,
2013-12-30 11:25:00,24.9,16.8,29.98,North,358,12.9,20.0,71,0.00,CLR,OVC,0.00,WeatherDisplay:10.37,2013-12-30 16:25:00,
2013-12-30 11:26:00,24.8,16.4,29.98,North,357,14.4,19.6,70,0.00,CLR,OVC,0.00,WeatherDisplay:10.37,2013-12-30 16:26:00,
2013-12-30 11:27:00,24.8,16.4,29.98,North,7,14.7,19.6,70,0.00,CLR,OVC,0.00,WeatherDisplay:10.37,2013-12-30 16:27:00,
2013-12-30 11:28:00,24.7,16.3,29.98,North,6,12.6,19.6,70,0.00,CLR,OVC,0.00,WeatherDisplay:10.37,2013-12-30 16:28:00,
2013-12-30 11:29:00,24.7,16.3,29.98,North,1,12.9,19.6,70,0.00,CLR,OVC,0.00,WeatherDisplay:10.37,2013-12-30 16:29:00,
2013-12-30 11:30:00,24.7,16.3,29.98,North,0,14.4,20.0,70,0.00,CLR,OVC,0.00,WeatherDisplay:10.37,2013-12-30 16:30:00,
2013-12-30 11:31:00,24.6,16.2,29.98,North,8,15.5,20.7,70,0.00,CLR,OVC,0.00,WeatherDisplay:10.37,2013-12-30 16:31:00,
2013-12-30 11:32:00,24.6,16.2,29.98,North,358,13.5,20.7,70,0.00,CLR,OVC,0.00,WeatherDisplay:10.37,2013-12-30 16:32:00,
2013-12-30 11:33:00,24.6,16.2,29.98,North,3,12.9,20.7,70,0.00,CLR,OVC,0.00,WeatherDisplay:10.37,2013-12-30 16:33:00,
2013-12-30 11:34:00,24.6,16.2,29.98,North,6,14.7,20.7,70,0.00,CLR,OVC,0.00,WeatherDisplay:10.37,2013-12-30 16:34:00,
2013-12-30 11:35:00,24.6,15.9,29.98,North,4,15.3,20.7,69,0.00,CLR,OVC,0.00,WeatherDisplay:10.37,2013-12-30 16:35:00,
2013-12-30 11:36:00,24.6,15.9,29.98,North,3,15.1,20.7,69,0.00,CLR,OVC,0.00,WeatherDisplay:10.37,2013-12-30 16:36:00,
2013-12-30 11:38:00,24.6,15.9,29.98,North,359,13.4,18.4,69,0.00,CLR,OVC,0.00,WeatherDisplay:10.37,2013-12-30 16:38:00,
2013-12-30 11:39:00,24.6,15.5,29.98,North,3,12.8,19.6,68,0.00,CLR,OVC,0.00,WeatherDisplay:10.37,2013-12-30 16:39:00,
2013-12-30 11:40:00,24.6,15.9,29.98,North,3,13.0,19.6,69,0.00,CLR,OVC,0.00,WeatherDisplay:10.37,2013-12-30 16:40:00,
2013-12-30 11:41:00,24.6,15.5,29.98,North,355,11.2,19.6,68,0.00,CLR,OVC,0.00,WeatherDisplay:10.37,2013-12-30 16:41:00,
2013-12-30 11:43:00,24.5,15.4,29.99,NNE,18,10.4,16.1,68,0.00,CLR,OVC,0.00,WeatherDisplay:10.37,2013-12-30 16:43:00,
2013-12-30 11:44:00,24.5,15.4,29.99,NNE,14,11.4,16.1,68,0.00,CLR,OVC,0.00,WeatherDisplay:10.37,2013-12-30 16:44:00,
2013-12-30 11:45:00,24.5,15.4,29.98,North,7,11.3,17.3,68,0.00,CLR,OVC,0.00,WeatherDisplay:10.37,2013-12-30 16:45:00,
2013-12-30 11:46:00,24.4,15.3,29.98,NNE,12,10.6,17.3,68,0.00,CLR,OVC,0.00,WeatherDisplay:10.37,2013-12-30 16:46:00,
2013-12-30 11:48:00,24.3,14.9,29.99,NNE,18,13.2,21.9,67,0.00,CLR,OVC,0.00,WeatherDisplay:10.37,2013-12-30 16:48:00,
2013-12-30 11:49:00,24.2,14.8,29.98,NNE,18,14.8,21.9,67,0.00,CLR,OVC,0.00,WeatherDisplay:10.37,2013-12-30 16:49:00,
2013-12-30 11:50:00,24.1,14.4,29.98,NNE,13,14.7,21.9,66,0.00,CLR,OVC,0.00,WeatherDisplay:10.37,2013-12-30 16:50:00,
2013-12-30 11:51:00,23.9,14.2,29.98,North,7,14.4,20.7,66,0.00,CLR,OVC,0.00,WeatherDisplay:10.37,2013-12-30 16:51:00,
2013-12-30 11:52:00,23.9,14.2,29.99,NNE,13,13.9,20.7,66,0.00,CLR,OVC,0.00,WeatherDisplay:10.37,2013-12-30 16:52:00,
2013-12-30 11:53:00,23.8,14.1,29.98,North,5,14.0,20.7,66,0.00,CLR,OVC,0.00,WeatherDisplay:10.37,2013-12-30 16:53:00,
2013-12-30 11:54:00,23.8,14.1,29.98,North,11,15.5,19.6,66,0.00,CLR,OVC,0.00,WeatherDisplay:10.37,2013-12-30 16:54:00,
2013-12-30 11:56:00,23.7,14.0,29.99,North,7,15.5,19.6,66,0.00,CLR,OVC,0.00,WeatherDisplay:10.37,2013-12-30 16:56:00,
2013-12-30 11:57:00,23.7,14.0,29.99,North,3,14.0,20.0,66,0.00,CLR,OVC,0.00,WeatherDisplay:10.37,2013-12-30 16:57:00,
2013-12-30 11:58:00,23.6,13.5,29.99,North,9,13.3,19.6,65,0.00,CLR,OVC,0.00,WeatherDisplay:10.37,2013-12-30 16:58:00,
2013-12-30 11:59:00,23.6,13.5,29.99,North,9,11.9,17.3,65,0.00,CLR,OVC,0.00,WeatherDisplay:10.37,2013-12-30 16:59:00,
2013-12-30 12:01:00,23.6,13.9,29.98,NNE,19,11.0,17.3,66,0.00,CLR,OVC,0.00,WeatherDisplay:10.37,2013-12-30 17:01:00,
2013-12-30 12:02:00,23.6,13.5,29.99,North,9,11.8,21.9,65,0.00,CLR,OVC,0.00,WeatherDisplay:10.37,2013-12-30 17:02:00,
2013-12-30 12:03:00,23.5,13.5,29.99,North,9,13.8,21.9,65,0.00,CLR,OVC,0.00,WeatherDisplay:10.37,2013-12-30 17:03:00,
2013-12-30 12:05:00,23.5,13.5,29.99,North,6,9.9,19.6,65,0.00,CLR,OVC,0.00,WeatherDisplay:10.37,2013-12-30 17:05:00,
2013-12-30 12:06:00,23.5,13.5,29.99,NNE,14,8.9,19.0,65,0.00,CLR,OVC,0.00,WeatherDisplay:10.37,2013-12-30 17:06:00,
2013-12-30 12:07:00,23.5,13.5,29.99,NNE,15,10.8,21.0,65,0.00,CLR,OVC,0.00,WeatherDisplay:10.37,2013-12-30 17:07:00,
2013-12-30 12:08:00,23.5,13.5,29.99,North,7,14.8,20.7,65,0.00,CLR,OVC,0.00,WeatherDisplay:10.37,2013-12-30 17:08:00,
2013-12-30 12:10:00,23.5,13.5,29.99,NNE,12,12.8,18.4,65,0.00,CLR,OVC,0.00,WeatherDisplay:10.37,2013-12-30 17:10:00,
2013-12-30 12:11:00,23.5,13.5,29.99,North,7,12.1,15.0,65,0.00,CLR,OVC,0.00,WeatherDisplay:10.37,2013-12-30 17:11:00,
2013-12-30 12:12:00,23.5,13.5,29.99,NNE,20,11.6,15.0,65,0.00,CLR,OVC,0.00,WeatherDisplay:10.37,2013-12-30 17:12:00,
2013-12-30 12:13:00,23.5,13.5,29.99,North,5,14.4,21.9,65,0.00,CLR,OVC,0.00,WeatherDisplay:10.37,2013-12-30 17:13:00,
2013-12-30 12:15:00,23.5,13.5,29.99,North,11,12.1,19.6,65,0.00,CLR,OVC,0.00,WeatherDisplay:10.37,2013-12-30 17:15:00,
2013-12-30 12:16:00,23.5,13.5,29.99,NNE,29,12.3,19.6,65,0.00,CLR,OVC,0.00,WeatherDisplay:10.37,2013-12-30 17:16:00,
2013-12-30 12:17:00,23.5,13.5,29.99,NNE,27,11.8,19.6,65,0.00,CLR,OVC,0.00,WeatherDisplay:10.37,2013-12-30 17:17:00,
2013-12-30 12:18:00,23.4,13.4,29.99,North,3,13.6,21.9,65,0.00,CLR,OVC,0.00,WeatherDisplay:10.37,2013-12-30 17:18:00,
2013-12-30 12:20:00,23.4,13.0,30.00,North,5,14.0,21.9,64,0.00,CLR,OVC,0.00,WeatherDisplay:10.37,2013-12-30 17:20:00,
2013-12-30 12:21:00,23.4,13.0,30.00,NNE,17,14.2,22.0,64,0.00,CLR,OVC,0.00,WeatherDisplay:10.37,2013-12-30 17:21:00,
2013-12-30 12:22:00,23.4,13.0,30.00,North,7,14.7,19.6,64,0.00,CLR,OVC,0.00,WeatherDisplay:10.37,2013-12-30 17:22:00,
2013-12-30 12:23:00,23.3,12.9,30.00,North,1,13.8,20.7,64,0.00,CLR,OVC,0.00,WeatherDisplay:10.37,2013-12-30 17:23:00,
2013-12-30 12:25:00,23.3,12.9,30.00,NNE,16,12.0,23.0,64,0.00,CLR,OVC,0.00,WeatherDisplay:10.37,2013-12-30 17:25:00,
2013-12-30 12:27:00,23.4,13.0,30.00,North,7,14.5,23.0,64,0.00,CLR,OVC,0.00,WeatherDisplay:10.37,2013-12-30 17:27:00,
2013-12-30 12:28:00,23.3,12.9,30.00,North,10,12.6,19.6,64,0.00,CLR,OVC,0.00,WeatherDisplay:10.37,2013-12-30 17:28:00,
2013-12-30 12:29:00,23.4,13.0,30.00,North,7,10.8,19.6,64,0.00,CLR,OVC,0.00,WeatherDisplay:10.37,2013-12-30 17:29:00,
2013-12-30 12:31:00,23.3,12.9,30.00,North,0,12.1,19.6,64,0.00,CLR,OVC,0.00,WeatherDisplay:10.37,2013-12-30 17:31:00,
2013-12-30 12:32:00,23.3,12.9,30.00,North,0,13.2,18.4,64,0.00,CLR,OVC,0.00,WeatherDisplay:10.37,2013-12-30 17:32:00,
2013-12-30 12:33:00,23.3,12.6,30.00,North,0,15.8,20.7,63,0.00,CLR,OVC,0.00,WeatherDisplay:10.37,2013-12-30 17:33:00,
2013-12-30 12:35:00,23.3,12.6,30.00,NNE,15,13.8,20.7,63,0.00,CLR,OVC,0.00,WeatherDisplay:10.37,2013-12-30 17:35:00,
2013-12-30 12:37:00,23.2,12.5,30.00,NNW,347,13.7,19.6,63,0.00,CLR,OVC,0.00,WeatherDisplay:10.37,2013-12-30 17:37:00,
2013-12-30 12:38:00,23.2,12.5,30.01,North,359,12.2,20.7,63,0.00,CLR,OVC,0.00,WeatherDisplay:10.37,2013-12-30 17:38:00,
2013-12-30 12:40:00,23.2,12.5,30.01,North,359,13.0,16.1,63,0.00,CLR,OVC,0.00,WeatherDisplay:10.37,2013-12-30 17:40:00,
2013-12-30 12:42:00,23.2,12.1,30.00,North,358,13.8,17.3,62,0.00,CLR,OVC,0.00,WeatherDisplay:10.37,2013-12-30 17:42:00,
2013-12-30 12:43:00,23.2,12.1,30.00,North,6,9.6,16.1,62,0.00,CLR,OVC,0.00,WeatherDisplay:10.37,2013-12-30 17:43:00,
2013-12-30 12:45:00,23.2,12.5,30.00,North,0,12.2,18.0,63,0.00,CLR,OVC,0.00,WeatherDisplay:10.37,2013-12-30 17:45:00,
2013-12-30 12:47:00,23.3,12.2,30.01,North,354,13.1,18.4,62,0.00,CLR,OVC,0.00,WeatherDisplay:10.37,2013-12-30 17:47:00,
2013-12-30 12:48:00,23.3,12.2,30.01,North,356,13.2,18.4,62,0.00,CLR,OVC,0.00,WeatherDisplay:10.37,2013-12-30 17:48:00,
2013-12-30 12:49:00,23.3,12.2,30.01,North,11,11.6,15.0,62,0.00,CLR,OVC,0.00,WeatherDisplay:10.37,2013-12-30 17:49:00,
2013-12-30 12:50:00,23.3,12.2,30.01,North,7,9.5,13.8,62,0.00,CLR,OVC,0.00,WeatherDisplay:10.37,2013-12-30 17:50:00,
2013-12-30 12:52:00,23.4,12.6,30.01,NNE,17,8.9,12.0,63,0.00,CLR,OVC,0.00,WeatherDisplay:10.37,2013-12-30 17:52:00,
2013-12-30 12:53:00,23.4,12.6,30.01,NNE,16,10.2,14.0,63,0.00,CLR,OVC,0.00,WeatherDisplay:10.37,2013-12-30 17:53:00,
2013-12-30 12:54:00,23.5,12.7,30.01,NNE,16,10.9,16.1,63,0.00,CLR,OVC,0.00,WeatherDisplay:10.37,2013-12-30 17:54:00,
2013-12-30 12:55:00,23.5,12.4,30.01,North,357,13.4,16.1,62,0.00,CLR,OVC,0.00,WeatherDisplay:10.37,2013-12-30 17:55:00,
2013-12-30 12:57:00,23.5,12.4,30.01,North,2,10.2,13.8,62,0.00,CLR,OVC,0.00,WeatherDisplay:10.37,2013-12-30 17:57:00,
2013-12-30 12:58:00,23.6,12.5,30.01,North,0,11.7,13.8,62,0.00,CLR,OVC,0.00,WeatherDisplay:10.37,2013-12-30 17:58:00,
2013-12-30 12:59:00,23.6,12.1,30.01,North,7,12.2,16.1,61,0.00,CLR,OVC,0.00,WeatherDisplay:10.37,2013-12-30 17:59:00,
2013-12-30 13:00:00,23.6,12.1,30.02,North,5,10.7,16.1,61,0.00,CLR,OVC,0.00,WeatherDisplay:10.37,2013-12-30 18:00:00,
2013-12-30 13:02:00,23.7,12.2,30.01,North,7,15.8,20.7,61,0.00,CLR,OVC,0.00,WeatherDisplay:10.37,2013-12-30 18:02:00,
2013-12-30 13:03:00,23.7,12.2,30.01,North,8,15.4,20.7,61,0.00,CLR,OVC,0.00,WeatherDisplay:10.37,2013-12-30 18:03:00,
2013-12-30 13:04:00,23.7,12.2,30.01,NNE,16,13.8,23.0,61,0.00,CLR,OVC,0.00,WeatherDisplay:10.37,2013-12-30 18:04:00,
2013-12-30 13:05:00,23.7,12.2,30.01,North,3,12.0,16.0,61,0.00,CLR,OVC,0.00,WeatherDisplay:10.37,2013-12-30 18:05:00,
2013-12-30 13:07:00,23.8,12.3,30.02,North,7,10.3,18.4,61,0.00,CLR,OVC,0.00,WeatherDisplay:10.37,2013-12-30 18:07:00,
2013-12-30 13:08:00,23.8,12.3,30.02,North,2,10.2,18.4,61,0.00,CLR,OVC,0.00,WeatherDisplay:10.37,2013-12-30 18:08:00,
2013-12-30 13:10:00,23.9,12.0,30.02,NNE,21,11.7,18.4,60,0.00,CLR,OVC,0.00,WeatherDisplay:10.37,2013-12-30 18:10:00,
2013-12-30 13:13:00,23.8,11.9,30.02,NNE,12,16.5,19.6,60,0.00,CLR,OVC,0.00,WeatherDisplay:10.37,2013-12-30 18:13:00,
2013-12-30 13:15:00,23.6,11.7,30.02,North,0,10.8,18.4,60,0.00,CLR,OVC,0.00,WeatherDisplay:10.37,2013-12-30 18:15:00,
2013-12-30 13:18:00,23.5,12.0,30.02,North,3,8.6,16.1,61,0.00,CLR,OVC,0.00,WeatherDisplay:10.37,2013-12-30 18:18:00,
2013-12-30 13:19:00,23.5,12.0,30.03,North,356,8.4,16.1,61,0.00,CLR,OVC,0.00,WeatherDisplay:10.37,2013-12-30 18:19:00,
2013-12-30 13:20:00,23.5,12.0,30.03,North,0,8.6,16.1,61,0.00,CLR,OVC,0.00,WeatherDisplay:10.37,2013-12-30 18:20:00,
2013-12-30 13:21:00,23.5,12.0,30.02,North,11,9.5,13.0,61,0.00,CLR,OVC,0.00,WeatherDisplay:10.37,2013-12-30 18:21:00,
2013-12-30 13:23:00,23.5,12.0,30.03,North,358,9.3,11.5,61,0.00,CLR,OVC,0.00,WeatherDisplay:10.37,2013-12-30 18:23:00,
2013-12-30 13:25:00,23.5,12.0,30.03,North,0,7.4,11.5,61,0.00,CLR,OVC,0.00,WeatherDisplay:10.37,2013-12-30 18:25:00,
2013-12-30 13:26:00,23.5,12.0,30.03,NNE,15,10.6,12.0,61,0.00,CLR,OVC,0.00,WeatherDisplay:10.37,2013-12-30 18:26:00,
2013-12-30 13:28:00,23.5,11.6,30.03,NNE,15,11.9,15.0,60,0.00,CLR,OVC,0.00,WeatherDisplay:10.37,2013-12-30 18:28:00,
2013-12-30 13:30:00,23.5,11.6,30.03,North,5,15.4,21.9,60,0.00,CLR,OVC,0.00,WeatherDisplay:10.37,2013-12-30 18:30:00,
2013-12-30 13:31:00,23.5,11.6,30.03,North,0,15.1,21.9,60,0.00,CLR,OVC,0.00,WeatherDisplay:10.37,2013-12-30 18:31:00,
2013-12-30 13:34:00,23.5,11.6,30.03,NNE,12,10.5,17.3,60,0.00,CLR,OVC,0.00,WeatherDisplay:10.37,2013-12-30 18:34:00,
2013-12-30 13:35:00,23.6,11.4,30.03,NNW,344,12.2,15.0,59,0.00,CLR,OVC,0.00,WeatherDisplay:10.37,2013-12-30 18:35:00,
2013-12-30 13:36:00,23.6,11.4,30.03,North,6,11.4,15.0,59,0.00,CLR,OVC,0.00,WeatherDisplay:10.37,2013-12-30 18:36:00,
2013-12-30 13:37:00,23.6,11.4,30.03,North,7,12.8,15.0,59,0.00,CLR,OVC,0.00,WeatherDisplay:10.37,2013-12-30 18:37:00,
2013-12-30 13:39:00,23.6,11.0,30.04,North,352,14.9,18.4,58,0.00,CLR,OVC,0.00,WeatherDisplay:10.37,2013-12-30 18:39:00,
2013-12-30 13:41:00,23.6,10.6,30.04,NNW,343,11.7,19.6,57,0.00,CLR,OVC,0.00,WeatherDisplay:10.37,2013-12-30 18:41:00,
2013-12-30 13:42:00,23.5,10.5,30.04,North,357,10.6,19.6,57,0.00,CLR,OVC,0.00,WeatherDisplay:10.37,2013-12-30 18:42:00,
2013-12-30 13:44:00,23.5,10.1,30.04,North,358,14.2,19.6,56,0.00,CLR,OVC,0.00,WeatherDisplay:10.37,2013-12-30 18:44:00,
2013-12-30 13:46:00,23.5,9.7,30.03,North,9,13.4,17.3,55,0.00,CLR,OVC,0.00,WeatherDisplay:10.37,2013-12-30 18:46:00,
2013-12-30 13:47:00,23.5,9.7,30.03,North,354,11.9,17.3,55,0.00,CLR,OVC,0.00,WeatherDisplay:10.37,2013-12-30 18:47:00,
2013-12-30 13:49:00,23.4,10.0,30.04,NNE,15,10.8,12.7,56,0.00,CLR,OVC,0.00,WeatherDisplay:10.37,2013-12-30 18:49:00,
2013-12-30 13:51:00,23.4,9.6,30.03,North,1,12.0,17.3,55,0.00,CLR,OVC,0.00,WeatherDisplay:10.37,2013-12-30 18:51:00,
2013-12-30 13:52:00,23.4,9.6,30.03,NNE,32,11.1,17.3,55,0.00,CLR,OVC,0.00,WeatherDisplay:10.37,2013-12-30 18:52:00,
2013-12-30 13:54:00,23.3,9.5,30.04,North,0,12.5,17.3,55,0.00,CLR,OVC,0.00,WeatherDisplay:10.37,2013-12-30 18:54:00,
2013-12-30 13:56:00,23.2,9.0,30.04,North,3,10.6,16.1,54,0.00,CLR,OVC,0.00,WeatherDisplay:10.37,2013-12-30 18:56:00,
2013-12-30 13:57:00,23.1,9.3,30.03,North,9,12.2,15.0,55,0.00,CLR,OVC,0.00,WeatherDisplay:10.37,2013-12-30 18:57:00,
2013-12-30 14:00:00,23.0,9.2,30.03,North,358,8.7,11.5,55,0.00,CLR,OVC,0.00,WeatherDisplay:10.37,2013-12-30 19:00:00,
2013-12-30 14:01:00,23.0,9.2,30.03,North,359,8.3,15.0,55,0.00,CLR,OVC,0.00,WeatherDisplay:10.37,2013-12-30 19:01:00,
2013-12-30 14:02:00,23.0,9.2,30.03,North,358,11.5,19.6,55,0.00,CLR,OVC,0.00,WeatherDisplay:10.37,2013-12-30 19:02:00,
2013-12-30 14:06:00,22.9,8.7,30.04,North,1,12.3,20.7,54,0.00,CLR,OVC,0.00,WeatherDisplay:10.37,2013-12-30 19:06:00,
2013-12-30 14:07:00,22.8,9.0,30.04,North,4,12.3,19.6,55,0.00,CLR,OVC,0.00,WeatherDisplay:10.37,2013-12-30 19:07:00,
2013-12-30 14:08:00,22.8,8.6,30.04,North,6,12.8,17.3,54,0.00,CLR,OVC,0.00,WeatherDisplay:10.37,2013-12-30 19:08:00,
2013-12-30 14:09:00,22.7,8.9,30.04,North,2,12.5,17.3,55,0.00,CLR,OVC,0.00,WeatherDisplay:10.37,2013-12-30 19:09:00,
2013-12-30 14:11:00,22.6,8.4,30.05,North,350,15.1,18.4,54,0.00,CLR,OVC,0.00,WeatherDisplay:10.37,2013-12-30 19:11:00,
2013-12-30 14:12:00,22.6,8.4,30.05,North,3,14.8,18.4,54,0.00,CLR,OVC,0.00,WeatherDisplay:10.37,2013-12-30 19:12:00,
2013-12-30 14:13:00,22.6,8.4,30.05,North,0,10.6,18.4,54,0.00,CLR,OVC,0.00,WeatherDisplay:10.37,2013-12-30 19:13:00,
2013-12-30 14:14:00,22.6,8.4,30.05,North,359,11.4,14.0,54,0.00,CLR,OVC,0.00,WeatherDisplay:10.37,2013-12-30 19:14:00,
2013-12-30 14:16:00,22.5,8.3,30.05,North,356,12.6,17.3,54,0.00,CLR,OVC,0.00,WeatherDisplay:10.37,2013-12-30 19:16:00,
2013-12-30 14:17:00,22.5,8.7,30.05,North,354,11.7,15.0,55,0.00,CLR,OVC,0.00,WeatherDisplay:10.37,2013-12-30 19:17:00,
2013-12-30 14:18:00,22.5,8.7,30.05,NNW,343,9.5,15.0,55,0.00,CLR,OVC,0.00,WeatherDisplay:10.37,2013-12-30 19:18:00,
2013-12-30 14:19:00,22.6,8.8,30.05,North,3,13.3,16.1,55,0.00,CLR,OVC,0.00,WeatherDisplay:10.37,2013-12-30 19:19:00,
2013-12-30 14:20:00,22.6,8.8,30.05,North,1,13.1,16.1,55,0.00,CLR,OVC,0.00,WeatherDisplay:10.37,2013-12-30 19:20:00,
2013-12-30 14:22:00,22.6,8.8,30.05,North,2,13.4,18.4,55,0.00,CLR,OVC,0.00,WeatherDisplay:10.37,2013-12-30 19:22:00,
2013-12-30 14:23:00,22.7,8.9,30.06,North,1,12.5,18.4,55,0.00,CLR,OVC,0.00,WeatherDisplay:10.37,2013-12-30 19:23:00,
2013-12-30 14:24:00,22.8,9.0,30.05,North,354,12.1,18.4,55,0.00,CLR,OVC,0.00,WeatherDisplay:10.37,2013-12-30 19:24:00,
2013-12-30 14:25:00,22.8,9.0,30.05,NNW,342,12.1,18.4,55,0.00,CLR,OVC,0.00,WeatherDisplay:10.37,2013-12-30 19:25:00,
2013-12-30 14:27:00,22.9,8.7,30.05,North,349,14.3,17.3,54,0.00,CLR,OVC,0.00,WeatherDisplay:10.37,2013-12-30 19:27:00,
2013-12-30 14:28:00,23.0,8.8,30.06,North,357,15.6,19.6,54,0.00,CLR,OVC,0.00,WeatherDisplay:10.37,2013-12-30 19:28:00,
2013-12-30 14:29:00,23.0,8.8,30.06,North,355,14.1,20.7,54,0.00,CLR,OVC,0.00,WeatherDisplay:10.37,2013-12-30 19:29:00,
2013-12-30 14:30:00,23.0,8.8,30.06,North,356,12.5,20.7,54,0.00,CLR,OVC,0.00,WeatherDisplay:10.37,2013-12-30 19:30:00,
2013-12-30 14:32:00,23.1,8.9,30.06,North,1,12.6,17.3,54,0.00,CLR,OVC,0.00,WeatherDisplay:10.37,2013-12-30 19:32:00,
2013-12-30 14:33:00,23.1,8.9,30.06,North,354,11.3,17.3,54,0.00,CLR,OVC,0.00,WeatherDisplay:10.37,2013-12-30 19:33:00,
2013-12-30 14:35:00,23.2,9.0,30.06,North,6,11.1,17.0,54,0.00,CLR,OVC,0.00,WeatherDisplay:10.37,2013-12-30 19:35:00,
2013-12-30 14:37:00,23.2,9.0,30.06,North,0,12.9,17.3,54,0.00,CLR,OVC,0.00,WeatherDisplay:10.37,2013-12-30 19:37:00,
2013-12-30 14:38:00,23.2,9.0,30.06,North,358,10.2,13.8,54,0.00,CLR,OVC,0.00,WeatherDisplay:10.37,2013-12-30 19:38:00,
2013-12-30 14:40:00,23.3,9.1,30.06,North,10,8.5,13.0,54,0.00,CLR,OVC,0.00,WeatherDisplay:10.37,2013-12-30 19:40:00,
2013-12-30 14:41:00,23.4,9.2,30.06,North,3,9.8,14.0,54,0.00,CLR,OVC,0.00,WeatherDisplay:10.37,2013-12-30 19:41:00,
2013-12-30 14:42:00,23.4,9.2,30.06,North,1,8.8,15.0,54,0.00,CLR,OVC,0.00,WeatherDisplay:10.37,2013-12-30 19:42:00,
2013-12-30 14:44:00,23.5,9.3,30.06,North,0,9.1,15.0,54,0.00,CLR,OVC,0.00,WeatherDisplay:10.37,2013-12-30 19:44:00,
2013-12-30 14:45:00,23.5,8.9,30.06,North,359,11.1,17.3,53,0.00,CLR,OVC,0.00,WeatherDisplay:10.37,2013-12-30 19:45:00,
2013-12-30 14:46:00,23.5,9.3,30.06,North,10,8.2,16.1,54,0.00,CLR,OVC,0.00,WeatherDisplay:10.37,2013-12-30 19:46:00,
2013-12-30 14:47:00,23.3,9.1,30.05,North,0,13.6,19.6,54,0.00,CLR,OVC,0.00,WeatherDisplay:10.37,2013-12-30 19:47:00,
2013-12-30 14:48:00,23.3,8.7,30.05,NNE,12,14.5,19.6,53,0.00,CLR,OVC,0.00,WeatherDisplay:10.37,2013-12-30 19:48:00,
2013-12-30 14:49:00,23.3,8.7,30.05,North,3,8.6,17.3,53,0.00,CLR,OVC,0.00,WeatherDisplay:10.37,2013-12-30 19:49:00,
2013-12-30 14:50:00,23.4,8.8,30.05,North,7,8.0,11.5,53,0.00,CLR,OVC,0.00,WeatherDisplay:10.37,2013-12-30 19:50:00,
2013-12-30 14:51:00,23.4,8.8,30.05,NNE,16,10.9,13.0,53,0.00,CLR,OVC,0.00,WeatherDisplay:10.37,2013-12-30 19:51:00,
2013-12-30 14:52:00,23.4,8.8,30.05,North,7,11.4,12.7,53,0.00,CLR,OVC,0.00,WeatherDisplay:10.37,2013-12-30 19:52:00,
2013-12-30 14:53:00,23.0,8.4,30.05,North,7,13.1,13.8,53,0.00,CLR,OVC,0.00,WeatherDisplay:10.37,2013-12-30 19:53:00,
2013-12-30 14:54:00,22.9,7.9,30.05,NNE,18,11.3,16.0,52,0.00,CLR,OVC,0.00,WeatherDisplay:10.37,2013-12-30 19:54:00,
2013-12-30 14:56:00,22.8,7.8,30.05,NNE,18,15.0,19.6,52,0.00,CLR,OVC,0.00,WeatherDisplay:10.37,2013-12-30 19:56:00,
2013-12-30 14:57:00,22.7,7.7,30.05,North,3,12.0,19.6,52,0.00,CLR,OVC,0.00,WeatherDisplay:10.37,2013-12-30 19:57:00,
2013-12-30 14:58:00,22.7,7.7,30.06,North,7,11.3,16.1,52,0.00,CLR,OVC,0.00,WeatherDisplay:10.37,2013-12-30 19:58:00,
2013-12-30 14:59:00,22.7,7.7,30.07,North,358,12.5,18.0,52,0.00,CLR,OVC,0.00,WeatherDisplay:10.37,2013-12-30 19:59:00,
2013-12-30 15:01:00,22.7,7.7,30.07,North,1,10.8,19.6,52,0.00,CLR,OVC,0.00,WeatherDisplay:10.37,2013-12-30 20:01:00,
2013-12-30 15:02:00,22.7,8.1,30.07,North,354,12.1,16.1,53,0.00,CLR,OVC,0.00,WeatherDisplay:10.37,2013-12-30 20:02:00,
2013-12-30 15:03:00,22.7,8.1,30.08,North,351,14.0,20.0,53,0.00,CLR,OVC,0.00,WeatherDisplay:10.37,2013-12-30 20:03:00,
2013-12-30 15:04:00,22.7,7.7,30.08,North,354,18.0,20.7,52,0.00,CLR,OVC,0.00,WeatherDisplay:10.37,2013-12-30 20:04:00,
2013-12-30 15:06:00,22.7,7.7,30.07,North,354,13.6,19.6,52,0.00,CLR,OVC,0.00,WeatherDisplay:10.37,2013-12-30 20:06:00,
2013-12-30 15:07:00,22.6,7.6,30.08,North,0,12.7,20.7,52,0.00,CLR,OVC,0.00,WeatherDisplay:10.37,2013-12-30 20:07:00,
2013-12-30 15:08:00,22.6,7.6,30.07,North,353,12.7,17.3,52,0.00,CLR,OVC,0.00,WeatherDisplay:10.37,2013-12-30 20:08:00,
2013-12-30 15:09:00,22.6,7.6,30.07,North,2,15.0,19.6,52,0.00,CLR,OVC,0.00,WeatherDisplay:10.37,2013-12-30 20:09:00,
2013-12-30 15:10:00,22.5,7.5,30.07,North,358,12.0,19.6,52,0.00,CLR,OVC,0.00,WeatherDisplay:10.37,2013-12-30 20:10:00,
2013-12-30 15:11:00,22.6,7.6,30.07,NNW,345,13.6,15.0,52,0.00,CLR,OVC,0.00,WeatherDisplay:10.37,2013-12-30 20:11:00,
2013-12-30 15:12:00,22.5,7.5,30.07,North,359,12.8,19.6,52,0.00,CLR,OVC,0.00,WeatherDisplay:10.37,2013-12-30 20:12:00,
2013-12-30 15:13:00,22.6,8.0,30.07,North,353,12.8,16.1,53,0.00,CLR,OVC,0.00,WeatherDisplay:10.37,2013-12-30 20:13:00,
2013-12-30 15:14:00,22.6,8.0,30.07,North,355,13.5,17.3,53,0.00,CLR,OVC,0.00,WeatherDisplay:10.37,2013-12-30 20:14:00,
2013-12-30 15:16:00,22.6,8.0,30.08,North,354,14.5,17.3,53,0.00,CLR,OVC,0.00,WeatherDisplay:10.37,2013-12-30 20:16:00,
2013-12-30 15:17:00,22.6,8.0,30.08,North,352,13.2,18.4,53,0.00,CLR,OVC,0.00,WeatherDisplay:10.37,2013-12-30 20:17:00,
2013-12-30 15:19:00,22.6,8.0,30.08,NNE,12,14.2,19.6,53,0.00,CLR,OVC,0.00,WeatherDisplay:10.37,2013-12-30 20:19:00,
2013-12-30 15:20:00,22.5,7.9,30.08,North,352,15.3,19.6,53,0.00,CLR,OVC,0.00,WeatherDisplay:10.37,2013-12-30 20:20:00,
2013-12-30 15:21:00,22.6,8.0,30.08,North,353,13.9,20.7,53,0.00,CLR,OVC,0.00,WeatherDisplay:10.37,2013-12-30 20:21:00,
2013-12-30 15:23:00,22.5,7.9,30.08,North,1,14.6,18.4,53,0.00,CLR,OVC,0.00,WeatherDisplay:10.37,2013-12-30 20:23:00,
2013-12-30 15:24:00,22.5,7.9,30.08,North,1,15.6,18.4,53,0.00,CLR,OVC,0.00,WeatherDisplay:10.37,2013-12-30 20:24:00,
2013-12-30 15:25:00,22.5,7.9,30.08,North,359,16.4,18.4,53,0.00,CLR,OVC,0.00,WeatherDisplay:10.37,2013-12-30 20:25:00,
2013-12-30 15:26:00,22.4,7.8,30.08,North,6,13.5,19.6,53,0.00,CLR,OVC,0.00,WeatherDisplay:10.37,2013-12-30 20:26:00,
2013-12-30 15:28:00,22.3,7.7,30.08,North,10,14.4,19.6,53,0.00,CLR,OVC,0.00,WeatherDisplay:10.37,2013-12-30 20:28:00,
2013-12-30 15:30:00,22.2,7.6,30.08,North,2,10.3,18.4,53,0.00,CLR,OVC,0.00,WeatherDisplay:10.37,2013-12-30 20:30:00,
2013-12-30 15:31:00,22.1,7.6,30.08,North,11,10.9,13.8,53,0.00,CLR,OVC,0.00,WeatherDisplay:10.37,2013-12-30 20:31:00,
2013-12-30 15:32:00,22.1,7.6,30.08,NNE,21,11.3,13.8,53,0.00,CLR,OVC,0.00,WeatherDisplay:10.37,2013-12-30 20:32:00,
2013-12-30 15:34:00,21.9,7.4,30.08,NNE,20,15.1,19.6,53,0.00,CLR,OVC,0.00,WeatherDisplay:10.37,2013-12-30 20:34:00,
2013-12-30 15:35:00,21.8,7.3,30.08,NNE,18,15.5,19.6,53,0.00,CLR,OVC,0.00,WeatherDisplay:10.37,2013-12-30 20:35:00,
2013-12-30 15:36:00,21.8,7.3,30.09,NNE,23,13.8,17.3,53,0.00,CLR,OVC,0.00,WeatherDisplay:10.37,2013-12-30 20:36:00,
2013-12-30 15:37:00,21.7,7.2,30.09,NNE,17,12.6,17.3,53,0.00,CLR,OVC,0.00,WeatherDisplay:10.37,2013-12-30 20:37:00,
2013-12-30 15:40:00,21.6,7.5,30.09,NNE,19,13.2,17.3,54,0.00,CLR,OVC,0.00,WeatherDisplay:10.37,2013-12-30 20:40:00,
2013-12-30 15:41:00,21.5,7.4,30.09,NNE,25,13.8,19.6,54,0.00,CLR,OVC,0.00,WeatherDisplay:10.37,2013-12-30 20:41:00,
2013-12-30 15:42:00,21.5,7.4,30.09,NNE,25,12.2,16.1,54,0.00,CLR,OVC,0.00,WeatherDisplay:10.37,2013-12-30 20:42:00,
2013-12-30 15:43:00,21.5,7.4,30.09,North,4,11.8,16.1,54,0.00,CLR,OVC,0.00,WeatherDisplay:10.37,2013-12-30 20:43:00,
2013-12-30 15:45:00,21.4,7.3,30.10,North,5,12.0,18.4,54,0.00,CLR,OVC,0.00,WeatherDisplay:10.37,2013-12-30 20:45:00,
2013-12-30 15:47:00,21.4,7.3,30.10,NNE,12,10.0,11.5,54,0.00,CLR,OVC,0.00,WeatherDisplay:10.37,2013-12-30 20:47:00,
2013-12-30 15:48:00,21.4,7.3,30.10,North,1,8.7,11.5,54,0.00,CLR,OVC,0.00,WeatherDisplay:10.37,2013-12-30 20:48:00,
2013-12-30 15:50:00,21.4,7.3,30.10,North,354,11.9,18.4,54,0.00,CLR,OVC,0.00,WeatherDisplay:10.37,2013-12-30 20:50:00,
2013-12-30 15:52:00,21.3,7.2,30.10,North,2,14.7,19.6,54,0.00,CLR,OVC,0.00,WeatherDisplay:10.37,2013-12-30 20:52:00,
2013-12-30 15:53:00,21.3,7.2,30.10,North,1,12.3,19.6,54,0.00,CLR,OVC,0.00,WeatherDisplay:10.37,2013-12-30 20:53:00,
2013-12-30 15:55:00,21.2,7.1,30.10,North,8,13.8,15.0,54,0.00,CLR,OVC,0.00,WeatherDisplay:10.37,2013-12-30 20:55:00,
2013-12-30 15:56:00,21.2,6.7,30.10,NNE,12,13.2,18.4,53,0.00,CLR,OVC,0.00,WeatherDisplay:10.37,2013-12-30 20:56:00,
2013-12-30 15:58:00,21.1,6.6,30.10,NNE,19,10.7,16.1,53,0.00,CLR,OVC,0.00,WeatherDisplay:10.37,2013-12-30 20:58:00,
2013-12-30 16:00:00,21.0,6.9,30.10,North,6,10.0,16.0,54,0.00,CLR,OVC,0.00,WeatherDisplay:10.37,2013-12-30 21:00:00,
2013-12-30 16:01:00,21.0,6.9,30.10,North,3,10.9,12.7,54,0.00,CLR,OVC,0.00,WeatherDisplay:10.37,2013-12-30 21:01:00,
2013-12-30 16:04:00,20.8,6.7,30.10,North,5,11.3,18.4,54,0.00,CLR,OVC,0.00,WeatherDisplay:10.37,2013-12-30 21:04:00,
2013-12-30 16:05:00,20.8,6.7,30.10,North,6,11.7,16.1,54,0.00,CLR,OVC,0.00,WeatherDisplay:10.37,2013-12-30 21:05:00,
2013-12-30 16:06:00,20.8,6.3,30.10,North,8,11.4,16.1,53,0.00,CLR,OVC,0.00,WeatherDisplay:10.37,2013-12-30 21:06:00,
2013-12-30 16:09:00,20.6,6.2,30.10,NNE,13,9.8,12.7,53,0.00,CLR,OVC,0.00,WeatherDisplay:10.37,2013-12-30 21:09:00,
2013-12-30 16:10:00,20.6,6.2,30.10,North,6,9.0,15.0,53,0.00,CLR,OVC,0.00,WeatherDisplay:10.37,2013-12-30 21:10:00,
2013-12-30 16:11:00,20.6,6.2,30.10,North,2,12.3,16.1,53,0.00,CLR,OVC,0.00,WeatherDisplay:10.37,2013-12-30 21:11:00,
2013-12-30 16:14:00,20.4,6.0,30.11,North,9,9.4,12.7,53,0.00,CLR,OVC,0.00,WeatherDisplay:10.37,2013-12-30 21:14:00,
2013-12-30 16:15:00,20.4,6.0,30.10,North,6,9.4,15.0,53,0.00,CLR,OVC,0.00,WeatherDisplay:10.37,2013-12-30 21:15:00,
2013-12-30 16:16:00,20.4,6.4,30.11,North,2,10.8,15.0,54,0.00,CLR,OVC,0.00,WeatherDisplay:10.37,2013-12-30 21:16:00,
2013-12-30 16:17:00,20.3,6.3,30.11,North,359,10.6,15.0,54,0.00,CLR,OVC,0.00,WeatherDisplay:10.37,2013-12-30 21:17:00,
2013-12-30 16:19:00,20.1,6.1,30.11,North,0,9.1,12.7,54,0.00,CLR,OVC,0.00,WeatherDisplay:10.37,2013-12-30 21:19:00,
2013-12-30 16:21:00,20.0,6.0,30.11,North,1,11.7,16.0,54,0.00,CLR,OVC,0.00,WeatherDisplay:10.37,2013-12-30 21:21:00,
2013-12-30 16:22:00,20.0,6.0,30.11,North,1,12.2,16.1,54,0.00,CLR,OVC,0.00,WeatherDisplay:10.37,2013-12-30 21:22:00,
2013-12-30 16:24:00,19.9,5.9,30.12,North,5,10.1,13.8,54,0.00,CLR,OVC,0.00,WeatherDisplay:10.37,2013-12-30 21:24:00,
2013-12-30 16:25:00,19.8,5.8,30.12,NNW,347,9.0,11.5,54,0.00,CLR,OVC,0.00,WeatherDisplay:10.37,2013-12-30 21:25:00,
2013-12-30 16:26:00,19.8,5.8,30.12,NNE,15,8.1,12.7,54,0.00,CLR,OVC,0.00,WeatherDisplay:10.37,2013-12-30 21:26:00,
2013-12-30 16:27:00,19.8,5.8,30.12,North,9,8.4,12.7,54,0.00,CLR,OVC,0.00,WeatherDisplay:10.37,2013-12-30 21:27:00,
2013-12-30 16:30:00,19.7,6.1,30.12,North,0,8.1,10.4,55,0.00,CLR,OVC,0.00,WeatherDisplay:10.37,2013-12-30 21:30:00,
2013-12-30 16:31:00,19.7,6.1,30.12,North,0,9.0,11.5,55,0.00,CLR,OVC,0.00,WeatherDisplay:10.37,2013-12-30 21:31:00,
2013-12-30 16:32:00,19.6,6.0,30.12,North,354,6.6,10.4,55,0.00,CLR,OVC,0.00,WeatherDisplay:10.37,2013-12-30 21:32:00,
2013-12-30 16:35:00,19.5,5.9,30.11,North,2,8.7,11.5,55,0.00,CLR,OVC,0.00,WeatherDisplay:10.37,2013-12-30 21:35:00,
2013-12-30 16:36:00,19.5,5.9,30.11,North,7,7.9,10.4,55,0.00,CLR,OVC,0.00,WeatherDisplay:10.37,2013-12-30 21:36:00,
2013-12-30 16:37:00,19.5,5.9,30.11,North,2,7.5,10.4,55,0.00,CLR,OVC,0.00,WeatherDisplay:10.37,2013-12-30 21:37:00,
2013-12-30 16:40:00,19.4,6.2,30.11,North,0,9.4,11.5,56,0.00,CLR,OVC,0.00,WeatherDisplay:10.37,2013-12-30 21:40:00,
2013-12-30 16:41:00,19.4,6.2,30.12,North,356,8.6,11.5,56,0.00,CLR,OVC,0.00,WeatherDisplay:10.37,2013-12-30 21:41:00,
2013-12-30 16:42:00,19.3,6.1,30.12,North,4,7.8,11.5,56,0.00,CLR,OVC,0.00,WeatherDisplay:10.37,2013-12-30 21:42:00,
2013-12-30 16:43:00,19.3,6.1,30.11,North,0,6.8,9.2,56,0.00,CLR,OVC,0.00,WeatherDisplay:10.37,2013-12-30 21:43:00,
2013-12-30 16:45:00,19.2,6.1,30.11,North,0,8.0,11.5,56,0.00,CLR,OVC,0.00,WeatherDisplay:10.37,2013-12-30 21:45:00,
2013-12-30 16:46:00,19.2,6.4,30.11,North,0,5.0,9.2,57,0.00,CLR,OVC,0.00,WeatherDisplay:10.37,2013-12-30 21:46:00,
2013-12-30 16:47:00,19.2,6.4,30.11,North,0,4.9,9.2,57,0.00,CLR,OVC,0.00,WeatherDisplay:10.37,2013-12-30 21:47:00,
2013-12-30 16:48:00,19.2,6.4,30.12,North,0,6.3,9.2,57,0.00,CLR,OVC,0.00,WeatherDisplay:10.37,2013-12-30 21:48:00,
2013-12-30 16:50:00,19.1,6.3,30.11,North,0,6.2,11.5,57,0.00,CLR,OVC,0.00,WeatherDisplay:10.37,2013-12-30 21:50:00,
2013-12-30 16:52:00,19.1,6.3,30.11,North,1,6.8,8.1,57,0.00,CLR,OVC,0.00,WeatherDisplay:10.37,2013-12-30 21:52:00,
2013-12-30 16:53:00,19.0,6.3,30.12,North,4,6.7,10.4,57,0.00,CLR,OVC,0.00,WeatherDisplay:10.37,2013-12-30 21:53:00,
2013-12-30 16:54:00,19.0,6.3,30.12,North,0,7.7,10.4,57,0.00,CLR,OVC,0.00,WeatherDisplay:10.37,2013-12-30 21:54:00,
2013-12-30 16:55:00,18.9,6.5,30.12,North,9,7.0,11.5,58,0.00,CLR,OVC,0.00,WeatherDisplay:10.37,2013-12-30 21:55:00,
2013-12-30 16:57:00,18.9,6.5,30.12,North,0,7.7,11.5,58,0.00,CLR,OVC,0.00,WeatherDisplay:10.37,2013-12-30 21:57:00,
2013-12-30 16:58:00,18.9,6.5,30.12,North,0,6.9,10.4,58,0.00,CLR,OVC,0.00,WeatherDisplay:10.37,2013-12-30 21:58:00,
2013-12-30 16:59:00,18.8,6.4,30.12,North,354,7.2,10.4,58,0.00,CLR,OVC,0.00,WeatherDisplay:10.37,2013-12-30 21:59:00,
2013-12-30 17:01:00,18.7,6.0,30.12,North,7,8.5,10.4,57,0.00,CLR,OVC,0.00,WeatherDisplay:10.37,2013-12-30 22:01:00,
2013-12-30 17:02:00,18.7,6.4,30.12,NNE,12,7.9,10.4,58,0.00,CLR,OVC,0.00,WeatherDisplay:10.37,2013-12-30 22:02:00,
2013-12-30 17:03:00,18.7,6.0,30.12,North,4,7.0,9.2,57,0.00,CLR,OVC,0.00,WeatherDisplay:10.37,2013-12-30 22:03:00,
2013-12-30 17:04:00,18.7,6.0,30.12,North,8,6.7,9.2,57,0.00,CLR,OVC,0.00,WeatherDisplay:10.37,2013-12-30 22:04:00,
2013-12-30 17:06:00,18.6,6.3,30.12,North,11,6.3,8.1,58,0.00,CLR,OVC,0.00,WeatherDisplay:10.37,2013-12-30 22:06:00,
2013-12-30 17:07:00,18.5,6.2,30.12,NNE,20,7.4,8.1,58,0.00,CLR,OVC,0.00,WeatherDisplay:10.37,2013-12-30 22:07:00,
2013-12-30 17:08:00,18.5,6.2,30.12,NNE,25,8.1,11.5,58,0.00,CLR,OVC,0.00,WeatherDisplay:10.37,2013-12-30 22:08:00,
2013-12-30 17:09:00,18.4,6.1,30.12,North,10,6.9,11.5,58,0.00,CLR,OVC,0.00,WeatherDisplay:10.37,2013-12-30 22:09:00,
2013-12-30 17:10:00,18.4,6.1,30.12,North,4,7.0,11.5,58,0.00,CLR,OVC,0.00,WeatherDisplay:10.37,2013-12-30 22:10:00,
2013-12-30 17:11:00,18.4,6.1,30.13,NNE,25,6.1,9.2,58,0.00,CLR,OVC,0.00,WeatherDisplay:10.37,2013-12-30 22:11:00,
2013-12-30 17:13:00,18.3,6.0,30.13,NNE,18,7.9,10.4,58,0.00,CLR,OVC,0.00,WeatherDisplay:10.37,2013-12-30 22:13:00,
2013-12-30 17:14:00,18.2,5.9,30.13,NE,36,9.0,11.0,58,0.00,CLR,OVC,0.00,WeatherDisplay:10.37,2013-12-30 22:14:00,
2013-12-30 17:15:00,18.2,6.3,30.13,NE,44,9.7,14.0,59,0.00,CLR,OVC,0.00,WeatherDisplay:10.37,2013-12-30 22:15:00,
2013-12-30 17:16:00,18.1,5.8,30.13,NNE,30,10.4,13.8,58,0.00,CLR,OVC,0.00,WeatherDisplay:10.37,2013-12-30 22:16:00,
2013-12-30 17:18:00,17.8,5.5,30.13,NNE,33,11.3,17.3,58,0.00,CLR,OVC,0.00,WeatherDisplay:10.37,2013-12-30 22:18:00,
2013-12-30 17:19:00,17.7,5.4,30.13,NE,40,9.8,13.8,58,0.00,CLR,OVC,0.00,WeatherDisplay:10.37,2013-12-30 22:19:00,
2013-12-30 17:20:00,17.5,5.6,30.14,NE,36,11.3,13.8,59,0.00,CLR,OVC,0.00,WeatherDisplay:10.37,2013-12-30 22:20:00,
2013-12-30 17:21:00,17.4,5.5,30.13,NNE,32,11.7,16.0,59,0.00,CLR,OVC,0.00,WeatherDisplay:10.37,2013-12-30 22:21:00,
2013-12-30 17:23:00,17.1,5.2,30.14,NNE,18,9.1,13.8,59,0.00,CLR,OVC,0.00,WeatherDisplay:10.37,2013-12-30 22:23:00,
2013-12-30 17:24:00,17.0,5.1,30.13,NE,34,8.9,13.8,59,0.00,CLR,OVC,0.00,WeatherDisplay:10.37,2013-12-30 22:24:00,
2013-12-30 17:25:00,17.0,5.1,30.13,NNE,30,9.6,13.8,59,0.00,CLR,OVC,0.00,WeatherDisplay:10.37,2013-12-30 22:25:00,
2013-12-30 17:27:00,16.8,4.9,30.14,NE,36,9.4,11.5,59,0.00,CLR,OVC,0.00,WeatherDisplay:10.37,2013-12-30 22:27:00,
2013-12-30 17:28:00,16.6,5.1,30.14,NE,35,9.2,12.0,60,0.00,CLR,OVC,0.00,WeatherDisplay:10.37,2013-12-30 22:28:00,
2013-12-30 17:29:00,16.5,5.0,30.14,NE,36,10.1,11.5,60,0.00,CLR,OVC,0.00,WeatherDisplay:10.37,2013-12-30 22:29:00,
2013-12-30 17:30:00,16.4,4.9,30.14,NNE,27,7.7,13.8,60,0.00,CLR,OVC,0.00,WeatherDisplay:10.37,2013-12-30 22:30:00,
2013-12-30 17:31:00,16.4,4.9,30.14,NNE,29,7.6,11.5,60,0.00,CLR,OVC,0.00,WeatherDisplay:10.37,2013-12-30 22:31:00,
2013-12-30 17:32:00,16.3,5.2,30.14,NNE,29,10.5,12.7,61,0.00,CLR,OVC,0.00,WeatherDisplay:10.37,2013-12-30 22:32:00,
2013-12-30 17:33:00,16.2,5.1,30.14,NE,34,9.3,12.7,61,0.00,CLR,OVC,0.00,WeatherDisplay:10.37,2013-12-30 22:33:00,
2013-12-30 17:34:00,16.2,5.1,30.14,NNE,25,8.2,11.5,61,0.00,CLR,OVC,0.00,WeatherDisplay:10.37,2013-12-30 22:34:00,
2013-12-30 17:36:00,16.1,5.0,30.14,NE,38,10.0,15.0,61,0.00,CLR,OVC,0.00,WeatherDisplay:10.37,2013-12-30 22:36:00,
2013-12-30 17:38:00,16.0,4.9,30.14,NNE,30,8.8,15.0,61,0.00,CLR,OVC,0.00,WeatherDisplay:10.37,2013-12-30 22:38:00,
2013-12-30 17:39:00,16.0,4.9,30.14,NE,34,8.4,11.5,61,0.00,CLR,OVC,0.00,WeatherDisplay:10.37,2013-12-30 22:39:00,
2013-12-30 17:40:00,15.9,4.8,30.14,NE,45,8.3,11.5,61,0.00,CLR,OVC,0.00,WeatherDisplay:10.37,2013-12-30 22:40:00,
2013-12-30 17:41:00,15.8,5.1,30.14,NE,36,9.1,12.7,62,0.00,CLR,OVC,0.00,WeatherDisplay:10.37,2013-12-30 22:41:00,
2013-12-30 17:43:00,15.7,5.0,30.14,NE,41,8.4,12.7,62,0.00,CLR,OVC,0.00,WeatherDisplay:10.37,2013-12-30 22:43:00,
2013-12-30 17:44:00,15.6,4.9,30.14,NNE,15,9.0,12.7,62,0.00,CLR,OVC,0.00,WeatherDisplay:10.37,2013-12-30 22:44:00,
2013-12-30 17:45:00,15.6,4.9,30.14,NE,39,9.4,16.0,62,0.00,CLR,OVC,0.00,WeatherDisplay:10.37,2013-12-30 22:45:00,
2013-12-30 17:47:00,15.5,4.8,30.14,NNE,26,10.8,16.1,62,0.00,CLR,OVC,0.00,WeatherDisplay:10.37,2013-12-30 22:47:00,
2013-12-30 17:48:00,15.3,4.6,30.14,NE,41,10.2,13.8,62,0.00,CLR,OVC,0.00,WeatherDisplay:10.37,2013-12-30 22:48:00,
2013-12-30 17:49:00,15.3,4.6,30.14,NE,35,12.6,17.0,62,0.00,CLR,OVC,0.00,WeatherDisplay:10.37,2013-12-30 22:49:00,
2013-12-30 17:50:00,15.2,4.5,30.14,NNE,32,13.0,16.1,62,0.00,CLR,OVC,0.00,WeatherDisplay:10.37,2013-12-30 22:50:00,
2013-12-30 17:52:00,15.0,4.3,30.14,NNE,28,10.4,13.8,62,0.00,CLR,OVC,0.00,WeatherDisplay:10.37,2013-12-30 22:52:00,
2013-12-30 17:53:00,15.0,4.3,30.14,NE,35,10.8,15.0,62,0.00,CLR,OVC,0.00,WeatherDisplay:10.37,2013-12-30 22:53:00,
2013-12-30 17:54:00,14.9,4.2,30.14,NE,41,10.4,13.8,62,0.00,CLR,OVC,0.00,WeatherDisplay:10.37,2013-12-30 22:54:00,
2013-12-30 17:55:00,14.9,4.2,30.14,NNE,31,11.1,13.8,62,0.00,CLR,OVC,0.00,WeatherDisplay:10.37,2013-12-30 22:55:00,
2013-12-30 17:58:00,14.7,4.0,30.14,NE,49,9.0,11.0,62,0.00,CLR,OVC,0.00,WeatherDisplay:10.37,2013-12-30 22:58:00,
2013-12-30 17:59:00,14.6,3.9,30.14,NE,37,8.9,11.5,62,0.00,CLR,OVC,0.00,WeatherDisplay:10.37,2013-12-30 22:59:00,
2013-12-30 18:00:00,14.6,3.9,30.15,NE,36,7.7,11.5,62,0.00,CLR,OVC,0.00,WeatherDisplay:10.37,2013-12-30 23:00:00,
2013-12-30 18:01:00,14.6,3.9,30.15,NE,56,8.2,12.7,62,0.00,CLR,OVC,0.00,WeatherDisplay:10.37,2013-12-30 23:01:00,
2013-12-30 18:03:00,14.5,4.2,30.15,NE,44,9.4,11.5,63,0.00,CLR,OVC,0.00,WeatherDisplay:10.37,2013-12-30 23:03:00,
2013-12-30 18:04:00,14.5,4.2,30.15,NNE,32,7.9,11.5,63,0.00,CLR,OVC,0.00,WeatherDisplay:10.37,2013-12-30 23:04:00,
2013-12-30 18:05:00,14.4,4.1,30.15,NE,54,7.4,10.4,63,0.00,CLR,OVC,0.00,WeatherDisplay:10.37,2013-12-30 23:05:00,
2013-12-30 18:06:00,14.4,4.1,30.15,NE,36,7.7,10.4,63,0.00,CLR,OVC,0.00,WeatherDisplay:10.37,2013-12-30 23:06:00,
2013-12-30 18:08:00,14.3,4.0,30.15,ENE,57,8.9,11.5,63,0.00,CLR,OVC,0.00,WeatherDisplay:10.37,2013-12-30 23:08:00,
2013-12-30 18:09:00,14.2,3.9,30.15,NE,44,8.9,11.5,63,0.00,CLR,OVC,0.00,WeatherDisplay:10.37,2013-12-30 23:09:00,
2013-12-30 18:10:00,14.2,3.9,30.15,NE,39,9.5,13.8,63,0.00,CLR,OVC,0.00,WeatherDisplay:10.37,2013-12-30 23:10:00,
2013-12-30 18:11:00,14.1,3.8,30.15,ENE,58,8.5,12.0,63,0.00,CLR,OVC,0.00,WeatherDisplay:10.37,2013-12-30 23:11:00,
2013-12-30 18:13:00,14.0,3.7,30.15,NE,35,8.6,12.7,63,0.00,CLR,OVC,0.00,WeatherDisplay:10.37,2013-12-30 23:13:00,
2013-12-30 18:15:00,13.9,3.6,30.15,NE,34,10.9,13.8,63,0.00,CLR,OVC,0.00,WeatherDisplay:10.37,2013-12-30 23:15:00,
2013-12-30 18:16:00,13.8,3.5,30.15,NNE,33,10.2,13.8,63,0.00,CLR,OVC,0.00,WeatherDisplay:10.37,2013-12-30 23:16:00,
2013-12-30 18:17:00,13.7,3.4,30.16,NE,49,11.1,15.0,63,0.00,CLR,OVC,0.00,WeatherDisplay:10.37,2013-12-30 23:17:00,
2013-12-30 18:19:00,13.5,3.2,30.16,NE,40,10.5,18.4,63,0.00,CLR,OVC,0.00,WeatherDisplay:10.37,2013-12-30 23:19:00,
2013-12-30 18:20:00,13.5,3.2,30.16,NNE,33,11.1,14.0,63,0.00,CLR,OVC,0.00,WeatherDisplay:10.37,2013-12-30 23:20:00,
2013-12-30 18:21:00,13.5,2.9,30.16,ENE,59,10.2,13.8,62,0.00,CLR,OVC,0.00,WeatherDisplay:10.37,2013-12-30 23:21:00,
2013-12-30 18:23:00,13.3,2.7,30.16,NE,48,9.6,13.8,62,0.00,CLR,OVC,0.00,WeatherDisplay:10.37,2013-12-30 23:23:00,
2013-12-30 18:24:00,13.3,3.0,30.17,NE,54,10.6,13.8,63,0.00,CLR,OVC,0.00,WeatherDisplay:10.37,2013-12-30 23:24:00,
2013-12-30 18:25:00,13.2,2.9,30.17,NNE,30,8.1,13.8,63,0.00,CLR,OVC,0.00,WeatherDisplay:10.37,2013-12-30 23:25:00,
2013-12-30 18:27:00,13.1,2.9,30.16,NE,39,10.0,11.5,63,0.00,CLR,OVC,0.00,WeatherDisplay:10.37,2013-12-30 23:27:00,
2013-12-30 18:28:00,13.1,2.9,30.16,ENE,57,7.9,11.5,63,0.00,CLR,OVC,0.00,WeatherDisplay:10.37,2013-12-30 23:28:00,
2013-12-30 18:29:00,13.1,2.5,30.16,NNE,31,9.0,11.5,62,0.00,CLR,OVC,0.00,WeatherDisplay:10.37,2013-12-30 23:29:00,
2013-12-30 18:30:00,13.0,2.4,30.16,NE,54,10.3,15.0,62,0.00,CLR,OVC,0.00,WeatherDisplay:10.37,2013-12-30 23:30:00,
2013-12-30 18:31:00,13.0,2.8,30.17,NE,38,9.4,15.0,63,0.00,CLR,OVC,0.00,WeatherDisplay:10.37,2013-12-30 23:31:00,
2013-12-30 18:32:00,12.9,2.7,30.16,NNE,32,8.6,11.5,63,0.00,CLR,OVC,0.00,WeatherDisplay:10.37,2013-12-30 23:32:00,
2013-12-30 18:33:00,12.9,2.3,30.16,NNE,31,9.0,11.5,62,0.00,CLR,OVC,0.00,WeatherDisplay:10.37,2013-12-30 23:33:00,
2013-12-30 18:34:00,12.9,2.3,30.17,NE,39,6.8,11.5,62,0.00,CLR,OVC,0.00,WeatherDisplay:10.37,2013-12-30 23:34:00,
2013-12-30 18:35:00,12.8,2.6,30.17,NE,41,7.5,11.5,63,0.00,CLR,OVC,0.00,WeatherDisplay:10.37,2013-12-30 23:35:00,
2013-12-30 18:36:00,12.8,2.6,30.17,NE,38,8.1,12.7,63,0.00,CLR,OVC,0.00,WeatherDisplay:10.37,2013-12-30 23:36:00,
2013-12-30 18:37:00,12.8,2.6,30.17,NNE,24,7.7,12.7,63,0.00,CLR,OVC,0.00,WeatherDisplay:10.37,2013-12-30 23:37:00,
2013-12-30 18:38:00,12.8,2.6,30.17,NE,50,8.8,12.7,63,0.00,CLR,OVC,0.00,WeatherDisplay:10.37,2013-12-30 23:38:00,
2013-12-30 18:39:00,12.7,2.5,30.17,NNE,28,9.5,13.8,63,0.00,CLR,OVC,0.00,WeatherDisplay:10.37,2013-12-30 23:39:00,
2013-12-30 18:40:00,12.7,2.5,30.17,NE,36,8.5,11.5,63,0.00,CLR,OVC,0.00,WeatherDisplay:10.37,2013-12-30 23:40:00,
2013-12-30 18:42:00,12.7,2.5,30.17,NE,43,9.9,12.0,63,0.00,CLR,OVC,0.00,WeatherDisplay:10.37,2013-12-30 23:42:00,
2013-12-30 18:43:00,12.6,2.4,30.17,NE,34,10.2,13.8,63,0.00,CLR,OVC,0.00,WeatherDisplay:10.37,2013-12-30 23:43:00,
2013-12-30 18:45:00,12.6,2.4,30.17,NE,47,9.4,16.1,63,0.00,CLR,OVC,0.00,WeatherDisplay:10.37,2013-12-30 23:45:00,
2013-12-30 18:46:00,12.6,2.4,30.17,NE,38,8.0,11.5,63,0.00,CLR,OVC,0.00,WeatherDisplay:10.37,2013-12-30 23:46:00,
2013-12-30 18:47:00,12.5,2.3,30.17,NE,48,9.6,12.7,63,0.00,CLR,OVC,0.00,WeatherDisplay:10.37,2013-12-30 23:47:00,
2013-12-30 18:48:00,12.5,2.3,30.17,NE,42,9.1,12.7,63,0.00,CLR,OVC,0.00,WeatherDisplay:10.37,2013-12-30 23:48:00,
2013-12-30 18:50:00,12.4,2.2,30.18,NE,39,7.8,10.4,63,0.00,CLR,OVC,0.00,WeatherDisplay:10.37,2013-12-30 23:50:00,
2013-12-30 18:51:00,12.5,2.3,30.17,NE,34,8.5,11.0,63,0.00,CLR,OVC,0.00,WeatherDisplay:10.37,2013-12-30 23:51:00,
2013-12-30 18:52:00,12.4,2.2,30.17,ENE,65,8.6,11.5,63,0.00,CLR,OVC,0.00,WeatherDisplay:10.37,2013-12-30 23:52:00,
2013-12-30 18:54:00,12.4,2.2,30.17,NE,41,9.4,13.8,63,0.00,CLR,OVC,0.00,WeatherDisplay:10.37,2013-12-30 23:54:00,
2013-12-30 18:55:00,12.4,2.2,30.18,NE,46,7.8,11.5,63,0.00,CLR,OVC,0.00,WeatherDisplay:10.37,2013-12-30 23:55:00,
2013-12-30 18:56:00,12.3,2.1,30.18,NE,35,6.3,9.2,63,0.00,CLR,OVC,0.00,WeatherDisplay:10.37,2013-12-30 23:56:00,
2013-12-30 18:58:00,12.3,2.1,30.17,NE,45,6.3,11.0,63,0.00,CLR,OVC,0.00,WeatherDisplay:10.37,2013-12-30 23:58:00,
2013-12-30 18:59:00,12.3,2.1,30.18,NE,41,7.8,11.5,63,0.00,CLR,OVC,0.00,WeatherDisplay:10.37,2013-12-30 23:59:00,
2013-12-30 19:01:00,12.2,2.0,30.18,NE,47,8.0,10.4,63,0.00,CLR,OVC,0.00,WeatherDisplay:10.37,2013-12-31 00:01:00,
2013-12-30 19:03:00,12.1,1.9,30.18,NNE,32,8.2,10.4,63,0.00,CLR,OVC,0.00,WeatherDisplay:10.37,2013-12-31 00:03:00,
2013-12-30 19:04:00,12.1,1.9,30.18,NNE,15,7.6,11.5,63,0.00,CLR,OVC,0.00,WeatherDisplay:10.37,2013-12-31 00:04:00,
2013-12-30 19:06:00,12.0,1.8,30.18,NNE,13,8.5,10.4,63,0.00,CLR,OVC,0.00,WeatherDisplay:10.37,2013-12-31 00:06:00,
2013-12-30 19:08:00,12.0,1.8,30.19,NE,41,7.3,12.7,63,0.00,CLR,OVC,0.00,WeatherDisplay:10.37,2013-12-31 00:08:00,
2013-12-30 19:09:00,11.9,1.7,30.19,NE,35,7.9,10.4,63,0.00,CLR,OVC,0.00,WeatherDisplay:10.37,2013-12-31 00:09:00,
2013-12-30 19:11:00,11.9,1.7,30.18,NNE,28,9.9,12.7,63,0.00,CLR,OVC,0.00,WeatherDisplay:10.37,2013-12-31 00:11:00,
2013-12-30 19:13:00,11.8,1.6,30.18,NNE,31,7.2,11.5,63,0.00,CLR,OVC,0.00,WeatherDisplay:10.37,2013-12-31 00:13:00,
2013-12-30 19:14:00,11.8,1.6,30.18,NE,36,10.5,14.0,63,0.00,CLR,OVC,0.00,WeatherDisplay:10.37,2013-12-31 00:14:00,
2013-12-30 19:16:00,11.8,1.6,30.18,NE,39,10.7,15.0,63,0.00,CLR,OVC,0.00,WeatherDisplay:10.37,2013-12-31 00:16:00,
2013-12-30 19:17:00,11.8,1.6,30.17,NE,34,11.8,15.0,63,0.00,CLR,OVC,0.00,WeatherDisplay:10.37,2013-12-31 00:17:00,
2013-12-30 19:18:00,11.7,1.5,30.17,NE,40,11.7,18.0,63,0.00,CLR,OVC,0.00,WeatherDisplay:10.37,2013-12-31 00:18:00,
2013-12-30 19:21:00,11.7,1.5,30.18,NE,41,9.3,14.0,63,0.00,CLR,OVC,0.00,WeatherDisplay:10.37,2013-12-31 00:21:00,
2013-12-30 19:22:00,11.7,1.5,30.18,NNE,32,9.0,16.1,63,0.00,CLR,OVC,0.00,WeatherDisplay:10.37,2013-12-31 00:22:00,
2013-12-30 19:23:00,11.6,1.4,30.18,NE,50,7.7,12.0,63,0.00,CLR,OVC,0.00,WeatherDisplay:10.37,2013-12-31 00:23:00,
2013-12-30 19:26:00,11.6,1.4,30.19,NE,38,9.1,12.7,63,0.00,CLR,OVC,0.00,WeatherDisplay:10.37,2013-12-31 00:26:00,
2013-12-30 19:27:00,11.5,1.3,30.19,NE,35,8.5,11.5,63,0.00,CLR,OVC,0.00,WeatherDisplay:10.37,2013-12-31 00:27:00,
2013-12-30 19:28:00,11.5,1.3,30.19,NE,47,6.5,10.4,63,0.00,CLR,OVC,0.00,WeatherDisplay:10.37,2013-12-31 00:28:00,
2013-12-30 19:29:00,11.5,1.3,30.19,NE,37,7.8,11.0,63,0.00,CLR,OVC,0.00,WeatherDisplay:10.37,2013-12-31 00:29:00,
2013-12-30 19:31:00,11.5,1.3,30.18,NE,38,8.6,11.5,63,0.00,CLR,OVC,0.00,WeatherDisplay:10.37,2013-12-31 00:31:00,
2013-12-30 19:32:00,11.4,1.2,30.18,NNE,29,8.5,11.5,63,0.00,CLR,OVC,0.00,WeatherDisplay:10.37,2013-12-31 00:32:00,
2013-12-30 19:33:00,11.4,1.2,30.18,ENE,57,8.6,10.4,63,0.00,CLR,OVC,0.00,WeatherDisplay:10.37,2013-12-31 00:33:00,
2013-12-30 19:34:00,11.4,1.2,30.18,NE,42,7.5,11.5,63,0.00,CLR,OVC,0.00,WeatherDisplay:10.37,2013-12-31 00:34:00,
2013-12-30 19:36:00,11.3,1.1,30.19,ENE,59,8.5,11.5,63,0.00,CLR,OVC,0.00,WeatherDisplay:10.37,2013-12-31 00:36:00,
2013-12-30 19:37:00,11.3,1.1,30.19,NE,35,6.5,10.0,63,0.00,CLR,OVC,0.00,WeatherDisplay:10.37,2013-12-31 00:37:00,
2013-12-30 19:38:00,11.3,1.1,30.19,NE,41,7.7,9.0,63,0.00,CLR,OVC,0.00,WeatherDisplay:10.37,2013-12-31 00:38:00,
2013-12-30 19:39:00,11.3,1.1,30.18,ENE,62,8.1,11.5,63,0.00,CLR,OVC,0.00,WeatherDisplay:10.37,2013-12-31 00:39:00,
2013-12-30 19:41:00,11.2,1.0,30.18,NNE,30,8.1,11.5,63,0.00,CLR,OVC,0.00,WeatherDisplay:10.37,2013-12-31 00:41:00,
2013-12-30 19:42:00,11.2,1.0,30.18,NE,44,8.0,10.4,63,0.00,CLR,OVC,0.00,WeatherDisplay:10.37,2013-12-31 00:42:00,
2013-12-30 19:43:00,11.2,1.0,30.19,NE,49,6.2,10.4,63,0.00,CLR,OVC,0.00,WeatherDisplay:10.37,2013-12-31 00:43:00,
2013-12-30 19:44:00,11.1,0.9,30.19,NE,40,6.9,10.4,63,0.00,CLR,OVC,0.00,WeatherDisplay:10.37,2013-12-31 00:44:00,
2013-12-30 19:45:00,11.2,1.0,30.19,NNE,24,7.5,10.4,63,0.00,CLR,OVC,0.00,WeatherDisplay:10.37,2013-12-31 00:45:00,
2013-12-30 19:46:00,11.1,0.9,30.18,NE,47,9.4,13.8,63,0.00,CLR,OVC,0.00,WeatherDisplay:10.37,2013-12-31 00:46:00,
2013-12-30 19:47:00,11.1,0.9,30.18,NE,40,7.9,12.7,63,0.00,CLR,OVC,0.00,WeatherDisplay:10.37,2013-12-31 00:47:00,
2013-12-30 19:48:00,11.1,0.9,30.18,ENE,68,8.3,10.4,63,0.00,CLR,OVC,0.00,WeatherDisplay:10.37,2013-12-31 00:48:00,
2013-12-30 19:49:00,11.1,0.9,30.18,East,80,7.1,11.5,63,0.00,CLR,OVC,0.00,WeatherDisplay:10.37,2013-12-31 00:49:00,
2013-12-30 19:50:00,11.1,0.9,30.18,NE,56,7.4,11.5,63,0.00,CLR,OVC,0.00,WeatherDisplay:10.37,2013-12-31 00:50:00,
2013-12-30 19:51:00,11.1,0.9,30.18,NE,41,9.3,13.0,63,0.00,CLR,OVC,0.00,WeatherDisplay:10.37,2013-12-31 00:51:00,
2013-12-30 19:52:00,11.1,0.9,30.18,NE,39,8.4,12.7,63,0.00,CLR,OVC,0.00,WeatherDisplay:10.37,2013-12-31 00:52:00,
2013-12-30 19:53:00,11.1,0.9,30.18,NNE,27,8.0,11.5,63,0.00,CLR,OVC,0.00,WeatherDisplay:10.37,2013-12-31 00:53:00,
2013-12-30 19:55:00,11.0,0.9,30.17,NNE,24,9.6,12.7,63,0.00,CLR,OVC,0.00,WeatherDisplay:10.37,2013-12-31 00:55:00,
2013-12-30 19:56:00,11.1,0.9,30.17,NE,40,11.7,15.0,63,0.00,CLR,OVC,0.00,WeatherDisplay:10.37,2013-12-31 00:56:00,
2013-12-30 19:57:00,11.1,0.6,30.18,NNE,33,9.8,17.3,62,0.00,CLR,OVC,0.00,WeatherDisplay:10.37,2013-12-31 00:57:00,
2013-12-30 19:58:00,11.1,0.6,30.18,NE,36,10.7,12.7,62,0.00,CLR,OVC,0.00,WeatherDisplay:10.37,2013-12-31 00:58:00,
2013-12-30 20:00:00,11.0,0.5,30.17,NE,37,9.0,17.0,62,0.00,CLR,OVC,0.00,WeatherDisplay:10.37,2013-12-31 01:00:00,
2013-12-30 20:01:00,11.1,0.9,30.18,NE,41,9.3,16.0,63,0.00,CLR,OVC,0.00,WeatherDisplay:10.37,2013-12-31 01:01:00,
2013-12-30 20:02:00,11.0,0.9,30.18,NE,35,7.7,16.1,63,0.00,CLR,OVC,0.00,WeatherDisplay:10.37,2013-12-31 01:02:00,
2013-12-30 20:03:00,11.1,0.6,30.18,NNE,22,8.3,11.5,62,0.00,CLR,OVC,0.00,WeatherDisplay:10.37,2013-12-31 01:03:00,
2013-12-30 20:05:00,11.0,0.9,30.18,ENE,58,9.7,15.0,63,0.00,CLR,OVC,0.00,WeatherDisplay:10.37,2013-12-31 01:05:00,
2013-12-30 20:06:00,11.1,0.9,30.18,NE,42,10.2,12.7,63,0.00,CLR,OVC,0.00,WeatherDisplay:10.37,2013-12-31 01:06:00,
2013-12-30 20:07:00,11.0,0.9,30.18,NE,45,9.6,11.5,63,0.00,CLR,OVC,0.00,WeatherDisplay:10.37,2013-12-31 01:07:00,
2013-12-30 20:08:00,11.0,0.9,30.18,NE,37,9.5,11.5,63,0.00,CLR,OVC,0.00,WeatherDisplay:10.37,2013-12-31 01:08:00,
2013-12-30 20:09:00,11.0,0.9,30.18,NE,37,8.6,12.7,63,0.00,CLR,OVC,0.00,WeatherDisplay:10.37,2013-12-31 01:09:00,
2013-12-30 20:10:00,11.0,0.9,30.18,NE,44,7.0,10.4,63,0.00,CLR,OVC,0.00,WeatherDisplay:10.37,2013-12-31 01:10:00,
2013-12-30 20:11:00,11.1,0.9,30.18,NE,36,8.9,16.1,63,0.00,CLR,OVC,0.00,WeatherDisplay:10.37,2013-12-31 01:11:00,
2013-12-30 20:12:00,11.0,0.9,30.18,NNE,27,9.5,16.1,63,0.00,CLR,OVC,0.00,WeatherDisplay:10.37,2013-12-31 01:12:00,
2013-12-30 20:13:00,11.1,0.9,30.18,NNE,33,8.3,16.1,63,0.00,CLR,OVC,0.00,WeatherDisplay:10.37,2013-12-31 01:13:00,
2013-12-30 20:15:00,11.1,0.9,30.19,NE,52,8.7,12.7,63,0.00,CLR,OVC,0.00,WeatherDisplay:10.37,2013-12-31 01:15:00,
2013-12-30 20:16:00,11.1,0.6,30.19,NE,34,8.4,12.7,62,0.00,CLR,OVC,0.00,WeatherDisplay:10.37,2013-12-31 01:16:00,
2013-12-30 20:17:00,11.1,0.6,30.19,NE,43,6.9,13.8,62,0.00,CLR,OVC,0.00,WeatherDisplay:10.37,2013-12-31 01:17:00,
2013-12-30 20:18:00,11.1,0.9,30.18,NE,40,6.9,9.2,63,0.00,CLR,OVC,0.00,WeatherDisplay:10.37,2013-12-31 01:18:00,
2013-12-30 20:19:00,11.1,0.6,30.18,NE,53,7.7,11.5,62,0.00,CLR,OVC,0.00,WeatherDisplay:10.37,2013-12-31 01:19:00,
2013-12-30 20:20:00,11.1,0.6,30.18,NNE,32,8.3,11.5,62,0.00,CLR,OVC,0.00,WeatherDisplay:10.37,2013-12-31 01:20:00,
2013-12-30 20:21:00,11.1,0.6,30.18,NE,43,8.8,11.5,62,0.00,CLR,OVC,0.00,WeatherDisplay:10.37,2013-12-31 01:21:00,
2013-12-30 20:22:00,11.0,0.9,30.18,NE,43,6.9,11.5,63,0.00,CLR,OVC,0.00,WeatherDisplay:10.37,2013-12-31 01:22:00,
2013-12-30 20:23:00,11.0,0.9,30.18,NNE,33,7.5,11.5,63,0.00,CLR,OVC,0.00,WeatherDisplay:10.37,2013-12-31 01:23:00,
2013-12-30 20:24:00,11.0,0.5,30.18,NE,45,7.2,11.5,62,0.00,CLR,OVC,0.00,WeatherDisplay:10.37,2013-12-31 01:24:00,
2013-12-30 20:25:00,11.0,0.5,30.18,NE,36,6.9,9.2,62,0.00,CLR,OVC,0.00,WeatherDisplay:10.37,2013-12-31 01:25:00,
2013-12-30 20:26:00,11.0,0.5,30.18,NE,40,6.8,12.0,62,0.00,CLR,OVC,0.00,WeatherDisplay:10.37,2013-12-31 01:26:00,
2013-12-30 20:27:00,10.9,0.8,30.18,NE,39,7.3,11.5,63,0.00,CLR,OVC,0.00,WeatherDisplay:10.37,2013-12-31 01:27:00,
2013-12-30 20:28:00,10.9,0.8,30.18,NE,41,6.3,8.1,63,0.00,CLR,OVC,0.00,WeatherDisplay:10.37,2013-12-31 01:28:00,
2013-12-30 20:29:00,10.9,0.8,30.18,NE,37,5.6,8.1,63,0.00,CLR,OVC,0.00,WeatherDisplay:10.37,2013-12-31 01:29:00,
2013-12-30 20:30:00,10.9,0.8,30.18,NE,52,5.8,8.1,63,0.00,CLR,OVC,0.00,WeatherDisplay:10.37,2013-12-31 01:30:00,
2013-12-30 20:31:00,10.9,0.8,30.18,NE,39,4.5,8.1,63,0.00,CLR,OVC,0.00,WeatherDisplay:10.37,2013-12-31 01:31:00,
2013-12-30 20:32:00,10.8,0.7,30.18,NNE,25,4.2,8.0,63,0.00,CLR,OVC,0.00,WeatherDisplay:10.37,2013-12-31 01:32:00,
2013-12-30 20:34:00,10.8,0.7,30.18,NE,48,5.4,10.4,63,0.00,CLR,OVC,0.00,WeatherDisplay:10.37,2013-12-31 01:34:00,
2013-12-30 20:36:00,10.7,0.6,30.18,NE,38,6.0,9.2,63,0.00,CLR,OVC,0.00,WeatherDisplay:10.37,2013-12-31 01:36:00,
2013-12-30 20:39:00,10.7,0.6,30.18,NNE,28,5.2,8.1,63,0.00,CLR,OVC,0.00,WeatherDisplay:10.37,2013-12-31 01:39:00,
2013-12-30 20:41:00,10.6,0.5,30.18,NNE,32,6.4,9.2,63,0.00,CLR,OVC,0.00,WeatherDisplay:10.37,2013-12-31 01:41:00,
2013-12-30 20:44:00,10.6,0.5,30.18,NNE,20,5.4,8.1,63,0.00,CLR,OVC,0.00,WeatherDisplay:10.37,2013-12-31 01:44:00,
2013-12-30 20:46:00,10.5,0.4,30.19,NNE,26,6.1,11.5,63,0.00,CLR,OVC,0.00,WeatherDisplay:10.37,2013-12-31 01:46:00,
2013-12-30 20:47:00,10.5,0.4,30.19,NE,42,7.0,11.5,63,0.00,CLR,OVC,0.00,WeatherDisplay:10.37,2013-12-31 01:47:00,
2013-12-30 20:49:00,10.5,0.4,30.19,NNE,27,7.5,9.2,63,0.00,CLR,OVC,0.00,WeatherDisplay:10.37,2013-12-31 01:49:00,
2013-12-30 20:51:00,10.5,0.4,30.19,NNE,14,5.8,9.2,63,0.00,CLR,OVC,0.00,WeatherDisplay:10.37,2013-12-31 01:51:00,
2013-12-30 20:52:00,10.4,0.3,30.19,NNE,15,6.4,9.2,63,0.00,CLR,OVC,0.00,WeatherDisplay:10.37,2013-12-31 01:52:00,
2013-12-30 20:54:00,10.4,0.3,30.19,NE,46,7.5,9.2,63,0.00,CLR,OVC,0.00,WeatherDisplay:10.37,2013-12-31 01:54:00,
2013-12-30 20:55:00,10.4,0.3,30.19,NE,35,6.5,9.2,63,0.00,CLR,OVC,0.00,WeatherDisplay:10.37,2013-12-31 01:55:00,
2013-12-30 20:56:00,10.4,0.3,30.19,NE,43,6.9,10.4,63,0.00,CLR,OVC,0.00,WeatherDisplay:10.37,2013-12-31 01:56:00,
2013-12-30 20:57:00,10.4,0.3,30.19,NNE,28,4.3,6.9,63,0.00,CLR,OVC,0.00,WeatherDisplay:10.37,2013-12-31 01:57:00,
2013-12-30 20:59:00,10.3,0.2,30.19,NNE,30,5.1,6.9,63,0.00,CLR,OVC,0.00,WeatherDisplay:10.37,2013-12-31 01:59:00,
2013-12-30 21:00:00,10.3,0.2,30.19,NNE,29,4.1,6.9,63,0.00,CLR,OVC,0.00,WeatherDisplay:10.37,2013-12-31 02:00:00,
2013-12-30 21:02:00,10.3,0.2,30.20,NNE,30,3.6,4.6,63,0.00,CLR,OVC,0.00,WeatherDisplay:10.37,2013-12-31 02:02:00,
2013-12-30 21:03:00,10.3,0.2,30.20,NNE,29,3.9,6.0,63,0.00,CLR,OVC,0.00,WeatherDisplay:10.37,2013-12-31 02:03:00,
2013-12-30 21:04:00,10.3,0.2,30.20,NNE,30,3.2,6.9,63,0.00,CLR,OVC,0.00,WeatherDisplay:10.37,2013-12-31 02:04:00,
2013-12-30 21:06:00,10.3,0.2,30.20,NNE,30,3.4,4.6,63,0.00,CLR,OVC,0.00,WeatherDisplay:10.37,2013-12-31 02:06:00,
2013-12-30 21:07:00,10.2,0.1,30.20,NE,40,3.4,5.8,63,0.00,CLR,OVC,0.00,WeatherDisplay:10.37,2013-12-31 02:07:00,
2013-12-30 21:08:00,10.2,0.1,30.20,NE,40,4.1,5.8,63,0.00,CLR,OVC,0.00,WeatherDisplay:10.37,2013-12-31 02:08:00,
2013-12-30 21:10:00,10.2,0.1,30.20,NE,40,3.8,5.0,63,0.00,CLR,OVC,0.00,WeatherDisplay:10.37,2013-12-31 02:10:00,
2013-12-30 21:11:00,10.1,0.0,30.20,NE,53,4.8,8.1,63,0.00,CLR,OVC,0.00,WeatherDisplay:10.37,2013-12-31 02:11:00,
2013-12-30 21:12:00,10.1,0.0,30.20,NNE,33,4.3,8.1,63,0.00,CLR,OVC,0.00,WeatherDisplay:10.37,2013-12-31 02:12:00,
2013-12-30 21:13:00,10.1,0.0,30.20,NNE,25,4.2,5.8,63,0.00,CLR,OVC,0.00,WeatherDisplay:10.37,2013-12-31 02:13:00,
2013-12-30 21:15:00,10.1,0.0,30.20,NNE,29,5.4,6.9,63,0.00,CLR,OVC,0.00,WeatherDisplay:10.37,2013-12-31 02:15:00,
2013-12-30 21:16:00,10.0,-0.1,30.20,NNE,29,3.9,4.6,63,0.00,CLR,OVC,0.00,WeatherDisplay:10.37,2013-12-31 02:16:00,
2013-12-30 21:17:00,10.1,0.0,30.20,NNE,29,3.4,4.6,63,0.00,CLR,OVC,0.00,WeatherDisplay:10.37,2013-12-31 02:17:00,
2013-12-30 21:18:00,10.0,-0.1,30.20,NNE,29,3.7,4.6,63,0.00,CLR,OVC,0.00,WeatherDisplay:10.37,2013-12-31 02:18:00,
2013-12-30 21:20:00,10.0,0.2,30.20,NNE,31,3.4,5.0,64,0.00,CLR,OVC,0.00,WeatherDisplay:10.37,2013-12-31 02:20:00,
2013-12-30 21:21:00,9.9,-0.2,30.20,NE,37,5.1,8.1,63,0.00,CLR,OVC,0.00,WeatherDisplay:10.37,2013-12-31 02:21:00,
2013-12-30 21:22:00,9.9,-0.2,30.20,NNE,23,5.2,8.1,63,0.00,CLR,OVC,0.00,WeatherDisplay:10.37,2013-12-31 02:22:00,
2013-12-30 21:23:00,9.9,0.1,30.20,NNE,18,5.8,6.9,64,0.00,CLR,OVC,0.00,WeatherDisplay:10.37,2013-12-31 02:23:00,
2013-12-30 21:25:00,9.9,-0.2,30.20,NNE,23,5.4,7.0,63,0.00,CLR,OVC,0.00,WeatherDisplay:10.37,2013-12-31 02:25:00,
2013-12-30 21:26:00,9.8,0.0,30.20,NNE,25,5.6,6.9,64,0.00,CLR,OVC,0.00,WeatherDisplay:10.37,2013-12-31 02:26:00,
2013-12-30 21:27:00,9.8,-0.3,30.20,NNE,19,5.8,8.1,63,0.00,CLR,OVC,0.00,WeatherDisplay:10.37,2013-12-31 02:27:00,
2013-12-30 21:28:00,9.8,-0.3,30.20,NNE,21,5.9,8.1,63,0.00,CLR,OVC,0.00,WeatherDisplay:10.37,2013-12-31 02:28:00,
2013-12-30 21:30:00,9.8,0.0,30.20,NNE,16,4.7,6.0,64,0.00,CLR,OVC,0.00,WeatherDisplay:10.37,2013-12-31 02:30:00,
2013-12-30 21:31:00,9.7,-0.4,30.20,NNE,20,6.5,8.1,63,0.00,CLR,OVC,0.00,WeatherDisplay:10.37,2013-12-31 02:31:00,
2013-12-30 21:32:00,9.7,-0.4,30.20,NNE,20,5.7,8.1,63,0.00,CLR,OVC,0.00,WeatherDisplay:10.37,2013-12-31 02:32:00,
2013-12-30 21:33:00,9.7,-0.4,30.20,NNE,25,6.2,8.1,63,0.00,CLR,OVC,0.00,WeatherDisplay:10.37,2013-12-31 02:33:00,
2013-12-30 21:35:00,9.7,-0.4,30.20,NE,35,5.6,6.9,63,0.00,CLR,OVC,0.00,WeatherDisplay:10.37,2013-12-31 02:35:00,
2013-12-30 21:36:00,9.7,0.0,30.20,NE,48,4.1,5.0,64,0.00,CLR,OVC,0.00,WeatherDisplay:10.37,2013-12-31 02:36:00,
2013-12-30 21:38:00,9.7,0.0,30.20,NE,40,4.7,6.9,64,0.00,CLR,OVC,0.00,WeatherDisplay:10.37,2013-12-31 02:38:00,
2013-12-30 21:39:00,9.7,0.0,30.21,NE,35,5.1,5.8,64,0.00,CLR,OVC,0.00,WeatherDisplay:10.37,2013-12-31 02:39:00,
2013-12-30 21:40:00,9.6,-0.5,30.21,NNE,32,2.8,4.6,63,0.00,CLR,OVC,0.00,WeatherDisplay:10.37,2013-12-31 02:40:00,
2013-12-30 21:42:00,9.6,-0.1,30.20,NNE,31,2.8,3.5,64,0.00,CLR,OVC,0.00,WeatherDisplay:10.37,2013-12-31 02:42:00,
2013-12-30 21:43:00,9.6,-0.5,30.21,NNE,31,2.6,3.5,63,0.00,CLR,OVC,0.00,WeatherDisplay:10.37,2013-12-31 02:43:00,
2013-12-30 21:44:00,9.6,-0.1,30.20,NNE,31,2.4,3.5,64,0.00,CLR,OVC,0.00,WeatherDisplay:10.37,2013-12-31 02:44:00,
2013-12-30 21:45:00,9.6,-0.1,30.21,NNE,31,3.1,3.5,64,0.00,CLR,OVC,0.00,WeatherDisplay:10.37,2013-12-31 02:45:00,
2013-12-30 21:47:00,9.6,-0.1,30.20,NNE,31,1.7,3.5,64,0.00,CLR,OVC,0.00,WeatherDisplay:10.37,2013-12-31 02:47:00,
2013-12-30 21:48:00,9.6,-0.1,30.21,NNE,31,2.9,4.0,64,0.00,CLR,OVC,0.00,WeatherDisplay:10.37,2013-12-31 02:48:00,
2013-12-30 21:49:00,9.6,-0.1,30.21,NNE,31,3.1,4.0,64,0.00,CLR,OVC,0.00,WeatherDisplay:10.37,2013-12-31 02:49:00,
2013-12-30 21:50:00,9.6,-0.1,30.21,NNE,31,3.4,5.0,64,0.00,CLR,OVC,0.00,WeatherDisplay:10.37,2013-12-31 02:50:00,
2013-12-30 21:52:00,9.5,-0.2,30.20,NNE,31,2.9,4.6,64,0.00,CLR,OVC,0.00,WeatherDisplay:10.37,2013-12-31 02:52:00,
2013-12-30 21:54:00,9.5,-0.2,30.21,NNE,31,3.3,4.6,64,0.00,CLR,OVC,0.00,WeatherDisplay:10.37,2013-12-31 02:54:00,
2013-12-30 21:55:00,9.5,-0.2,30.21,NNE,31,2.8,4.0,64,0.00,CLR,OVC,0.00,WeatherDisplay:10.37,2013-12-31 02:55:00,
2013-12-30 21:57:00,9.5,-0.2,30.21,NNE,32,3.4,4.6,64,0.00,CLR,OVC,0.00,WeatherDisplay:10.37,2013-12-31 02:57:00,
2013-12-30 21:59:00,9.5,-0.2,30.21,NNE,32,2.3,4.6,64,0.00,CLR,OVC,0.00,WeatherDisplay:10.37,2013-12-31 02:59:00,
2013-12-30 22:00:00,9.5,-0.2,30.22,NNE,32,3.1,4.0,64,0.00,CLR,OVC,0.00,WeatherDisplay:10.37,2013-12-31 03:00:00,
2013-12-30 22:01:00,9.5,-0.2,30.22,NNE,32,2.9,4.6,64,0.00,CLR,OVC,0.00,WeatherDisplay:10.37,2013-12-31 03:01:00,
2013-12-30 22:02:00,9.5,-0.2,30.21,NNE,32,2.2,3.5,64,0.00,CLR,OVC,0.00,WeatherDisplay:10.37,2013-12-31 03:02:00,
2013-12-30 22:04:00,9.5,-0.6,30.21,NNE,31,3.4,6.0,63,0.00,CLR,OVC,0.00,WeatherDisplay:10.37,2013-12-31 03:04:00,
2013-12-30 22:05:00,9.5,-0.2,30.21,NNE,31,4.4,7.0,64,0.00,CLR,OVC,0.00,WeatherDisplay:10.37,2013-12-31 03:05:00,
2013-12-30 22:06:00,9.5,-0.2,30.21,NNE,20,4.8,6.9,64,0.00,CLR,OVC,0.00,WeatherDisplay:10.37,2013-12-31 03:06:00,
2013-12-30 22:08:00,9.5,-0.2,30.20,NNE,15,4.0,6.9,64,0.00,CLR,OVC,0.00,WeatherDisplay:10.37,2013-12-31 03:08:00,
2013-12-30 22:09:00,9.5,-0.2,30.20,NNE,20,5.0,5.8,64,0.00,CLR,OVC,0.00,WeatherDisplay:10.37,2013-12-31 03:09:00,
2013-12-30 22:10:00,9.4,-0.7,30.20,NE,34,6.5,6.9,63,0.00,CLR,OVC,0.00,WeatherDisplay:10.37,2013-12-31 03:10:00,
2013-12-30 22:11:00,9.5,-0.6,30.20,NNE,26,7.3,9.2,63,0.00,CLR,OVC,0.00,WeatherDisplay:10.37,2013-12-31 03:11:00,
2013-12-30 22:13:00,9.5,-0.6,30.20,NNE,31,5.9,8.1,63,0.00,CLR,OVC,0.00,WeatherDisplay:10.37,2013-12-31 03:13:00,
2013-12-30 22:14:00,9.5,-0.6,30.20,NNE,21,5.0,6.9,63,0.00,CLR,OVC,0.00,WeatherDisplay:10.37,2013-12-31 03:14:00,
2013-12-30 22:15:00,9.5,-0.6,30.20,NNE,20,4.7,6.9,63,0.00,CLR,OVC,0.00,WeatherDisplay:10.37,2013-12-31 03:15:00,
2013-12-30 22:16:00,9.5,-0.6,30.20,NNE,21,4.5,6.9,63,0.00,CLR,OVC,0.00,WeatherDisplay:10.37,2013-12-31 03:16:00,
2013-12-30 22:18:00,9.5,-0.6,30.21,NNE,24,6.2,9.2,63,0.00,CLR,OVC,0.00,WeatherDisplay:10.37,2013-12-31 03:18:00,
2013-12-30 22:19:00,9.6,-0.5,30.21,NNE,24,3.8,6.0,63,0.00,CLR,OVC,0.00,WeatherDisplay:10.37,2013-12-31 03:19:00,
2013-12-30 22:20:00,9.6,-0.5,30.21,NNE,24,3.9,5.8,63,0.00,CLR,OVC,0.00,WeatherDisplay:10.37,2013-12-31 03:20:00,
2013-12-30 22:21:00,9.6,-0.5,30.21,NNE,28,5.0,5.8,63,0.00,CLR,OVC,0.00,WeatherDisplay:10.37,2013-12-31 03:21:00,
2013-12-30 22:24:00,9.6,-0.5,30.20,NNE,31,5.3,6.0,63,0.00,CLR,OVC,0.00,WeatherDisplay:10.37,2013-12-31 03:24:00,
2013-12-30 22:25:00,9.6,-0.5,30.20,NNE,31,4.1,5.0,63,0.00,CLR,OVC,0.00,WeatherDisplay:10.37,2013-12-31 03:25:00,
2013-12-30 22:26:00,9.6,-0.5,30.20,NNE,31,4.1,6.0,63,0.00,CLR,OVC,0.00,WeatherDisplay:10.37,2013-12-31 03:26:00,
2013-12-30 22:30:00,9.7,-0.4,30.21,NNE,20,5.5,8.1,63,0.00,CLR,OVC,0.00,WeatherDisplay:10.37,2013-12-31 03:30:00,
2013-12-30 22:31:00,9.7,-0.7,30.20,NNE,20,2.7,4.6,62,0.00,CLR,OVC,0.00,WeatherDisplay:10.37,2013-12-31 03:31:00,
2013-12-30 22:32:00,9.7,-0.4,30.20,NNE,20,3.0,3.5,63,0.00,CLR,OVC,0.00,WeatherDisplay:10.37,2013-12-31 03:32:00,
2013-12-30 22:35:00,9.7,-0.7,30.20,NNE,22,2.5,5.8,62,0.00,CLR,OVC,0.00,WeatherDisplay:10.37,2013-12-31 03:35:00,
2013-12-30 22:36:00,9.7,-0.7,30.21,NNE,22,2.7,4.6,62,0.00,CLR,OVC,0.00,WeatherDisplay:10.37,2013-12-31 03:36:00,
2013-12-30 22:37:00,9.7,-0.7,30.21,NNE,22,2.9,4.6,62,0.00,CLR,OVC,0.00,WeatherDisplay:10.37,2013-12-31 03:37:00,
2013-12-30 22:38:00,9.7,-0.7,30.20,NNE,26,4.0,5.0,62,0.00,CLR,OVC,0.00,WeatherDisplay:10.37,2013-12-31 03:38:00,
2013-12-30 22:40:00,9.7,-0.7,30.20,NNE,26,3.3,4.6,62,0.00,CLR,OVC,0.00,WeatherDisplay:10.37,2013-12-31 03:40:00,
2013-12-30 22:41:00,9.7,-0.7,30.21,NNE,26,4.1,5.8,62,0.00,CLR,OVC,0.00,WeatherDisplay:10.37,2013-12-31 03:41:00,
2013-12-30 22:42:00,9.7,-0.7,30.21,NNE,26,3.8,5.8,62,0.00,CLR,OVC,0.00,WeatherDisplay:10.37,2013-12-31 03:42:00,
2013-12-30 22:43:00,9.7,-0.7,30.21,NNE,26,3.5,5.8,62,0.00,CLR,OVC,0.00,WeatherDisplay:10.37,2013-12-31 03:43:00,
2013-12-30 22:45:00,9.7,-0.7,30.21,NNE,25,5.0,6.0,62,0.00,CLR,OVC,0.00,WeatherDisplay:10.37,2013-12-31 03:45:00,
2013-12-30 22:46:00,9.6,-0.8,30.21,NNE,25,4.0,5.8,62,0.00,CLR,OVC,0.00,WeatherDisplay:10.37,2013-12-31 03:46:00,
2013-12-30 22:47:00,9.7,-0.7,30.21,NNE,25,3.6,5.8,62,0.00,CLR,OVC,0.00,WeatherDisplay:10.37,2013-12-31 03:47:00,
2013-12-30 22:48:00,9.6,-0.8,30.21,NNE,25,2.9,4.6,62,0.00,CLR,OVC,0.00,WeatherDisplay:10.37,2013-12-31 03:48:00,
2013-12-30 22:50:00,9.6,-0.8,30.21,NNE,25,3.6,4.6,62,0.00,CLR,OVC,0.00,WeatherDisplay:10.37,2013-12-31 03:50:00,
2013-12-30 22:51:00,9.6,-0.8,30.21,NNE,25,3.2,4.6,62,0.00,CLR,OVC,0.00,WeatherDisplay:10.37,2013-12-31 03:51:00,
2013-12-30 22:52:00,9.6,-0.8,30.21,NNE,24,4.0,5.0,62,0.00,CLR,OVC,0.00,WeatherDisplay:10.37,2013-12-31 03:52:00,
2013-12-30 22:53:00,9.6,-0.8,30.21,NNE,24,3.5,4.6,62,0.00,CLR,OVC,0.00,WeatherDisplay:10.37,2013-12-31 03:53:00,
2013-12-30 22:55:00,9.6,-0.8,30.20,NNE,24,1.9,3.5,62,0.00,CLR,OVC,0.00,WeatherDisplay:10.37,2013-12-31 03:55:00,
2013-12-30 22:56:00,9.6,-0.5,30.20,NNE,24,2.4,3.5,63,0.00,CLR,OVC,0.00,WeatherDisplay:10.37,2013-12-31 03:56:00,
2013-12-30 22:57:00,9.5,-0.6,30.20,NNE,24,3.0,3.5,63,0.00,CLR,OVC,0.00,WeatherDisplay:10.37,2013-12-31 03:57:00,
2013-12-30 22:59:00,9.5,-0.6,30.20,NNE,23,3.5,4.0,63,0.00,CLR,OVC,0.00,WeatherDisplay:10.37,2013-12-31 03:59:00,
2013-12-30 23:00:00,9.5,-0.6,30.20,North,8,3.9,4.6,63,0.00,CLR,OVC,0.00,WeatherDisplay:10.37,2013-12-31 04:00:00,
2013-12-30 23:02:00,9.5,-0.6,30.20,North,8,3.6,4.6,63,0.00,CLR,OVC,0.00,WeatherDisplay:10.37,2013-12-31 04:02:00,
2013-12-30 23:03:00,9.5,-0.6,30.20,North,8,3.7,4.0,63,0.00,CLR,OVC,0.00,WeatherDisplay:10.37,2013-12-31 04:03:00,
2013-12-30 23:05:00,9.4,-0.3,30.20,North,8,3.1,4.6,64,0.00,CLR,OVC,0.00,WeatherDisplay:10.37,2013-12-31 04:05:00,
2013-12-30 23:07:00,9.4,-0.3,30.20,North,8,2.6,4.0,64,0.00,CLR,OVC,0.00,WeatherDisplay:10.37,2013-12-31 04:07:00,
2013-12-30 23:08:00,9.3,-0.4,30.20,North,8,2.9,3.5,64,0.00,CLR,OVC,0.00,WeatherDisplay:10.37,2013-12-31 04:08:00,
2013-12-30 23:10:00,9.3,-0.4,30.20,North,8,2.7,3.5,64,0.00,CLR,OVC,0.00,WeatherDisplay:10.37,2013-12-31 04:10:00,
2013-12-30 23:12:00,9.3,-0.4,30.20,North,8,0.9,2.3,64,0.00,CLR,OVC,0.00,WeatherDisplay:10.37,2013-12-31 04:12:00,
2013-12-30 23:13:00,9.3,-0.4,30.20,North,8,0.4,2.3,64,0.00,CLR,OVC,0.00,WeatherDisplay:10.37,2013-12-31 04:13:00,
2013-12-30 23:14:00,9.3,-0.4,30.20,North,8,1.2,3.0,64,0.00,CLR,OVC,0.00,WeatherDisplay:10.37,2013-12-31 04:14:00,
2013-12-30 23:16:00,9.3,-0.4,30.20,North,8,0.7,3.5,64,0.00,CLR,OVC,0.00,WeatherDisplay:10.37,2013-12-31 04:16:00,
2013-12-30 23:17:00,9.3,-0.4,30.20,North,8,1.1,2.3,64,0.00,CLR,OVC,0.00,WeatherDisplay:10.37,2013-12-31 04:17:00,
2013-12-30 23:18:00,9.3,-0.4,30.20,North,8,1.6,2.3,64,0.00,CLR,OVC,0.00,WeatherDisplay:10.37,2013-12-31 04:18:00,
2013-12-30 23:19:00,9.2,-0.5,30.20,North,8,2.2,3.0,64,0.00,CLR,OVC,0.00,WeatherDisplay:10.37,2013-12-31 04:19:00,
2013-12-30 23:21:00,9.2,-0.5,30.21,North,8,1.8,3.5,64,0.00,CLR,OVC,0.00,WeatherDisplay:10.37,2013-12-31 04:21:00,
2013-12-30 23:22:00,9.2,-0.5,30.20,North,8,1.9,3.5,64,0.00,CLR,OVC,0.00,WeatherDisplay:10.37,2013-12-31 04:22:00,
2013-12-30 23:23:00,9.2,-0.5,30.20,North,8,2.5,3.5,64,0.00,CLR,OVC,0.00,WeatherDisplay:10.37,2013-12-31 04:23:00,
2013-12-30 23:24:00,9.2,-0.5,30.20,North,8,2.6,3.5,64,0.00,CLR,OVC,0.00,WeatherDisplay:10.37,2013-12-31 04:24:00,
2013-12-30 23:26:00,9.2,-0.9,30.20,North,8,1.7,3.5,63,0.00,CLR,OVC,0.00,WeatherDisplay:10.37,2013-12-31 04:26:00,
2013-12-30 23:27:00,9.2,-0.5,30.20,North,8,1.3,2.3,64,0.00,CLR,OVC,0.00,WeatherDisplay:10.37,2013-12-31 04:27:00,
2013-12-30 23:28:00,9.2,-0.5,30.20,North,8,1.6,2.3,64,0.00,CLR,OVC,0.00,WeatherDisplay:10.37,2013-12-31 04:28:00,
2013-12-30 23:29:00,9.2,-0.5,30.20,North,8,1.8,3.5,64,0.00,CLR,OVC,0.00,WeatherDisplay:10.37,2013-12-31 04:29:00,
2013-12-30 23:30:00,9.1,-0.6,30.20,North,8,1.8,3.5,64,0.00,CLR,OVC,0.00,WeatherDisplay:10.37,2013-12-31 04:30:00,
2013-12-30 23:31:00,9.1,-0.6,30.20,North,8,1.6,3.5,64,0.00,CLR,OVC,0.00,WeatherDisplay:10.37,2013-12-31 04:31:00,
2013-12-30 23:32:00,9.2,-0.5,30.20,North,8,1.7,3.5,64,0.00,CLR,OVC,0.00,WeatherDisplay:10.37,2013-12-31 04:32:00,
2013-12-30 23:33:00,9.1,-0.6,30.20,North,8,1.3,2.3,64,0.00,CLR,OVC,0.00,WeatherDisplay:10.37,2013-12-31 04:33:00,
2013-12-30 23:34:00,9.1,-0.6,30.20,North,8,1.6,2.3,64,0.00,CLR,OVC,0.00,WeatherDisplay:10.37,2013-12-31 04:34:00,
2013-12-30 23:35:00,9.1,-0.6,30.20,North,8,1.0,3.0,64,0.00,CLR,OVC,0.00,WeatherDisplay:10.37,2013-12-31 04:35:00,
2013-12-30 23:37:00,9.2,-0.5,30.20,North,8,1.1,2.3,64,0.00,CLR,OVC,0.00,WeatherDisplay:10.37,2013-12-31 04:37:00,
2013-12-30 23:38:00,9.2,-0.9,30.20,North,8,0.9,2.3,63,0.00,CLR,OVC,0.00,WeatherDisplay:10.37,2013-12-31 04:38:00,
2013-12-30 23:39:00,9.2,-0.5,30.21,North,8,0.4,1.2,64,0.00,CLR,OVC,0.00,WeatherDisplay:10.37,2013-12-31 04:39:00,
2013-12-30 23:42:00,9.2,-0.5,30.21,North,8,0.0,0.0,64,0.00,CLR,OVC,0.00,WeatherDisplay:10.37,2013-12-31 04:42:00,
2013-12-30 23:43:00,9.2,-0.5,30.21,North,8,0.0,0.0,64,0.00,CLR,OVC,0.00,WeatherDisplay:10.37,2013-12-31 04:43:00,
2013-12-30 23:44:00,9.2,-0.9,30.20,North,8,0.8,1.2,63,0.00,CLR,OVC,0.00,WeatherDisplay:10.37,2013-12-31 04:44:00,
2013-12-30 23:47:00,9.2,-0.5,30.21,North,8,1.4,2.3,64,0.00,CLR,OVC,0.00,WeatherDisplay:10.37,2013-12-31 04:47:00,
2013-12-30 23:48:00,9.3,-0.8,30.21,North,8,1.2,2.3,63,0.00,CLR,OVC,0.00,WeatherDisplay:10.37,2013-12-31 04:48:00,
2013-12-30 23:49:00,9.2,-0.5,30.20,North,8,0.5,2.3,64,0.00,CLR,OVC,0.00,WeatherDisplay:10.37,2013-12-31 04:49:00,
2013-12-30 23:50:00,9.2,-0.9,30.21,North,8,0.2,2.3,63,0.00,CLR,OVC,0.00,WeatherDisplay:10.37,2013-12-31 04:50:00,
2013-12-30 23:52:00,9.2,-0.5,30.21,North,8,0.8,1.2,64,0.00,CLR,OVC,0.00,WeatherDisplay:10.37,2013-12-31 04:52:00,
2013-12-30 23:53:00,9.2,-0.5,30.21,North,8,1.2,2.3,64,0.00,CLR,OVC,0.00,WeatherDisplay:10.37,2013-12-31 04:53:00,
2013-12-30 23:55:00,9.2,-0.5,30.21,North,8,1.7,2.3,64,0.00,CLR,OVC,0.00,WeatherDisplay:10.37,2013-12-31 04:55:00,
2013-12-30 23:57:00,9.1,-0.3,30.22,North,8,1.6,3.5,65,0.00,CLR,OVC,0.00,WeatherDisplay:10.37,2013-12-31 04:57:00,
2013-12-30 23:58:00,9.1,-0.3,30.22,North,8,1.2,3.5,65,0.00,CLR,OVC,0.00,WeatherDisplay:10.37,2013-12-31 04:58:00,
2013-12-30 23:59:00,9.1,-0.3,30.21,North,8,0.7,2.3,65,0.00,CLR,OVC,0.00,WeatherDisplay:10.37,2013-12-31 04:59:00,